PWSweather.com
Personal Weather Stations
Station Observations
HVALPSUND
Hvalpsund, FarsoeDK 9640

HvalpsundFarsoeDK 9640

Lat: 56.705311, Lon: 9.203638

Elevation: 5

Station Type: Vantage Pro2

http://hvalpsundvejr.dk

High Low Average
Temperature 56.6°F13.7°C 52.8°F11.6°C 54.4°F12.4°C
Dew Point 54.0°F12.2°C 49.5°F9.7°C 51.1°F10.6°C
Winds 20.6 mph 33.2 kmh 3.9 mph 6.3 kmh 10.0 mph SE16.1 kmh SE
Wind Gusts 29.0 mph46.7 kmh 7.0 mph11.3 kmh 15.0 mph24.1 kmh
Humidity 93% 83% 89%
Pressure 29.44 in997.0 mb 28.93 in979.7 mb -
Precipitation 0.03 in0.8 mm - -
Hour Temp Dew Point Humidity Winds Wind Gusts Pressure Precip Precip Rate Daily Precip Total
12:00 AM 55.4°F13.0°C 52.2°F11.2°C 89% 6.0 mph S9.7 kmh S 9.0 mph14.5 kmh 29.44 in997.0 mb 0.00 in0.0 mm 0.00 in0.0 mm 0.00 in0.0 mm
12:01 AM 55.4°F13.0°C 52.2°F11.2°C 89% 7.3 mph S11.7 kmh S 9.0 mph14.5 kmh 29.44 in997.0 mb 0.00 in0.0 mm 0.00 in0.0 mm 0.00 in0.0 mm
12:02 AM 55.3°F12.9°C 52.1°F11.2°C 89% 5.7 mph SSW9.2 kmh SSW 9.0 mph14.5 kmh 29.44 in997.0 mb 0.00 in0.0 mm 0.00 in0.0 mm 0.00 in0.0 mm
12:03 AM 55.2°F12.9°C 52.0°F11.1°C 89% 5.7 mph S9.2 kmh S 8.0 mph12.9 kmh 29.44 in997.0 mb 0.00 in0.0 mm 0.00 in0.0 mm 0.00 in0.0 mm
12:04 AM 55.2°F12.9°C 52.0°F11.1°C 89% 7.2 mph S11.6 kmh S 11.0 mph17.7 kmh 29.44 in997.0 mb 0.00 in0.0 mm 0.00 in0.0 mm 0.00 in0.0 mm
12:05 AM 55.2°F12.9°C 52.0°F11.1°C 89% 8.0 mph S12.9 kmh S 11.0 mph17.7 kmh 29.44 in997.0 mb 0.00 in0.0 mm 0.00 in0.0 mm 0.00 in0.0 mm
12:06 AM 55.1°F12.8°C 51.9°F11.1°C 89% 6.5 mph S10.5 kmh S 10.0 mph16.1 kmh 29.44 in997.0 mb 0.00 in0.0 mm 0.00 in0.0 mm 0.00 in0.0 mm
12:07 AM 55.0°F12.8°C 51.8°F11.0°C 89% 6.9 mph S11.1 kmh S 9.0 mph14.5 kmh 29.44 in997.0 mb 0.00 in0.0 mm 0.00 in0.0 mm 0.00 in0.0 mm
12:08 AM 55.0°F12.8°C 52.1°F11.2°C 90% 6.9 mph S11.1 kmh S 10.0 mph16.1 kmh 29.44 in997.0 mb 0.00 in0.0 mm 0.00 in0.0 mm 0.00 in0.0 mm
12:09 AM 55.0°F12.8°C 52.1°F11.2°C 90% 8.0 mph S12.9 kmh S 12.0 mph19.3 kmh 29.44 in997.0 mb 0.00 in0.0 mm 0.00 in0.0 mm 0.00 in0.0 mm
12:10 AM 54.9°F12.7°C 52.0°F11.1°C 90% 6.6 mph SSW10.6 kmh SSW 12.0 mph19.3 kmh 29.44 in997.0 mb 0.00 in0.0 mm 0.00 in0.0 mm 0.00 in0.0 mm
12:11 AM 54.8°F12.7°C 51.9°F11.1°C 90% 7.1 mph SSW11.4 kmh SSW 10.0 mph16.1 kmh 29.44 in997.0 mb 0.00 in0.0 mm 0.00 in0.0 mm 0.00 in0.0 mm
12:12 AM 54.8°F12.7°C 51.9°F11.1°C 90% 6.4 mph S10.3 kmh S 10.0 mph16.1 kmh 29.44 in997.0 mb 0.00 in0.0 mm 0.00 in0.0 mm 0.00 in0.0 mm
12:13 AM 54.7°F12.6°C 51.8°F11.0°C 90% 7.6 mph S12.2 kmh S 10.0 mph16.1 kmh 29.44 in997.0 mb 0.00 in0.0 mm 0.00 in0.0 mm 0.00 in0.0 mm
12:14 AM 54.6°F12.6°C 51.7°F10.9°C 90% 5.3 mph SSW8.5 kmh SSW 10.0 mph16.1 kmh 29.44 in997.0 mb 0.00 in0.0 mm 0.00 in0.0 mm 0.00 in0.0 mm
12:15 AM 54.6°F12.6°C 51.7°F10.9°C 90% 6.1 mph SSW9.8 kmh SSW 8.0 mph12.9 kmh 29.44 in997.0 mb 0.00 in0.0 mm 0.00 in0.0 mm 0.00 in0.0 mm
12:16 AM 54.6°F12.6°C 51.7°F10.9°C 90% 6.1 mph SSW9.8 kmh SSW 8.0 mph12.9 kmh 29.44 in997.0 mb 0.00 in0.0 mm 0.00 in0.0 mm 0.00 in0.0 mm
12:17 AM 54.6°F12.6°C 51.7°F10.9°C 90% 5.9 mph SSW9.5 kmh SSW 9.0 mph14.5 kmh 29.44 in997.0 mb 0.00 in0.0 mm 0.00 in0.0 mm 0.00 in0.0 mm
12:18 AM 54.5°F12.5°C 51.6°F10.9°C 90% 7.6 mph S12.2 kmh S 10.0 mph16.1 kmh 29.44 in997.0 mb 0.00 in0.0 mm 0.00 in0.0 mm 0.00 in0.0 mm
12:19 AM 54.5°F12.5°C 51.6°F10.9°C 90% 8.2 mph SSW13.2 kmh SSW 11.0 mph17.7 kmh 29.44 in997.0 mb 0.00 in0.0 mm 0.00 in0.0 mm 0.00 in0.0 mm
12:20 AM 54.5°F12.5°C 51.6°F10.9°C 90% 6.7 mph SSW10.8 kmh SSW 11.0 mph17.7 kmh 29.44 in997.0 mb 0.00 in0.0 mm 0.00 in0.0 mm 0.00 in0.0 mm
12:21 AM 54.5°F12.5°C 51.6°F10.9°C 90% 5.0 mph SSW8.0 kmh SSW 8.0 mph12.9 kmh 29.44 in997.0 mb 0.00 in0.0 mm 0.00 in0.0 mm 0.00 in0.0 mm
12:22 AM 54.5°F12.5°C 51.6°F10.9°C 90% 6.5 mph SSW10.5 kmh SSW 9.0 mph14.5 kmh 29.44 in997.0 mb 0.00 in0.0 mm 0.00 in0.0 mm 0.00 in0.0 mm
12:23 AM 54.4°F12.4°C 51.5°F10.8°C 90% 6.2 mph SSW10.0 kmh SSW 9.0 mph14.5 kmh 29.43 in996.6 mb 0.00 in0.0 mm 0.00 in0.0 mm 0.00 in0.0 mm
12:24 AM 54.4°F12.4°C 51.5°F10.8°C 90% 5.3 mph SSW8.5 kmh SSW 8.0 mph12.9 kmh 29.43 in996.6 mb 0.00 in0.0 mm 0.00 in0.0 mm 0.00 in0.0 mm
12:25 AM 54.4°F12.4°C 51.5°F10.8°C 90% 5.4 mph SSW8.7 kmh SSW 8.0 mph12.9 kmh 29.43 in996.6 mb 0.00 in0.0 mm 0.00 in0.0 mm 0.00 in0.0 mm
12:26 AM 54.4°F12.4°C 51.5°F10.8°C 90% 4.8 mph SSW7.7 kmh SSW 7.0 mph11.3 kmh 29.43 in996.6 mb 0.00 in0.0 mm 0.00 in0.0 mm 0.00 in0.0 mm
12:27 AM 54.4°F12.4°C 51.5°F10.8°C 90% 5.6 mph SSW9.0 kmh SSW 8.0 mph12.9 kmh 29.43 in996.6 mb 0.00 in0.0 mm 0.00 in0.0 mm 0.00 in0.0 mm
12:28 AM 54.4°F12.4°C 51.5°F10.8°C 90% 5.6 mph S9.0 kmh S 8.0 mph12.9 kmh 29.43 in996.6 mb 0.00 in0.0 mm 0.00 in0.0 mm 0.00 in0.0 mm
12:29 AM 54.4°F12.4°C 51.5°F10.8°C 90% 6.7 mph SSW10.8 kmh SSW 9.0 mph14.5 kmh 29.43 in996.6 mb 0.00 in0.0 mm 0.00 in0.0 mm 0.00 in0.0 mm
12:30 AM 54.4°F12.4°C 51.5°F10.8°C 90% 8.2 mph SSW13.2 kmh SSW 10.0 mph16.1 kmh 29.43 in996.6 mb 0.00 in0.0 mm 0.00 in0.0 mm 0.00 in0.0 mm
12:31 AM 54.4°F12.4°C 51.5°F10.8°C 90% 7.5 mph SSW12.1 kmh SSW 10.0 mph16.1 kmh 29.44 in997.0 mb 0.00 in0.0 mm 0.00 in0.0 mm 0.00 in0.0 mm
12:32 AM 54.4°F12.4°C 51.5°F10.8°C 90% 6.1 mph SSW9.8 kmh SSW 10.0 mph16.1 kmh 29.43 in996.6 mb 0.00 in0.0 mm 0.00 in0.0 mm 0.00 in0.0 mm
12:33 AM 54.4°F12.4°C 51.5°F10.8°C 90% 6.8 mph SSW10.9 kmh SSW 10.0 mph16.1 kmh 29.43 in996.6 mb 0.00 in0.0 mm 0.00 in0.0 mm 0.00 in0.0 mm
12:34 AM 54.4°F12.4°C 51.5°F10.8°C 90% 5.5 mph SSW8.9 kmh SSW 10.0 mph16.1 kmh 29.43 in996.6 mb 0.00 in0.0 mm 0.00 in0.0 mm 0.00 in0.0 mm
12:35 AM 54.4°F12.4°C 51.5°F10.8°C 90% 7.9 mph SSW12.7 kmh SSW 11.0 mph17.7 kmh 29.43 in996.6 mb 0.00 in0.0 mm 0.00 in0.0 mm 0.00 in0.0 mm
12:36 AM 54.4°F12.4°C 51.2°F10.7°C 89% 7.6 mph SSW12.2 kmh SSW 11.0 mph17.7 kmh 29.43 in996.6 mb 0.00 in0.0 mm 0.00 in0.0 mm 0.00 in0.0 mm
12:37 AM 54.4°F12.4°C 51.2°F10.7°C 89% 8.1 mph SSW13.0 kmh SSW 10.0 mph16.1 kmh 29.43 in996.6 mb 0.00 in0.0 mm 0.00 in0.0 mm 0.00 in0.0 mm
12:38 AM 54.5°F12.5°C 51.3°F10.7°C 89% 6.5 mph S10.5 kmh S 10.0 mph16.1 kmh 29.43 in996.6 mb 0.00 in0.0 mm 0.00 in0.0 mm 0.00 in0.0 mm
12:39 AM 54.5°F12.5°C 51.3°F10.7°C 89% 8.4 mph SSW13.5 kmh SSW 11.0 mph17.7 kmh 29.43 in996.6 mb 0.00 in0.0 mm 0.00 in0.0 mm 0.00 in0.0 mm
12:40 AM 54.5°F12.5°C 51.3°F10.7°C 89% 7.4 mph SSW11.9 kmh SSW 11.0 mph17.7 kmh 29.43 in996.6 mb 0.00 in0.0 mm 0.00 in0.0 mm 0.00 in0.0 mm
12:41 AM 54.5°F12.5°C 51.3°F10.7°C 89% 6.1 mph SSW9.8 kmh SSW 11.0 mph17.7 kmh 29.43 in996.6 mb 0.00 in0.0 mm 0.00 in0.0 mm 0.00 in0.0 mm
12:42 AM 54.5°F12.5°C 51.3°F10.7°C 89% 5.8 mph S9.3 kmh S 10.0 mph16.1 kmh 29.43 in996.6 mb 0.00 in0.0 mm 0.00 in0.0 mm 0.00 in0.0 mm
12:43 AM 54.5°F12.5°C 51.3°F10.7°C 89% 7.8 mph S12.6 kmh S 10.0 mph16.1 kmh 29.43 in996.6 mb 0.00 in0.0 mm 0.00 in0.0 mm 0.00 in0.0 mm
12:44 AM 54.6°F12.6°C 51.4°F10.8°C 89% 8.6 mph SSW13.8 kmh SSW 11.0 mph17.7 kmh 29.43 in996.6 mb 0.00 in0.0 mm 0.00 in0.0 mm 0.00 in0.0 mm
12:45 AM 54.5°F12.5°C 51.3°F10.7°C 89% 7.7 mph S12.4 kmh S 11.0 mph17.7 kmh 29.43 in996.6 mb 0.00 in0.0 mm 0.00 in0.0 mm 0.00 in0.0 mm
12:46 AM 54.6°F12.6°C 51.4°F10.8°C 89% 8.0 mph S12.9 kmh S 11.0 mph17.7 kmh 29.43 in996.6 mb 0.00 in0.0 mm 0.00 in0.0 mm 0.00 in0.0 mm
12:47 AM 54.6°F12.6°C 51.4°F10.8°C 89% 6.4 mph SSW10.3 kmh SSW 11.0 mph17.7 kmh 29.43 in996.6 mb 0.00 in0.0 mm 0.00 in0.0 mm 0.00 in0.0 mm
12:48 AM 54.5°F12.5°C 51.3°F10.7°C 89% 7.1 mph S11.4 kmh S 12.0 mph19.3 kmh 29.43 in996.6 mb 0.00 in0.0 mm 0.00 in0.0 mm 0.00 in0.0 mm
12:49 AM 54.6°F12.6°C 51.4°F10.8°C 89% 8.1 mph S13.0 kmh S 12.0 mph19.3 kmh 29.43 in996.6 mb 0.00 in0.0 mm 0.00 in0.0 mm 0.00 in0.0 mm
12:50 AM 54.6°F12.6°C 51.4°F10.8°C 89% 8.8 mph SSW14.2 kmh SSW 12.0 mph19.3 kmh 29.43 in996.6 mb 0.00 in0.0 mm 0.00 in0.0 mm 0.00 in0.0 mm
12:51 AM 54.6°F12.6°C 51.4°F10.8°C 89% 7.6 mph SSW12.2 kmh SSW 10.0 mph16.1 kmh 29.43 in996.6 mb 0.00 in0.0 mm 0.00 in0.0 mm 0.00 in0.0 mm
12:52 AM 54.6°F12.6°C 51.4°F10.8°C 89% 10.0 mph SSW16.1 kmh SSW 13.0 mph20.9 kmh 29.43 in996.6 mb 0.00 in0.0 mm 0.00 in0.0 mm 0.00 in0.0 mm
12:53 AM 54.6°F12.6°C 51.4°F10.8°C 89% 9.2 mph SSW14.8 kmh SSW 13.0 mph20.9 kmh 29.43 in996.6 mb 0.00 in0.0 mm 0.00 in0.0 mm 0.00 in0.0 mm
12:54 AM 54.6°F12.6°C 51.4°F10.8°C 89% 10.5 mph SSW16.9 kmh SSW 13.0 mph20.9 kmh 29.43 in996.6 mb 0.00 in0.0 mm 0.00 in0.0 mm 0.00 in0.0 mm
12:55 AM 54.6°F12.6°C 51.4°F10.8°C 89% 7.5 mph S12.1 kmh S 13.0 mph20.9 kmh 29.43 in996.6 mb 0.00 in0.0 mm 0.00 in0.0 mm 0.00 in0.0 mm
12:56 AM 54.6°F12.6°C 51.4°F10.8°C 89% 7.5 mph S12.1 kmh S 11.0 mph17.7 kmh 29.43 in996.6 mb 0.00 in0.0 mm 0.00 in0.0 mm 0.00 in0.0 mm
12:57 AM 54.6°F12.6°C 51.4°F10.8°C 89% 7.2 mph S11.6 kmh S 11.0 mph17.7 kmh 29.43 in996.6 mb 0.00 in0.0 mm 0.00 in0.0 mm 0.00 in0.0 mm
12:58 AM 54.6°F12.6°C 51.4°F10.8°C 89% 6.6 mph SSW10.6 kmh SSW 11.0 mph17.7 kmh 29.43 in996.6 mb 0.00 in0.0 mm 0.00 in0.0 mm 0.00 in0.0 mm
12:59 AM 54.6°F12.6°C 51.4°F10.8°C 89% 6.1 mph SSW9.8 kmh SSW 9.0 mph14.5 kmh 29.43 in996.6 mb 0.00 in0.0 mm 0.00 in0.0 mm 0.00 in0.0 mm
01:00 AM 54.6°F12.6°C 51.4°F10.8°C 89% 8.2 mph SSW13.2 kmh SSW 13.0 mph20.9 kmh 29.43 in996.6 mb 0.00 in0.0 mm 0.00 in0.0 mm 0.00 in0.0 mm
01:01 AM 54.6°F12.6°C 51.4°F10.8°C 89% 8.1 mph S13.0 kmh S 13.0 mph20.9 kmh 29.43 in996.6 mb 0.00 in0.0 mm 0.00 in0.0 mm 0.00 in0.0 mm
01:02 AM 54.7°F12.6°C 51.5°F10.8°C 89% 7.6 mph SSW12.2 kmh SSW 13.0 mph20.9 kmh 29.43 in996.6 mb 0.00 in0.0 mm 0.00 in0.0 mm 0.00 in0.0 mm
01:03 AM 54.6°F12.6°C 51.4°F10.8°C 89% 8.3 mph S13.4 kmh S 12.0 mph19.3 kmh 29.43 in996.6 mb 0.00 in0.0 mm 0.00 in0.0 mm 0.00 in0.0 mm
01:04 AM 54.7°F12.6°C 51.2°F10.7°C 88% 9.5 mph SSW15.3 kmh SSW 14.0 mph22.5 kmh 29.43 in996.6 mb 0.00 in0.0 mm 0.00 in0.0 mm 0.00 in0.0 mm
01:05 AM 54.7°F12.6°C 51.2°F10.7°C 88% 7.5 mph SSW12.1 kmh SSW 14.0 mph22.5 kmh 29.43 in996.6 mb 0.00 in0.0 mm 0.00 in0.0 mm 0.00 in0.0 mm
01:06 AM 54.7°F12.6°C 51.2°F10.7°C 88% 8.0 mph SSW12.9 kmh SSW 11.0 mph17.7 kmh 29.43 in996.6 mb 0.00 in0.0 mm 0.00 in0.0 mm 0.00 in0.0 mm
01:07 AM 54.7°F12.6°C 51.2°F10.7°C 88% 8.6 mph SSW13.8 kmh SSW 11.0 mph17.7 kmh 29.43 in996.6 mb 0.00 in0.0 mm 0.00 in0.0 mm 0.00 in0.0 mm
01:08 AM 54.7°F12.6°C 51.2°F10.7°C 88% 6.6 mph SSW10.6 kmh SSW 11.0 mph17.7 kmh 29.43 in996.6 mb 0.00 in0.0 mm 0.00 in0.0 mm 0.00 in0.0 mm
01:09 AM 54.7°F12.6°C 51.2°F10.7°C 88% 7.7 mph SSW12.4 kmh SSW 10.0 mph16.1 kmh 29.43 in996.6 mb 0.00 in0.0 mm 0.00 in0.0 mm 0.00 in0.0 mm
01:10 AM 54.7°F12.6°C 51.2°F10.7°C 88% 8.6 mph SSW13.8 kmh SSW 10.0 mph16.1 kmh 29.43 in996.6 mb 0.00 in0.0 mm 0.00 in0.0 mm 0.00 in0.0 mm
01:11 AM 54.7°F12.6°C 51.2°F10.7°C 88% 8.1 mph SSW13.0 kmh SSW 11.0 mph17.7 kmh 29.43 in996.6 mb 0.00 in0.0 mm 0.00 in0.0 mm 0.00 in0.0 mm
01:12 AM 54.7°F12.6°C 51.2°F10.7°C 88% 8.3 mph S13.4 kmh S 11.0 mph17.7 kmh 29.43 in996.6 mb 0.00 in0.0 mm 0.00 in0.0 mm 0.00 in0.0 mm
01:13 AM 54.6°F12.6°C 51.1°F10.6°C 88% 7.6 mph SSW12.2 kmh SSW 11.0 mph17.7 kmh 29.43 in996.6 mb 0.00 in0.0 mm 0.00 in0.0 mm 0.00 in0.0 mm
01:14 AM 54.6°F12.6°C 51.1°F10.6°C 88% 8.0 mph SSW12.9 kmh SSW 10.0 mph16.1 kmh 29.43 in996.6 mb 0.00 in0.0 mm 0.00 in0.0 mm 0.00 in0.0 mm
01:15 AM 54.6°F12.6°C 51.1°F10.6°C 88% 8.8 mph SSW14.2 kmh SSW 12.0 mph19.3 kmh 29.43 in996.6 mb 0.00 in0.0 mm 0.00 in0.0 mm 0.00 in0.0 mm
01:16 AM 54.6°F12.6°C 51.1°F10.6°C 88% 7.9 mph SSW12.7 kmh SSW 12.0 mph19.3 kmh 29.43 in996.6 mb 0.00 in0.0 mm 0.00 in0.0 mm 0.00 in0.0 mm
01:17 AM 54.5°F12.5°C 51.0°F10.6°C 88% 7.8 mph SSW12.6 kmh SSW 12.0 mph19.3 kmh 29.43 in996.6 mb 0.00 in0.0 mm 0.00 in0.0 mm 0.00 in0.0 mm
01:18 AM 54.5°F12.5°C 51.0°F10.6°C 88% 7.3 mph SSW11.7 kmh SSW 12.0 mph19.3 kmh 29.43 in996.6 mb 0.00 in0.0 mm 0.00 in0.0 mm 0.00 in0.0 mm
01:19 AM 54.4°F12.4°C 50.9°F10.5°C 88% 5.8 mph SSW9.3 kmh SSW 10.0 mph16.1 kmh 29.43 in996.6 mb 0.00 in0.0 mm 0.00 in0.0 mm 0.00 in0.0 mm
01:20 AM 54.4°F12.4°C 50.9°F10.5°C 88% 5.6 mph SSW9.0 kmh SSW 10.0 mph16.1 kmh 29.43 in996.6 mb 0.00 in0.0 mm 0.00 in0.0 mm 0.00 in0.0 mm
01:21 AM 54.4°F12.4°C 50.9°F10.5°C 88% 6.5 mph SSW10.5 kmh SSW 10.0 mph16.1 kmh 29.43 in996.6 mb 0.00 in0.0 mm 0.00 in0.0 mm 0.00 in0.0 mm
01:22 AM 54.4°F12.4°C 50.9°F10.5°C 88% 6.0 mph SSW9.7 kmh SSW 9.0 mph14.5 kmh 29.43 in996.6 mb 0.00 in0.0 mm 0.00 in0.0 mm 0.00 in0.0 mm
01:23 AM 54.3°F12.4°C 50.8°F10.4°C 88% 6.7 mph SSW10.8 kmh SSW 9.0 mph14.5 kmh 29.43 in996.6 mb 0.00 in0.0 mm 0.00 in0.0 mm 0.00 in0.0 mm
01:24 AM 54.3°F12.4°C 50.8°F10.4°C 88% 6.0 mph SSW9.7 kmh SSW 9.0 mph14.5 kmh 29.43 in996.6 mb 0.00 in0.0 mm 0.00 in0.0 mm 0.00 in0.0 mm
01:25 AM 54.3°F12.4°C 51.1°F10.6°C 89% 7.6 mph SSW12.2 kmh SSW 10.0 mph16.1 kmh 29.43 in996.6 mb 0.00 in0.0 mm 0.00 in0.0 mm 0.00 in0.0 mm
01:26 AM 54.3°F12.4°C 50.8°F10.4°C 88% 7.4 mph SSW11.9 kmh SSW 10.0 mph16.1 kmh 29.43 in996.6 mb 0.00 in0.0 mm 0.00 in0.0 mm 0.00 in0.0 mm
01:27 AM 54.2°F12.3°C 50.7°F10.4°C 88% 7.2 mph SSW11.6 kmh SSW 10.0 mph16.1 kmh 29.43 in996.6 mb 0.00 in0.0 mm 0.00 in0.0 mm 0.00 in0.0 mm
01:28 AM 54.2°F12.3°C 50.7°F10.4°C 88% 6.7 mph SSW10.8 kmh SSW 10.0 mph16.1 kmh 29.42 in996.3 mb 0.00 in0.0 mm 0.00 in0.0 mm 0.00 in0.0 mm
01:29 AM 54.2°F12.3°C 50.7°F10.4°C 88% 8.3 mph S13.4 kmh S 10.0 mph16.1 kmh 29.42 in996.3 mb 0.00 in0.0 mm 0.00 in0.0 mm 0.00 in0.0 mm
01:30 AM 54.2°F12.3°C 50.7°F10.4°C 88% 8.3 mph SSW13.4 kmh SSW 10.0 mph16.1 kmh 29.42 in996.3 mb 0.00 in0.0 mm 0.00 in0.0 mm 0.00 in0.0 mm
01:31 AM 54.2°F12.3°C 50.7°F10.4°C 88% 7.1 mph S11.4 kmh S 10.0 mph16.1 kmh 29.42 in996.3 mb 0.00 in0.0 mm 0.00 in0.0 mm 0.00 in0.0 mm
01:32 AM 54.2°F12.3°C 50.7°F10.4°C 88% 6.6 mph S10.6 kmh S 10.0 mph16.1 kmh 29.42 in996.3 mb 0.00 in0.0 mm 0.00 in0.0 mm 0.00 in0.0 mm
01:33 AM 54.2°F12.3°C 50.7°F10.4°C 88% 6.6 mph S10.6 kmh S 10.0 mph16.1 kmh 29.42 in996.3 mb 0.00 in0.0 mm 0.00 in0.0 mm 0.00 in0.0 mm
01:34 AM 54.2°F12.3°C 50.7°F10.4°C 88% 6.4 mph S10.3 kmh S 9.0 mph14.5 kmh 29.42 in996.3 mb 0.00 in0.0 mm 0.00 in0.0 mm 0.00 in0.0 mm
01:35 AM 54.1°F12.3°C 50.6°F10.3°C 88% 6.7 mph SSW10.8 kmh SSW 9.0 mph14.5 kmh 29.42 in996.3 mb 0.00 in0.0 mm 0.00 in0.0 mm 0.00 in0.0 mm
01:36 AM 54.1°F12.3°C 50.6°F10.3°C 88% 6.6 mph S10.6 kmh S 9.0 mph14.5 kmh 29.42 in996.3 mb 0.00 in0.0 mm 0.00 in0.0 mm 0.00 in0.0 mm
01:37 AM 54.1°F12.3°C 50.6°F10.3°C 88% 5.7 mph S9.2 kmh S 9.0 mph14.5 kmh 29.42 in996.3 mb 0.00 in0.0 mm 0.00 in0.0 mm 0.00 in0.0 mm
01:38 AM 54.1°F12.3°C 50.9°F10.5°C 89% 7.3 mph S11.7 kmh S 10.0 mph16.1 kmh 29.42 in996.3 mb 0.00 in0.0 mm 0.00 in0.0 mm 0.00 in0.0 mm
01:39 AM 54.0°F12.2°C 50.8°F10.4°C 89% 8.6 mph S13.8 kmh S 12.0 mph19.3 kmh 29.42 in996.3 mb 0.00 in0.0 mm 0.00 in0.0 mm 0.00 in0.0 mm
01:40 AM 54.0°F12.2°C 50.8°F10.4°C 89% 7.3 mph S11.7 kmh S 12.0 mph19.3 kmh 29.42 in996.3 mb 0.00 in0.0 mm 0.00 in0.0 mm 0.00 in0.0 mm
01:41 AM 53.9°F12.2°C 50.7°F10.4°C 89% 7.0 mph S11.3 kmh S 10.0 mph16.1 kmh 29.43 in996.6 mb 0.00 in0.0 mm 0.00 in0.0 mm 0.00 in0.0 mm
01:42 AM 53.9°F12.2°C 50.7°F10.4°C 89% 7.6 mph S12.2 kmh S 10.0 mph16.1 kmh 29.42 in996.3 mb 0.00 in0.0 mm 0.00 in0.0 mm 0.00 in0.0 mm
01:43 AM 53.9°F12.2°C 50.7°F10.4°C 89% 7.2 mph S11.6 kmh S 10.0 mph16.1 kmh 29.42 in996.3 mb 0.00 in0.0 mm 0.00 in0.0 mm 0.00 in0.0 mm
01:44 AM 53.9°F12.2°C 50.7°F10.4°C 89% 6.2 mph S10.0 kmh S 10.0 mph16.1 kmh 29.42 in996.3 mb 0.00 in0.0 mm 0.00 in0.0 mm 0.00 in0.0 mm
01:45 AM 53.9°F12.2°C 50.7°F10.4°C 89% 6.5 mph S10.5 kmh S 9.0 mph14.5 kmh 29.42 in996.3 mb 0.00 in0.0 mm 0.00 in0.0 mm 0.00 in0.0 mm
01:46 AM 53.8°F12.1°C 50.6°F10.3°C 89% 6.5 mph S10.5 kmh S 9.0 mph14.5 kmh 29.42 in996.3 mb 0.00 in0.0 mm 0.00 in0.0 mm 0.00 in0.0 mm
01:47 AM 53.8°F12.1°C 50.6°F10.3°C 89% 5.0 mph S8.0 kmh S 9.0 mph14.5 kmh 29.42 in996.3 mb 0.00 in0.0 mm 0.00 in0.0 mm 0.00 in0.0 mm
01:48 AM 53.8°F12.1°C 50.6°F10.3°C 89% 5.5 mph S8.9 kmh S 8.0 mph12.9 kmh 29.42 in996.3 mb 0.00 in0.0 mm 0.00 in0.0 mm 0.00 in0.0 mm
01:49 AM 53.7°F12.1°C 50.5°F10.3°C 89% 5.0 mph S8.0 kmh S 8.0 mph12.9 kmh 29.42 in996.3 mb 0.00 in0.0 mm 0.00 in0.0 mm 0.00 in0.0 mm
01:50 AM 53.7°F12.1°C 50.5°F10.3°C 89% 5.7 mph S9.2 kmh S 7.0 mph11.3 kmh 29.42 in996.3 mb 0.00 in0.0 mm 0.00 in0.0 mm 0.00 in0.0 mm
01:51 AM 53.7°F12.1°C 50.5°F10.3°C 89% 6.5 mph S10.5 kmh S 9.0 mph14.5 kmh 29.42 in996.3 mb 0.00 in0.0 mm 0.00 in0.0 mm 0.00 in0.0 mm
01:52 AM 53.7°F12.1°C 50.5°F10.3°C 89% 5.8 mph S9.3 kmh S 9.0 mph14.5 kmh 29.42 in996.3 mb 0.00 in0.0 mm 0.00 in0.0 mm 0.00 in0.0 mm
01:53 AM 53.6°F12.0°C 50.4°F10.2°C 89% 5.6 mph S9.0 kmh S 8.0 mph12.9 kmh 29.42 in996.3 mb 0.00 in0.0 mm 0.00 in0.0 mm 0.00 in0.0 mm
01:54 AM 53.6°F12.0°C 50.4°F10.2°C 89% 7.4 mph S11.9 kmh S 10.0 mph16.1 kmh 29.42 in996.3 mb 0.00 in0.0 mm 0.00 in0.0 mm 0.00 in0.0 mm
01:55 AM 53.6°F12.0°C 50.4°F10.2°C 89% 7.7 mph S12.4 kmh S 12.0 mph19.3 kmh 29.42 in996.3 mb 0.00 in0.0 mm 0.00 in0.0 mm 0.00 in0.0 mm
01:56 AM 53.5°F11.9°C 50.6°F10.3°C 90% 6.3 mph S10.1 kmh S 12.0 mph19.3 kmh 29.42 in996.3 mb 0.00 in0.0 mm 0.00 in0.0 mm 0.00 in0.0 mm
01:57 AM 53.5°F11.9°C 50.6°F10.3°C 90% 7.3 mph S11.7 kmh S 10.0 mph16.1 kmh 29.41 in995.9 mb 0.00 in0.0 mm 0.00 in0.0 mm 0.00 in0.0 mm
01:58 AM 53.5°F11.9°C 50.6°F10.3°C 90% 7.3 mph S11.7 kmh S 10.0 mph16.1 kmh 29.41 in995.9 mb 0.00 in0.0 mm 0.00 in0.0 mm 0.00 in0.0 mm
01:59 AM 53.5°F11.9°C 50.6°F10.3°C 90% 6.8 mph S10.9 kmh S 10.0 mph16.1 kmh 29.41 in995.9 mb 0.00 in0.0 mm 0.00 in0.0 mm 0.00 in0.0 mm
02:00 AM 53.4°F11.9°C 50.5°F10.3°C 90% 6.8 mph S10.9 kmh S 9.0 mph14.5 kmh 29.41 in995.9 mb 0.00 in0.0 mm 0.00 in0.0 mm 0.00 in0.0 mm
02:01 AM 53.5°F11.9°C 50.6°F10.3°C 90% 6.5 mph S10.5 kmh S 9.0 mph14.5 kmh 29.41 in995.9 mb 0.00 in0.0 mm 0.00 in0.0 mm 0.00 in0.0 mm
02:02 AM 53.4°F11.9°C 50.5°F10.3°C 90% 5.5 mph S8.9 kmh S 9.0 mph14.5 kmh 29.41 in995.9 mb 0.00 in0.0 mm 0.00 in0.0 mm 0.00 in0.0 mm
02:03 AM 53.4°F11.9°C 50.5°F10.3°C 90% 6.5 mph S10.5 kmh S 8.0 mph12.9 kmh 29.41 in995.9 mb 0.00 in0.0 mm 0.00 in0.0 mm 0.00 in0.0 mm
02:04 AM 53.4°F11.9°C 50.5°F10.3°C 90% 6.3 mph S10.1 kmh S 8.0 mph12.9 kmh 29.41 in995.9 mb 0.00 in0.0 mm 0.00 in0.0 mm 0.00 in0.0 mm
02:05 AM 53.4°F11.9°C 50.5°F10.3°C 90% 5.3 mph S8.5 kmh S 8.0 mph12.9 kmh 29.41 in995.9 mb 0.00 in0.0 mm 0.00 in0.0 mm 0.00 in0.0 mm
02:06 AM 53.4°F11.9°C 50.5°F10.3°C 90% 6.5 mph S10.5 kmh S 10.0 mph16.1 kmh 29.41 in995.9 mb 0.00 in0.0 mm 0.00 in0.0 mm 0.00 in0.0 mm
02:07 AM 53.3°F11.8°C 50.4°F10.2°C 90% 6.1 mph S9.8 kmh S 10.0 mph16.1 kmh 29.41 in995.9 mb 0.00 in0.0 mm 0.00 in0.0 mm 0.00 in0.0 mm
02:08 AM 53.4°F11.9°C 50.5°F10.3°C 90% 5.8 mph S9.3 kmh S 9.0 mph14.5 kmh 29.41 in995.9 mb 0.00 in0.0 mm 0.00 in0.0 mm 0.00 in0.0 mm
02:09 AM 53.3°F11.8°C 50.4°F10.2°C 90% 5.9 mph S9.5 kmh S 9.0 mph14.5 kmh 29.41 in995.9 mb 0.00 in0.0 mm 0.00 in0.0 mm 0.00 in0.0 mm
02:10 AM 53.3°F11.8°C 50.4°F10.2°C 90% 5.5 mph S8.9 kmh S 10.0 mph16.1 kmh 29.41 in995.9 mb 0.00 in0.0 mm 0.00 in0.0 mm 0.00 in0.0 mm
02:11 AM 53.3°F11.8°C 50.4°F10.2°C 90% 5.0 mph S8.0 kmh S 10.0 mph16.1 kmh 29.41 in995.9 mb 0.00 in0.0 mm 0.00 in0.0 mm 0.00 in0.0 mm
02:12 AM 53.3°F11.8°C 50.4°F10.2°C 90% 6.5 mph S10.5 kmh S 10.0 mph16.1 kmh 29.41 in995.9 mb 0.00 in0.0 mm 0.00 in0.0 mm 0.00 in0.0 mm
02:13 AM 53.3°F11.8°C 50.4°F10.2°C 90% 7.0 mph S11.3 kmh S 11.0 mph17.7 kmh 29.41 in995.9 mb 0.00 in0.0 mm 0.00 in0.0 mm 0.00 in0.0 mm
02:14 AM 53.3°F11.8°C 50.4°F10.2°C 90% 5.3 mph S8.5 kmh S 11.0 mph17.7 kmh 29.41 in995.9 mb 0.00 in0.0 mm 0.00 in0.0 mm 0.00 in0.0 mm
02:15 AM 53.3°F11.8°C 50.4°F10.2°C 90% 4.3 mph S6.9 kmh S 8.0 mph12.9 kmh 29.41 in995.9 mb 0.00 in0.0 mm 0.00 in0.0 mm 0.00 in0.0 mm
02:16 AM 53.2°F11.8°C 50.3°F10.2°C 90% 6.3 mph S10.1 kmh S 9.0 mph14.5 kmh 29.41 in995.9 mb 0.00 in0.0 mm 0.00 in0.0 mm 0.00 in0.0 mm
02:17 AM 53.3°F11.8°C 50.4°F10.2°C 90% 6.6 mph S10.6 kmh S 10.0 mph16.1 kmh 29.41 in995.9 mb 0.00 in0.0 mm 0.00 in0.0 mm 0.00 in0.0 mm
02:18 AM 53.3°F11.8°C 50.4°F10.2°C 90% 6.3 mph S10.1 kmh S 10.0 mph16.1 kmh 29.41 in995.9 mb 0.00 in0.0 mm 0.00 in0.0 mm 0.00 in0.0 mm
02:19 AM 53.3°F11.8°C 50.4°F10.2°C 90% 8.3 mph S13.4 kmh S 12.0 mph19.3 kmh 29.41 in995.9 mb 0.00 in0.0 mm 0.00 in0.0 mm 0.00 in0.0 mm
02:20 AM 53.3°F11.8°C 50.4°F10.2°C 90% 6.4 mph S10.3 kmh S 12.0 mph19.3 kmh 29.41 in995.9 mb 0.00 in0.0 mm 0.00 in0.0 mm 0.00 in0.0 mm
02:21 AM 53.4°F11.9°C 50.5°F10.3°C 90% 6.9 mph S11.1 kmh S 10.0 mph16.1 kmh 29.41 in995.9 mb 0.00 in0.0 mm 0.00 in0.0 mm 0.00 in0.0 mm
02:22 AM 53.4°F11.9°C 50.5°F10.3°C 90% 7.7 mph S12.4 kmh S 11.0 mph17.7 kmh 29.41 in995.9 mb 0.00 in0.0 mm 0.00 in0.0 mm 0.00 in0.0 mm
02:23 AM 53.4°F11.9°C 50.5°F10.3°C 90% 7.6 mph S12.2 kmh S 11.0 mph17.7 kmh 29.41 in995.9 mb 0.00 in0.0 mm 0.00 in0.0 mm 0.00 in0.0 mm
02:24 AM 53.4°F11.9°C 50.5°F10.3°C 90% 7.5 mph S12.1 kmh S 12.0 mph19.3 kmh 29.41 in995.9 mb 0.00 in0.0 mm 0.00 in0.0 mm 0.00 in0.0 mm
02:25 AM 53.4°F11.9°C 50.5°F10.3°C 90% 8.7 mph S14.0 kmh S 14.0 mph22.5 kmh 29.41 in995.9 mb 0.00 in0.0 mm 0.00 in0.0 mm 0.00 in0.0 mm
02:26 AM 53.4°F11.9°C 50.5°F10.3°C 90% 7.5 mph S12.1 kmh S 14.0 mph22.5 kmh 29.41 in995.9 mb 0.00 in0.0 mm 0.00 in0.0 mm 0.00 in0.0 mm
02:27 AM 53.4°F11.9°C 50.5°F10.3°C 90% 8.5 mph S13.7 kmh S 11.0 mph17.7 kmh 29.41 in995.9 mb 0.00 in0.0 mm 0.00 in0.0 mm 0.00 in0.0 mm
02:28 AM 53.3°F11.8°C 50.4°F10.2°C 90% 8.4 mph S13.5 kmh S 12.0 mph19.3 kmh 29.41 in995.9 mb 0.00 in0.0 mm 0.00 in0.0 mm 0.00 in0.0 mm
02:29 AM 53.3°F11.8°C 50.4°F10.2°C 90% 8.1 mph S13.0 kmh S 13.0 mph20.9 kmh 29.41 in995.9 mb 0.00 in0.0 mm 0.00 in0.0 mm 0.00 in0.0 mm
02:30 AM 53.3°F11.8°C 50.4°F10.2°C 90% 9.2 mph S14.8 kmh S 13.0 mph20.9 kmh 29.41 in995.9 mb 0.00 in0.0 mm 0.00 in0.0 mm 0.00 in0.0 mm
02:31 AM 53.2°F11.8°C 50.3°F10.2°C 90% 7.5 mph S12.1 kmh S 12.0 mph19.3 kmh 29.41 in995.9 mb 0.00 in0.0 mm 0.00 in0.0 mm 0.00 in0.0 mm
02:32 AM 53.2°F11.8°C 50.3°F10.2°C 90% 6.9 mph S11.1 kmh S 12.0 mph19.3 kmh 29.41 in995.9 mb 0.00 in0.0 mm 0.00 in0.0 mm 0.00 in0.0 mm
02:33 AM 53.2°F11.8°C 50.3°F10.2°C 90% 8.8 mph S14.2 kmh S 12.0 mph19.3 kmh 29.41 in995.9 mb 0.00 in0.0 mm 0.00 in0.0 mm 0.00 in0.0 mm
02:34 AM 53.1°F11.7°C 50.2°F10.1°C 90% 8.5 mph S13.7 kmh S 12.0 mph19.3 kmh 29.40 in995.6 mb 0.00 in0.0 mm 0.00 in0.0 mm 0.00 in0.0 mm
02:35 AM 53.1°F11.7°C 50.2°F10.1°C 90% 8.6 mph S13.8 kmh S 12.0 mph19.3 kmh 29.40 in995.6 mb 0.00 in0.0 mm 0.00 in0.0 mm 0.00 in0.0 mm
02:36 AM 53.1°F11.7°C 50.2°F10.1°C 90% 8.9 mph S14.3 kmh S 13.0 mph20.9 kmh 29.41 in995.9 mb 0.00 in0.0 mm 0.00 in0.0 mm 0.00 in0.0 mm
02:37 AM 53.1°F11.7°C 50.2°F10.1°C 90% 7.7 mph S12.4 kmh S 13.0 mph20.9 kmh 29.40 in995.6 mb 0.00 in0.0 mm 0.00 in0.0 mm 0.00 in0.0 mm
02:38 AM 53.1°F11.7°C 50.2°F10.1°C 90% 6.6 mph S10.6 kmh S 11.0 mph17.7 kmh 29.40 in995.6 mb 0.00 in0.0 mm 0.00 in0.0 mm 0.00 in0.0 mm
02:39 AM 53.1°F11.7°C 50.2°F10.1°C 90% 8.0 mph S12.9 kmh S 11.0 mph17.7 kmh 29.40 in995.6 mb 0.00 in0.0 mm 0.00 in0.0 mm 0.00 in0.0 mm
02:40 AM 53.1°F11.7°C 50.2°F10.1°C 90% 8.7 mph S14.0 kmh S 12.0 mph19.3 kmh 29.40 in995.6 mb 0.00 in0.0 mm 0.00 in0.0 mm 0.00 in0.0 mm
02:41 AM 53.1°F11.7°C 50.2°F10.1°C 90% 7.6 mph S12.2 kmh S 12.0 mph19.3 kmh 29.40 in995.6 mb 0.00 in0.0 mm 0.00 in0.0 mm 0.00 in0.0 mm
02:42 AM 53.1°F11.7°C 50.2°F10.1°C 90% 9.8 mph S15.8 kmh S 15.0 mph24.1 kmh 29.40 in995.6 mb 0.00 in0.0 mm 0.00 in0.0 mm 0.00 in0.0 mm
02:43 AM 53.1°F11.7°C 50.2°F10.1°C 90% 8.8 mph S14.2 kmh S 15.0 mph24.1 kmh 29.40 in995.6 mb 0.00 in0.0 mm 0.00 in0.0 mm 0.00 in0.0 mm
02:44 AM 53.0°F11.7°C 50.1°F10.1°C 90% 7.7 mph S12.4 kmh S 12.0 mph19.3 kmh 29.40 in995.6 mb 0.00 in0.0 mm 0.00 in0.0 mm 0.00 in0.0 mm
02:45 AM 53.1°F11.7°C 50.2°F10.1°C 90% 8.2 mph S13.2 kmh S 12.0 mph19.3 kmh 29.40 in995.6 mb 0.00 in0.0 mm 0.00 in0.0 mm 0.00 in0.0 mm
02:46 AM 53.1°F11.7°C 50.2°F10.1°C 90% 8.1 mph S13.0 kmh S 12.0 mph19.3 kmh 29.40 in995.6 mb 0.00 in0.0 mm 0.00 in0.0 mm 0.00 in0.0 mm
02:47 AM 53.1°F11.7°C 50.2°F10.1°C 90% 8.5 mph S13.7 kmh S 12.0 mph19.3 kmh 29.40 in995.6 mb 0.00 in0.0 mm 0.00 in0.0 mm 0.00 in0.0 mm
02:48 AM 53.1°F11.7°C 50.2°F10.1°C 90% 9.6 mph S15.4 kmh S 12.0 mph19.3 kmh 29.40 in995.6 mb 0.00 in0.0 mm 0.00 in0.0 mm 0.00 in0.0 mm
02:49 AM 53.1°F11.7°C 50.2°F10.1°C 90% 7.6 mph S12.2 kmh S 12.0 mph19.3 kmh 29.40 in995.6 mb 0.00 in0.0 mm 0.00 in0.0 mm 0.00 in0.0 mm
02:50 AM 53.1°F11.7°C 50.2°F10.1°C 90% 7.5 mph S12.1 kmh S 11.0 mph17.7 kmh 29.40 in995.6 mb 0.00 in0.0 mm 0.00 in0.0 mm 0.00 in0.0 mm
02:51 AM 53.1°F11.7°C 50.2°F10.1°C 90% 9.3 mph S15.0 kmh S 13.0 mph20.9 kmh 29.39 in995.3 mb 0.00 in0.0 mm 0.00 in0.0 mm 0.00 in0.0 mm
02:52 AM 53.1°F11.7°C 50.2°F10.1°C 90% 8.9 mph S14.3 kmh S 13.0 mph20.9 kmh 29.40 in995.6 mb 0.00 in0.0 mm 0.00 in0.0 mm 0.00 in0.0 mm
02:53 AM 53.1°F11.7°C 50.2°F10.1°C 90% 11.3 mph S18.2 kmh S 17.0 mph27.4 kmh 29.40 in995.6 mb 0.00 in0.0 mm 0.00 in0.0 mm 0.00 in0.0 mm
02:54 AM 53.1°F11.7°C 50.2°F10.1°C 90% 8.6 mph S13.8 kmh S 17.0 mph27.4 kmh 29.39 in995.3 mb 0.00 in0.0 mm 0.00 in0.0 mm 0.00 in0.0 mm
02:55 AM 53.1°F11.7°C 50.2°F10.1°C 90% 9.8 mph S15.8 kmh S 13.0 mph20.9 kmh 29.39 in995.3 mb 0.00 in0.0 mm 0.00 in0.0 mm 0.00 in0.0 mm
02:56 AM 53.2°F11.8°C 50.3°F10.2°C 90% 8.5 mph S13.7 kmh S 13.0 mph20.9 kmh 29.39 in995.3 mb 0.00 in0.0 mm 0.00 in0.0 mm 0.00 in0.0 mm
02:57 AM 53.2°F11.8°C 50.3°F10.2°C 90% 9.4 mph S15.1 kmh S 14.0 mph22.5 kmh 29.39 in995.3 mb 0.00 in0.0 mm 0.00 in0.0 mm 0.00 in0.0 mm
02:58 AM 53.2°F11.8°C 50.3°F10.2°C 90% 10.4 mph S16.7 kmh S 14.0 mph22.5 kmh 29.39 in995.3 mb 0.00 in0.0 mm 0.00 in0.0 mm 0.00 in0.0 mm
02:59 AM 53.2°F11.8°C 50.3°F10.2°C 90% 8.8 mph S14.2 kmh S 14.0 mph22.5 kmh 29.39 in995.3 mb 0.00 in0.0 mm 0.00 in0.0 mm 0.00 in0.0 mm
03:00 AM 53.2°F11.8°C 50.3°F10.2°C 90% 8.7 mph S14.0 kmh S 14.0 mph22.5 kmh 29.39 in995.3 mb 0.00 in0.0 mm 0.00 in0.0 mm 0.00 in0.0 mm
03:01 AM 53.2°F11.8°C 50.3°F10.2°C 90% 10.5 mph S16.9 kmh S 14.0 mph22.5 kmh 29.39 in995.3 mb 0.00 in0.0 mm 0.00 in0.0 mm 0.00 in0.0 mm
03:02 AM 53.1°F11.7°C 50.2°F10.1°C 90% 9.0 mph S14.5 kmh S 14.0 mph22.5 kmh 29.39 in995.3 mb 0.00 in0.0 mm 0.00 in0.0 mm 0.00 in0.0 mm
03:03 AM 53.2°F11.8°C 50.3°F10.2°C 90% 10.3 mph S16.6 kmh S 14.0 mph22.5 kmh 29.39 in995.3 mb 0.00 in0.0 mm 0.00 in0.0 mm 0.00 in0.0 mm
03:04 AM 53.2°F11.8°C 50.3°F10.2°C 90% 9.7 mph S15.6 kmh S 14.0 mph22.5 kmh 29.39 in995.3 mb 0.00 in0.0 mm 0.00 in0.0 mm 0.00 in0.0 mm
03:05 AM 53.2°F11.8°C 50.3°F10.2°C 90% 10.7 mph S17.2 kmh S 14.0 mph22.5 kmh 29.39 in995.3 mb 0.00 in0.0 mm 0.00 in0.0 mm 0.00 in0.0 mm
03:06 AM 53.2°F11.8°C 50.3°F10.2°C 90% 10.5 mph S16.9 kmh S 16.0 mph25.7 kmh 29.39 in995.3 mb 0.00 in0.0 mm 0.00 in0.0 mm 0.00 in0.0 mm
03:07 AM 53.2°F11.8°C 50.3°F10.2°C 90% 9.1 mph S14.6 kmh S 16.0 mph25.7 kmh 29.39 in995.3 mb 0.00 in0.0 mm 0.00 in0.0 mm 0.00 in0.0 mm
03:08 AM 53.2°F11.8°C 50.3°F10.2°C 90% 9.7 mph S15.6 kmh S 14.0 mph22.5 kmh 29.39 in995.3 mb 0.00 in0.0 mm 0.00 in0.0 mm 0.00 in0.0 mm
03:09 AM 53.2°F11.8°C 50.3°F10.2°C 90% 9.3 mph S15.0 kmh S 14.0 mph22.5 kmh 29.39 in995.3 mb 0.00 in0.0 mm 0.00 in0.0 mm 0.00 in0.0 mm
03:10 AM 53.3°F11.8°C 50.4°F10.2°C 90% 8.9 mph S14.3 kmh S 13.0 mph20.9 kmh 29.38 in994.9 mb 0.00 in0.0 mm 0.00 in0.0 mm 0.00 in0.0 mm
03:11 AM 53.3°F11.8°C 50.4°F10.2°C 90% 8.6 mph S13.8 kmh S 13.0 mph20.9 kmh 29.38 in994.9 mb 0.00 in0.0 mm 0.00 in0.0 mm 0.00 in0.0 mm
03:12 AM 53.3°F11.8°C 50.4°F10.2°C 90% 9.0 mph S14.5 kmh S 12.0 mph19.3 kmh 29.38 in994.9 mb 0.00 in0.0 mm 0.00 in0.0 mm 0.00 in0.0 mm
03:13 AM 53.3°F11.8°C 50.4°F10.2°C 90% 9.0 mph S14.5 kmh S 12.0 mph19.3 kmh 29.38 in994.9 mb 0.00 in0.0 mm 0.00 in0.0 mm 0.00 in0.0 mm
03:14 AM 53.3°F11.8°C 50.4°F10.2°C 90% 10.5 mph S16.9 kmh S 14.0 mph22.5 kmh 29.38 in994.9 mb 0.00 in0.0 mm 0.00 in0.0 mm 0.00 in0.0 mm
03:15 AM 53.3°F11.8°C 50.4°F10.2°C 90% 9.4 mph S15.1 kmh S 14.0 mph22.5 kmh 29.38 in994.9 mb 0.00 in0.0 mm 0.00 in0.0 mm 0.00 in0.0 mm
03:16 AM 53.4°F11.9°C 50.5°F10.3°C 90% 7.4 mph S11.9 kmh S 13.0 mph20.9 kmh 29.38 in994.9 mb 0.00 in0.0 mm 0.00 in0.0 mm 0.00 in0.0 mm
03:17 AM 53.4°F11.9°C 50.5°F10.3°C 90% 9.5 mph S15.3 kmh S 12.0 mph19.3 kmh 29.38 in994.9 mb 0.00 in0.0 mm 0.00 in0.0 mm 0.00 in0.0 mm
03:18 AM 53.4°F11.9°C 50.5°F10.3°C 90% 8.1 mph S13.0 kmh S 12.0 mph19.3 kmh 29.38 in994.9 mb 0.00 in0.0 mm 0.00 in0.0 mm 0.00 in0.0 mm
03:19 AM 53.4°F11.9°C 50.5°F10.3°C 90% 8.1 mph S13.0 kmh S 11.0 mph17.7 kmh 29.38 in994.9 mb 0.00 in0.0 mm 0.00 in0.0 mm 0.00 in0.0 mm
03:20 AM 53.4°F11.9°C 50.5°F10.3°C 90% 6.6 mph S10.6 kmh S 11.0 mph17.7 kmh 29.38 in994.9 mb 0.00 in0.0 mm 0.00 in0.0 mm 0.00 in0.0 mm
03:21 AM 53.4°F11.9°C 50.5°F10.3°C 90% 3.9 mph S6.3 kmh S 9.0 mph14.5 kmh 29.38 in994.9 mb 0.00 in0.0 mm 0.00 in0.0 mm 0.00 in0.0 mm
03:22 AM 53.3°F11.8°C 50.4°F10.2°C 90% 6.6 mph S10.6 kmh S 11.0 mph17.7 kmh 29.38 in994.9 mb 0.00 in0.0 mm 0.00 in0.0 mm 0.00 in0.0 mm
03:23 AM 53.4°F11.9°C 50.5°F10.3°C 90% 7.5 mph S12.1 kmh S 11.0 mph17.7 kmh 29.38 in994.9 mb 0.00 in0.0 mm 0.00 in0.0 mm 0.00 in0.0 mm
03:24 AM 53.4°F11.9°C 50.5°F10.3°C 90% 8.0 mph S12.9 kmh S 14.0 mph22.5 kmh 29.38 in994.9 mb 0.00 in0.0 mm 0.00 in0.0 mm 0.00 in0.0 mm
03:25 AM 53.4°F11.9°C 50.5°F10.3°C 90% 7.5 mph S12.1 kmh S 14.0 mph22.5 kmh 29.38 in994.9 mb 0.00 in0.0 mm 0.00 in0.0 mm 0.00 in0.0 mm
03:26 AM 53.4°F11.9°C 50.5°F10.3°C 90% 9.1 mph S14.6 kmh S 11.0 mph17.7 kmh 29.38 in994.9 mb 0.00 in0.0 mm 0.00 in0.0 mm 0.00 in0.0 mm
03:27 AM 53.4°F11.9°C 50.5°F10.3°C 90% 10.0 mph S16.1 kmh S 13.0 mph20.9 kmh 29.38 in994.9 mb 0.00 in0.0 mm 0.00 in0.0 mm 0.00 in0.0 mm
03:28 AM 53.4°F11.9°C 50.5°F10.3°C 90% 8.1 mph S13.0 kmh S 13.0 mph20.9 kmh 29.38 in994.9 mb 0.00 in0.0 mm 0.00 in0.0 mm 0.00 in0.0 mm
03:29 AM 53.4°F11.9°C 50.5°F10.3°C 90% 9.2 mph S14.8 kmh S 12.0 mph19.3 kmh 29.38 in994.9 mb 0.00 in0.0 mm 0.00 in0.0 mm 0.00 in0.0 mm
03:30 AM 53.4°F11.9°C 50.5°F10.3°C 90% 7.7 mph S12.4 kmh S 12.0 mph19.3 kmh 29.38 in994.9 mb 0.00 in0.0 mm 0.00 in0.0 mm 0.00 in0.0 mm
03:31 AM 53.4°F11.9°C 50.5°F10.3°C 90% 9.0 mph S14.5 kmh S 12.0 mph19.3 kmh 29.38 in994.9 mb 0.00 in0.0 mm 0.00 in0.0 mm 0.00 in0.0 mm
03:32 AM 53.4°F11.9°C 50.5°F10.3°C 90% 7.7 mph S12.4 kmh S 12.0 mph19.3 kmh 29.38 in994.9 mb 0.00 in0.0 mm 0.00 in0.0 mm 0.00 in0.0 mm
03:33 AM 53.3°F11.8°C 50.4°F10.2°C 90% 9.8 mph S15.8 kmh S 14.0 mph22.5 kmh 29.38 in994.9 mb 0.00 in0.0 mm 0.00 in0.0 mm 0.00 in0.0 mm
03:34 AM 53.3°F11.8°C 50.4°F10.2°C 90% 9.5 mph S15.3 kmh S 15.0 mph24.1 kmh 29.38 in994.9 mb 0.00 in0.0 mm 0.00 in0.0 mm 0.00 in0.0 mm
03:35 AM 53.3°F11.8°C 50.4°F10.2°C 90% 6.9 mph S11.1 kmh S 15.0 mph24.1 kmh 29.38 in994.9 mb 0.00 in0.0 mm 0.00 in0.0 mm 0.00 in0.0 mm
03:36 AM 53.3°F11.8°C 50.4°F10.2°C 90% 8.3 mph S13.4 kmh S 12.0 mph19.3 kmh 29.38 in994.9 mb 0.00 in0.0 mm 0.00 in0.0 mm 0.00 in0.0 mm
03:37 AM 53.3°F11.8°C 50.4°F10.2°C 90% 8.5 mph S13.7 kmh S 12.0 mph19.3 kmh 29.38 in994.9 mb 0.00 in0.0 mm 0.00 in0.0 mm 0.00 in0.0 mm
03:38 AM 53.3°F11.8°C 50.4°F10.2°C 90% 8.5 mph S13.7 kmh S 12.0 mph19.3 kmh 29.38 in994.9 mb 0.00 in0.0 mm 0.00 in0.0 mm 0.00 in0.0 mm
03:39 AM 53.2°F11.8°C 50.3°F10.2°C 90% 7.8 mph S12.6 kmh S 12.0 mph19.3 kmh 29.38 in994.9 mb 0.00 in0.0 mm 0.00 in0.0 mm 0.00 in0.0 mm
03:40 AM 53.2°F11.8°C 50.3°F10.2°C 90% 9.1 mph S14.6 kmh S 13.0 mph20.9 kmh 29.38 in994.9 mb 0.00 in0.0 mm 0.00 in0.0 mm 0.00 in0.0 mm
03:41 AM 53.2°F11.8°C 50.3°F10.2°C 90% 8.6 mph S13.8 kmh S 13.0 mph20.9 kmh 29.38 in994.9 mb 0.00 in0.0 mm 0.00 in0.0 mm 0.00 in0.0 mm
03:42 AM 53.2°F11.8°C 50.3°F10.2°C 90% 9.5 mph S15.3 kmh S 14.0 mph22.5 kmh 29.38 in994.9 mb 0.00 in0.0 mm 0.00 in0.0 mm 0.00 in0.0 mm
03:43 AM 53.2°F11.8°C 50.3°F10.2°C 90% 8.7 mph S14.0 kmh S 14.0 mph22.5 kmh 29.38 in994.9 mb 0.00 in0.0 mm 0.00 in0.0 mm 0.00 in0.0 mm
03:44 AM 53.2°F11.8°C 50.3°F10.2°C 90% 8.6 mph S13.8 kmh S 11.0 mph17.7 kmh 29.38 in994.9 mb 0.00 in0.0 mm 0.00 in0.0 mm 0.00 in0.0 mm
03:45 AM 53.2°F11.8°C 50.3°F10.2°C 90% 7.5 mph S12.1 kmh S 11.0 mph17.7 kmh 29.38 in994.9 mb 0.00 in0.0 mm 0.00 in0.0 mm 0.00 in0.0 mm
03:46 AM 53.2°F11.8°C 50.3°F10.2°C 90% 8.8 mph S14.2 kmh S 14.0 mph22.5 kmh 29.38 in994.9 mb 0.00 in0.0 mm 0.00 in0.0 mm 0.00 in0.0 mm
03:47 AM 53.2°F11.8°C 50.3°F10.2°C 90% 8.8 mph S14.2 kmh S 14.0 mph22.5 kmh 29.38 in994.9 mb 0.00 in0.0 mm 0.00 in0.0 mm 0.00 in0.0 mm
03:48 AM 53.2°F11.8°C 50.3°F10.2°C 90% 9.9 mph S15.9 kmh S 13.0 mph20.9 kmh 29.38 in994.9 mb 0.00 in0.0 mm 0.00 in0.0 mm 0.00 in0.0 mm
03:49 AM 53.2°F11.8°C 50.3°F10.2°C 90% 8.2 mph S13.2 kmh S 13.0 mph20.9 kmh 29.38 in994.9 mb 0.00 in0.0 mm 0.00 in0.0 mm 0.00 in0.0 mm
03:50 AM 53.3°F11.8°C 50.4°F10.2°C 90% 11.0 mph S17.7 kmh S 15.0 mph24.1 kmh 29.37 in994.6 mb 0.00 in0.0 mm 0.00 in0.0 mm 0.00 in0.0 mm
03:51 AM 53.3°F11.8°C 50.4°F10.2°C 90% 10.4 mph S16.7 kmh S 15.0 mph24.1 kmh 29.37 in994.6 mb 0.00 in0.0 mm 0.00 in0.0 mm 0.00 in0.0 mm
03:52 AM 53.2°F11.8°C 50.0°F10.0°C 89% 10.4 mph S16.7 kmh S 15.0 mph24.1 kmh 29.37 in994.6 mb 0.00 in0.0 mm 0.00 in0.0 mm 0.00 in0.0 mm
03:53 AM 53.2°F11.8°C 50.0°F10.0°C 89% 7.2 mph S11.6 kmh S 13.0 mph20.9 kmh 29.37 in994.6 mb 0.00 in0.0 mm 0.00 in0.0 mm 0.00 in0.0 mm
03:54 AM 53.3°F11.8°C 50.1°F10.1°C 89% 7.7 mph S12.4 kmh S 14.0 mph22.5 kmh 29.37 in994.6 mb 0.00 in0.0 mm 0.00 in0.0 mm 0.00 in0.0 mm
03:55 AM 53.3°F11.8°C 50.1°F10.1°C 89% 11.2 mph S18.0 kmh S 18.0 mph29.0 kmh 29.37 in994.6 mb 0.00 in0.0 mm 0.00 in0.0 mm 0.00 in0.0 mm
03:56 AM 53.3°F11.8°C 50.1°F10.1°C 89% 7.8 mph SSE12.6 kmh SSE 18.0 mph29.0 kmh 29.37 in994.6 mb 0.00 in0.0 mm 0.00 in0.0 mm 0.00 in0.0 mm
03:57 AM 53.3°F11.8°C 50.1°F10.1°C 89% 8.1 mph S13.0 kmh S 12.0 mph19.3 kmh 29.37 in994.6 mb 0.00 in0.0 mm 0.00 in0.0 mm 0.00 in0.0 mm
03:58 AM 53.3°F11.8°C 50.1°F10.1°C 89% 8.1 mph S13.0 kmh S 12.0 mph19.3 kmh 29.37 in994.6 mb 0.00 in0.0 mm 0.00 in0.0 mm 0.00 in0.0 mm
03:59 AM 53.3°F11.8°C 50.1°F10.1°C 89% 7.8 mph S12.6 kmh S 12.0 mph19.3 kmh 29.37 in994.6 mb 0.00 in0.0 mm 0.00 in0.0 mm 0.00 in0.0 mm
04:00 AM 53.3°F11.8°C 50.4°F10.2°C 90% 8.5 mph S13.7 kmh S 12.0 mph19.3 kmh 29.37 in994.6 mb 0.00 in0.0 mm 0.00 in0.0 mm 0.00 in0.0 mm
04:01 AM 53.3°F11.8°C 50.4°F10.2°C 90% 6.3 mph S10.1 kmh S 12.0 mph19.3 kmh 29.37 in994.6 mb 0.00 in0.0 mm 0.00 in0.0 mm 0.00 in0.0 mm
04:02 AM 53.3°F11.8°C 50.4°F10.2°C 90% 8.9 mph S14.3 kmh S 15.0 mph24.1 kmh 29.37 in994.6 mb 0.00 in0.0 mm 0.00 in0.0 mm 0.00 in0.0 mm
04:03 AM 53.3°F11.8°C 50.4°F10.2°C 90% 9.5 mph S15.3 kmh S 15.0 mph24.1 kmh 29.37 in994.6 mb 0.00 in0.0 mm 0.00 in0.0 mm 0.00 in0.0 mm
04:04 AM 53.3°F11.8°C 50.4°F10.2°C 90% 7.4 mph S11.9 kmh S 11.0 mph17.7 kmh 29.36 in994.2 mb 0.00 in0.0 mm 0.00 in0.0 mm 0.00 in0.0 mm
04:05 AM 53.3°F11.8°C 50.4°F10.2°C 90% 7.5 mph S12.1 kmh S 10.0 mph16.1 kmh 29.36 in994.2 mb 0.00 in0.0 mm 0.00 in0.0 mm 0.00 in0.0 mm
04:06 AM 53.3°F11.8°C 50.4°F10.2°C 90% 7.7 mph S12.4 kmh S 10.0 mph16.1 kmh 29.36 in994.2 mb 0.00 in0.0 mm 0.00 in0.0 mm 0.00 in0.0 mm
04:07 AM 53.3°F11.8°C 50.4°F10.2°C 90% 6.9 mph SSE11.1 kmh SSE 11.0 mph17.7 kmh 29.36 in994.2 mb 0.00 in0.0 mm 0.00 in0.0 mm 0.00 in0.0 mm
04:08 AM 53.3°F11.8°C 50.4°F10.2°C 90% 6.5 mph S10.5 kmh S 11.0 mph17.7 kmh 29.36 in994.2 mb 0.00 in0.0 mm 0.00 in0.0 mm 0.00 in0.0 mm
04:09 AM 53.3°F11.8°C 50.4°F10.2°C 90% 6.5 mph S10.5 kmh S 11.0 mph17.7 kmh 29.36 in994.2 mb 0.00 in0.0 mm 0.00 in0.0 mm 0.00 in0.0 mm
04:10 AM 53.3°F11.8°C 50.4°F10.2°C 90% 6.8 mph S10.9 kmh S 11.0 mph17.7 kmh 29.36 in994.2 mb 0.00 in0.0 mm 0.00 in0.0 mm 0.00 in0.0 mm
04:11 AM 53.3°F11.8°C 50.1°F10.1°C 89% 6.5 mph S10.5 kmh S 10.0 mph16.1 kmh 29.36 in994.2 mb 0.00 in0.0 mm 0.00 in0.0 mm 0.00 in0.0 mm
04:12 AM 53.3°F11.8°C 50.1°F10.1°C 89% 8.0 mph SSE12.9 kmh SSE 10.0 mph16.1 kmh 29.36 in994.2 mb 0.00 in0.0 mm 0.00 in0.0 mm 0.00 in0.0 mm
04:13 AM 53.3°F11.8°C 50.1°F10.1°C 89% 7.5 mph S12.1 kmh S 11.0 mph17.7 kmh 29.36 in994.2 mb 0.00 in0.0 mm 0.00 in0.0 mm 0.00 in0.0 mm
04:14 AM 53.3°F11.8°C 50.1°F10.1°C 89% 7.6 mph S12.2 kmh S 11.0 mph17.7 kmh 29.36 in994.2 mb 0.00 in0.0 mm 0.00 in0.0 mm 0.00 in0.0 mm
04:15 AM 53.3°F11.8°C 50.1°F10.1°C 89% 6.4 mph SSE10.3 kmh SSE 10.0 mph16.1 kmh 29.36 in994.2 mb 0.00 in0.0 mm 0.00 in0.0 mm 0.00 in0.0 mm
04:16 AM 53.3°F11.8°C 50.1°F10.1°C 89% 7.3 mph SSE11.7 kmh SSE 11.0 mph17.7 kmh 29.36 in994.2 mb 0.00 in0.0 mm 0.00 in0.0 mm 0.00 in0.0 mm
04:17 AM 53.4°F11.9°C 50.5°F10.3°C 90% 5.1 mph S8.2 kmh S 11.0 mph17.7 kmh 29.36 in994.2 mb 0.00 in0.0 mm 0.00 in0.0 mm 0.00 in0.0 mm
04:18 AM 53.4°F11.9°C 50.5°F10.3°C 90% 6.6 mph SSE10.6 kmh SSE 10.0 mph16.1 kmh 29.36 in994.2 mb 0.00 in0.0 mm 0.00 in0.0 mm 0.00 in0.0 mm
04:19 AM 53.3°F11.8°C 50.4°F10.2°C 90% 7.0 mph SSE11.3 kmh SSE 10.0 mph16.1 kmh 29.36 in994.2 mb 0.00 in0.0 mm 0.00 in0.0 mm 0.00 in0.0 mm
04:20 AM 53.3°F11.8°C 50.1°F10.1°C 89% 8.3 mph SSE13.4 kmh SSE 11.0 mph17.7 kmh 29.35 in993.9 mb 0.00 in0.0 mm 0.00 in0.0 mm 0.00 in0.0 mm
04:21 AM 53.3°F11.8°C 50.1°F10.1°C 89% 6.7 mph S10.8 kmh S 11.0 mph17.7 kmh 29.35 in993.9 mb 0.00 in0.0 mm 0.00 in0.0 mm 0.00 in0.0 mm
04:22 AM 53.2°F11.8°C 50.0°F10.0°C 89% 4.5 mph SSE7.2 kmh SSE 9.0 mph14.5 kmh 29.35 in993.9 mb 0.00 in0.0 mm 0.00 in0.0 mm 0.00 in0.0 mm
04:23 AM 53.2°F11.8°C 50.0°F10.0°C 89% 4.6 mph SSE7.4 kmh SSE 8.0 mph12.9 kmh 29.35 in993.9 mb 0.00 in0.0 mm 0.00 in0.0 mm 0.00 in0.0 mm
04:24 AM 53.2°F11.8°C 50.0°F10.0°C 89% 5.7 mph SSE9.2 kmh SSE 9.0 mph14.5 kmh 29.35 in993.9 mb 0.00 in0.0 mm 0.00 in0.0 mm 0.00 in0.0 mm
04:25 AM 53.1°F11.7°C 49.9°F9.9°C 89% 5.0 mph SSE8.0 kmh SSE 9.0 mph14.5 kmh 29.35 in993.9 mb 0.00 in0.0 mm 0.00 in0.0 mm 0.00 in0.0 mm
04:26 AM 53.1°F11.7°C 49.9°F9.9°C 89% 6.9 mph SSE11.1 kmh SSE 10.0 mph16.1 kmh 29.35 in993.9 mb 0.00 in0.0 mm 0.00 in0.0 mm 0.00 in0.0 mm
04:27 AM 53.1°F11.7°C 49.9°F9.9°C 89% 7.6 mph S12.2 kmh S 10.0 mph16.1 kmh 29.35 in993.9 mb 0.00 in0.0 mm 0.00 in0.0 mm 0.00 in0.0 mm
04:28 AM 53.0°F11.7°C 49.8°F9.9°C 89% 5.6 mph SSE9.0 kmh SSE 9.0 mph14.5 kmh 29.35 in993.9 mb 0.00 in0.0 mm 0.00 in0.0 mm 0.00 in0.0 mm
04:29 AM 53.0°F11.7°C 50.1°F10.1°C 90% 8.0 mph SSE12.9 kmh SSE 11.0 mph17.7 kmh 29.35 in993.9 mb 0.00 in0.0 mm 0.00 in0.0 mm 0.00 in0.0 mm
04:30 AM 52.9°F11.6°C 50.0°F10.0°C 90% 9.3 mph SSE15.0 kmh SSE 11.0 mph17.7 kmh 29.35 in993.9 mb 0.00 in0.0 mm 0.00 in0.0 mm 0.00 in0.0 mm
04:31 AM 53.0°F11.7°C 50.1°F10.1°C 90% 6.8 mph SSE10.9 kmh SSE 11.0 mph17.7 kmh 29.35 in993.9 mb 0.00 in0.0 mm 0.00 in0.0 mm 0.00 in0.0 mm
04:32 AM 52.9°F11.6°C 50.0°F10.0°C 90% 8.3 mph SSE13.4 kmh SSE 13.0 mph20.9 kmh 29.35 in993.9 mb 0.00 in0.0 mm 0.00 in0.0 mm 0.00 in0.0 mm
04:33 AM 52.9°F11.6°C 50.0°F10.0°C 90% 9.1 mph SSE14.6 kmh SSE 14.0 mph22.5 kmh 29.35 in993.9 mb 0.00 in0.0 mm 0.00 in0.0 mm 0.00 in0.0 mm
04:34 AM 52.9°F11.6°C 50.0°F10.0°C 90% 8.7 mph S14.0 kmh S 14.0 mph22.5 kmh 29.35 in993.9 mb 0.00 in0.0 mm 0.00 in0.0 mm 0.00 in0.0 mm
04:35 AM 52.9°F11.6°C 50.0°F10.0°C 90% 8.4 mph S13.5 kmh S 14.0 mph22.5 kmh 29.35 in993.9 mb 0.00 in0.0 mm 0.00 in0.0 mm 0.00 in0.0 mm
04:36 AM 52.8°F11.6°C 49.9°F9.9°C 90% 6.5 mph SSE10.5 kmh SSE 11.0 mph17.7 kmh 29.35 in993.9 mb 0.00 in0.0 mm 0.00 in0.0 mm 0.00 in0.0 mm
04:37 AM 52.8°F11.6°C 49.9°F9.9°C 90% 8.2 mph S13.2 kmh S 12.0 mph19.3 kmh 29.35 in993.9 mb 0.00 in0.0 mm 0.00 in0.0 mm 0.00 in0.0 mm
04:38 AM 52.9°F11.6°C 50.0°F10.0°C 90% 6.5 mph SSE10.5 kmh SSE 12.0 mph19.3 kmh 29.35 in993.9 mb 0.00 in0.0 mm 0.00 in0.0 mm 0.00 in0.0 mm
04:39 AM 52.8°F11.6°C 49.9°F9.9°C 90% 8.7 mph SSE14.0 kmh SSE 14.0 mph22.5 kmh 29.35 in993.9 mb 0.00 in0.0 mm 0.00 in0.0 mm 0.00 in0.0 mm
04:40 AM 52.8°F11.6°C 49.9°F9.9°C 90% 7.2 mph S11.6 kmh S 14.0 mph22.5 kmh 29.34 in993.6 mb 0.00 in0.0 mm 0.00 in0.0 mm 0.00 in0.0 mm
04:41 AM 52.8°F11.6°C 49.9°F9.9°C 90% 9.0 mph SSE14.5 kmh SSE 11.0 mph17.7 kmh 29.34 in993.6 mb 0.00 in0.0 mm 0.00 in0.0 mm 0.00 in0.0 mm
04:42 AM 52.8°F11.6°C 49.9°F9.9°C 90% 9.2 mph S14.8 kmh S 13.0 mph20.9 kmh 29.34 in993.6 mb 0.00 in0.0 mm 0.00 in0.0 mm 0.00 in0.0 mm
04:43 AM 52.8°F11.6°C 49.9°F9.9°C 90% 6.0 mph SSE9.7 kmh SSE 13.0 mph20.9 kmh 29.34 in993.6 mb 0.00 in0.0 mm 0.00 in0.0 mm 0.00 in0.0 mm
04:44 AM 52.8°F11.6°C 49.9°F9.9°C 90% 6.1 mph SSE9.8 kmh SSE 10.0 mph16.1 kmh 29.34 in993.6 mb 0.00 in0.0 mm 0.00 in0.0 mm 0.00 in0.0 mm
04:45 AM 52.8°F11.6°C 49.9°F9.9°C 90% 8.9 mph SSE14.3 kmh SSE 11.0 mph17.7 kmh 29.34 in993.6 mb 0.00 in0.0 mm 0.00 in0.0 mm 0.00 in0.0 mm
04:46 AM 52.8°F11.6°C 49.9°F9.9°C 90% 6.6 mph SSE10.6 kmh SSE 11.0 mph17.7 kmh 29.34 in993.6 mb 0.00 in0.0 mm 0.00 in0.0 mm 0.00 in0.0 mm
04:47 AM 52.8°F11.6°C 49.9°F9.9°C 90% 8.0 mph SSE12.9 kmh SSE 12.0 mph19.3 kmh 29.34 in993.6 mb 0.00 in0.0 mm 0.00 in0.0 mm 0.00 in0.0 mm
04:48 AM 52.8°F11.6°C 49.9°F9.9°C 90% 7.2 mph SSE11.6 kmh SSE 12.0 mph19.3 kmh 29.34 in993.6 mb 0.00 in0.0 mm 0.00 in0.0 mm 0.00 in0.0 mm
04:49 AM 52.9°F11.6°C 50.0°F10.0°C 90% 7.0 mph SSE11.3 kmh SSE 11.0 mph17.7 kmh 29.34 in993.6 mb 0.00 in0.0 mm 0.00 in0.0 mm 0.00 in0.0 mm
04:50 AM 52.9°F11.6°C 50.0°F10.0°C 90% 8.0 mph S12.9 kmh S 11.0 mph17.7 kmh 29.34 in993.6 mb 0.00 in0.0 mm 0.00 in0.0 mm 0.00 in0.0 mm
04:51 AM 52.9°F11.6°C 50.0°F10.0°C 90% 6.8 mph S10.9 kmh S 11.0 mph17.7 kmh 29.34 in993.6 mb 0.00 in0.0 mm 0.00 in0.0 mm 0.00 in0.0 mm
04:52 AM 52.9°F11.6°C 50.0°F10.0°C 90% 7.6 mph S12.2 kmh S 11.0 mph17.7 kmh 29.34 in993.6 mb 0.00 in0.0 mm 0.00 in0.0 mm 0.00 in0.0 mm
04:53 AM 52.9°F11.6°C 50.0°F10.0°C 90% 7.6 mph S12.2 kmh S 11.0 mph17.7 kmh 29.34 in993.6 mb 0.00 in0.0 mm 0.00 in0.0 mm 0.00 in0.0 mm
04:54 AM 52.9°F11.6°C 50.0°F10.0°C 90% 6.8 mph SSE10.9 kmh SSE 11.0 mph17.7 kmh 29.34 in993.6 mb 0.00 in0.0 mm 0.00 in0.0 mm 0.00 in0.0 mm
04:55 AM 53.0°F11.7°C 50.1°F10.1°C 90% 7.1 mph S11.4 kmh S 10.0 mph16.1 kmh 29.34 in993.6 mb 0.00 in0.0 mm 0.00 in0.0 mm 0.00 in0.0 mm
04:56 AM 52.9°F11.6°C 50.0°F10.0°C 90% 7.1 mph SSE11.4 kmh SSE 10.0 mph16.1 kmh 29.34 in993.6 mb 0.00 in0.0 mm 0.00 in0.0 mm 0.00 in0.0 mm
04:57 AM 52.9°F11.6°C 50.0°F10.0°C 90% 5.5 mph SSE8.9 kmh SSE 10.0 mph16.1 kmh 29.34 in993.6 mb 0.00 in0.0 mm 0.00 in0.0 mm 0.00 in0.0 mm
04:58 AM 52.9°F11.6°C 50.0°F10.0°C 90% 5.0 mph S8.0 kmh S 9.0 mph14.5 kmh 29.34 in993.6 mb 0.00 in0.0 mm 0.00 in0.0 mm 0.00 in0.0 mm
04:59 AM 52.9°F11.6°C 50.0°F10.0°C 90% 6.1 mph SSE9.8 kmh SSE 9.0 mph14.5 kmh 29.34 in993.6 mb 0.00 in0.0 mm 0.00 in0.0 mm 0.00 in0.0 mm
05:00 AM 53.0°F11.7°C 50.1°F10.1°C 90% 5.2 mph S8.4 kmh S 9.0 mph14.5 kmh 29.34 in993.6 mb 0.00 in0.0 mm 0.00 in0.0 mm 0.00 in0.0 mm
05:01 AM 53.0°F11.7°C 50.1°F10.1°C 90% 5.4 mph SSE8.7 kmh SSE 7.0 mph11.3 kmh 29.34 in993.6 mb 0.00 in0.0 mm 0.00 in0.0 mm 0.00 in0.0 mm
05:02 AM 52.9°F11.6°C 50.0°F10.0°C 90% 6.1 mph S9.8 kmh S 10.0 mph16.1 kmh 29.34 in993.6 mb 0.00 in0.0 mm 0.00 in0.0 mm 0.00 in0.0 mm
05:03 AM 52.9°F11.6°C 50.0°F10.0°C 90% 6.1 mph S9.8 kmh S 13.0 mph20.9 kmh 29.33 in993.2 mb 0.00 in0.0 mm 0.00 in0.0 mm 0.00 in0.0 mm
05:04 AM 53.0°F11.7°C 50.1°F10.1°C 90% 5.6 mph S9.0 kmh S 13.0 mph20.9 kmh 29.33 in993.2 mb 0.00 in0.0 mm 0.00 in0.0 mm 0.00 in0.0 mm
05:05 AM 53.0°F11.7°C 50.1°F10.1°C 90% 5.4 mph SSE8.7 kmh SSE 8.0 mph12.9 kmh 29.33 in993.2 mb 0.00 in0.0 mm 0.00 in0.0 mm 0.00 in0.0 mm
05:06 AM 53.0°F11.7°C 50.1°F10.1°C 90% 6.2 mph SSE10.0 kmh SSE 11.0 mph17.7 kmh 29.33 in993.2 mb 0.00 in0.0 mm 0.00 in0.0 mm 0.00 in0.0 mm
05:07 AM 53.0°F11.7°C 50.1°F10.1°C 90% 8.0 mph S12.9 kmh S 11.0 mph17.7 kmh 29.33 in993.2 mb 0.00 in0.0 mm 0.00 in0.0 mm 0.00 in0.0 mm
05:08 AM 53.0°F11.7°C 50.1°F10.1°C 90% 5.8 mph SSE9.3 kmh SSE 11.0 mph17.7 kmh 29.33 in993.2 mb 0.00 in0.0 mm 0.00 in0.0 mm 0.00 in0.0 mm
05:09 AM 53.0°F11.7°C 50.4°F10.2°C 91% 7.5 mph SSE12.1 kmh SSE 12.0 mph19.3 kmh 29.33 in993.2 mb 0.00 in0.0 mm 0.00 in0.0 mm 0.00 in0.0 mm
05:10 AM 53.0°F11.7°C 50.4°F10.2°C 91% 6.8 mph SSE10.9 kmh SSE 12.0 mph19.3 kmh 29.33 in993.2 mb 0.00 in0.0 mm 0.00 in0.0 mm 0.00 in0.0 mm
05:11 AM 53.0°F11.7°C 50.4°F10.2°C 91% 8.7 mph SSE14.0 kmh SSE 11.0 mph17.7 kmh 29.33 in993.2 mb 0.00 in0.0 mm 0.00 in0.0 mm 0.00 in0.0 mm
05:12 AM 53.0°F11.7°C 50.4°F10.2°C 91% 7.6 mph SSE12.2 kmh SSE 11.0 mph17.7 kmh 29.33 in993.2 mb 0.00 in0.0 mm 0.00 in0.0 mm 0.00 in0.0 mm
05:13 AM 53.0°F11.7°C 50.4°F10.2°C 91% 6.3 mph S10.1 kmh S 10.0 mph16.1 kmh 29.33 in993.2 mb 0.00 in0.0 mm 0.00 in0.0 mm 0.00 in0.0 mm
05:14 AM 53.0°F11.7°C 50.4°F10.2°C 91% 7.9 mph SSE12.7 kmh SSE 12.0 mph19.3 kmh 29.33 in993.2 mb 0.00 in0.0 mm 0.00 in0.0 mm 0.00 in0.0 mm
05:15 AM 53.0°F11.7°C 50.4°F10.2°C 91% 7.8 mph SSE12.6 kmh SSE 12.0 mph19.3 kmh 29.33 in993.2 mb 0.00 in0.0 mm 0.00 in0.0 mm 0.00 in0.0 mm
05:16 AM 53.1°F11.7°C 50.5°F10.3°C 91% 7.1 mph SSE11.4 kmh SSE 11.0 mph17.7 kmh 29.33 in993.2 mb 0.00 in0.0 mm 0.00 in0.0 mm 0.00 in0.0 mm
05:17 AM 53.1°F11.7°C 50.5°F10.3°C 91% 7.7 mph SSE12.4 kmh SSE 13.0 mph20.9 kmh 29.33 in993.2 mb 0.00 in0.0 mm 0.00 in0.0 mm 0.00 in0.0 mm
05:18 AM 53.1°F11.7°C 50.5°F10.3°C 91% 7.7 mph SSE12.4 kmh SSE 13.0 mph20.9 kmh 29.33 in993.2 mb 0.00 in0.0 mm 0.00 in0.0 mm 0.00 in0.0 mm
05:19 AM 53.2°F11.8°C 50.6°F10.3°C 91% 7.8 mph S12.6 kmh S 11.0 mph17.7 kmh 29.32 in992.9 mb 0.00 in0.0 mm 0.00 in0.0 mm 0.00 in0.0 mm
05:20 AM 53.1°F11.7°C 50.5°F10.3°C 91% 7.1 mph SSE11.4 kmh SSE 11.0 mph17.7 kmh 29.32 in992.9 mb 0.00 in0.0 mm 0.00 in0.0 mm 0.00 in0.0 mm
05:21 AM 53.2°F11.8°C 50.6°F10.3°C 91% 5.9 mph S9.5 kmh S 11.0 mph17.7 kmh 29.32 in992.9 mb 0.00 in0.0 mm 0.00 in0.0 mm 0.00 in0.0 mm
05:22 AM 53.1°F11.7°C 50.5°F10.3°C 91% 5.4 mph S8.7 kmh S 9.0 mph14.5 kmh 29.32 in992.9 mb 0.00 in0.0 mm 0.00 in0.0 mm 0.00 in0.0 mm
05:23 AM 53.1°F11.7°C 50.5°F10.3°C 91% 7.3 mph SE11.7 kmh SE 11.0 mph17.7 kmh 29.32 in992.9 mb 0.00 in0.0 mm 0.00 in0.0 mm 0.00 in0.0 mm
05:24 AM 53.2°F11.8°C 50.6°F10.3°C 91% 8.1 mph SSE13.0 kmh SSE 11.0 mph17.7 kmh 29.32 in992.9 mb 0.00 in0.0 mm 0.00 in0.0 mm 0.00 in0.0 mm
05:25 AM 53.2°F11.8°C 50.6°F10.3°C 91% 5.9 mph SSE9.5 kmh SSE 11.0 mph17.7 kmh 29.32 in992.9 mb 0.00 in0.0 mm 0.00 in0.0 mm 0.00 in0.0 mm
05:26 AM 53.2°F11.8°C 50.6°F10.3°C 91% 7.2 mph SSE11.6 kmh SSE 10.0 mph16.1 kmh 29.32 in992.9 mb 0.00 in0.0 mm 0.00 in0.0 mm 0.00 in0.0 mm
05:27 AM 53.1°F11.7°C 50.5°F10.3°C 91% 5.7 mph SSE9.2 kmh SSE 10.0 mph16.1 kmh 29.32 in992.9 mb 0.00 in0.0 mm 0.00 in0.0 mm 0.00 in0.0 mm
05:28 AM 53.1°F11.7°C 50.5°F10.3°C 91% 6.4 mph SSE10.3 kmh SSE 10.0 mph16.1 kmh 29.32 in992.9 mb 0.00 in0.0 mm 0.00 in0.0 mm 0.00 in0.0 mm
05:29 AM 53.1°F11.7°C 50.5°F10.3°C 91% 5.1 mph SSE8.2 kmh SSE 10.0 mph16.1 kmh 29.32 in992.9 mb 0.00 in0.0 mm 0.00 in0.0 mm 0.00 in0.0 mm
05:30 AM 53.1°F11.7°C 50.5°F10.3°C 91% 6.5 mph S10.5 kmh S 12.0 mph19.3 kmh 29.32 in992.9 mb 0.00 in0.0 mm 0.00 in0.0 mm 0.00 in0.0 mm
05:31 AM 53.1°F11.7°C 50.5°F10.3°C 91% 9.3 mph SE15.0 kmh SE 13.0 mph20.9 kmh 29.32 in992.9 mb 0.00 in0.0 mm 0.00 in0.0 mm 0.00 in0.0 mm
05:32 AM 53.2°F11.8°C 50.6°F10.3°C 91% 7.8 mph S12.6 kmh S 13.0 mph20.9 kmh 29.32 in992.9 mb 0.00 in0.0 mm 0.00 in0.0 mm 0.00 in0.0 mm
05:33 AM 53.1°F11.7°C 50.5°F10.3°C 91% 11.6 mph SSE18.7 kmh SSE 16.0 mph25.7 kmh 29.32 in992.9 mb 0.00 in0.0 mm 0.00 in0.0 mm 0.00 in0.0 mm
05:34 AM 53.2°F11.8°C 50.6°F10.3°C 91% 5.5 mph SSE8.9 kmh SSE 16.0 mph25.7 kmh 29.31 in992.6 mb 0.00 in0.0 mm 0.00 in0.0 mm 0.00 in0.0 mm
05:35 AM 53.2°F11.8°C 50.6°F10.3°C 91% 7.3 mph SSE11.7 kmh SSE 12.0 mph19.3 kmh 29.31 in992.6 mb 0.00 in0.0 mm 0.00 in0.0 mm 0.00 in0.0 mm
05:36 AM 53.2°F11.8°C 50.6°F10.3°C 91% 8.5 mph SSE13.7 kmh SSE 13.0 mph20.9 kmh 29.31 in992.6 mb 0.00 in0.0 mm 0.00 in0.0 mm 0.00 in0.0 mm
05:37 AM 53.2°F11.8°C 50.6°F10.3°C 91% 9.3 mph S15.0 kmh S 13.0 mph20.9 kmh 29.31 in992.6 mb 0.00 in0.0 mm 0.00 in0.0 mm 0.00 in0.0 mm
05:38 AM 53.2°F11.8°C 50.6°F10.3°C 91% 6.6 mph S10.6 kmh S 12.0 mph19.3 kmh 29.31 in992.6 mb 0.00 in0.0 mm 0.00 in0.0 mm 0.00 in0.0 mm
05:39 AM 53.2°F11.8°C 50.6°F10.3°C 91% 6.3 mph SSE10.1 kmh SSE 10.0 mph16.1 kmh 29.31 in992.6 mb 0.00 in0.0 mm 0.00 in0.0 mm 0.00 in0.0 mm
05:40 AM 53.2°F11.8°C 50.6°F10.3°C 91% 7.5 mph SSE12.1 kmh SSE 13.0 mph20.9 kmh 29.31 in992.6 mb 0.00 in0.0 mm 0.00 in0.0 mm 0.00 in0.0 mm
05:41 AM 53.2°F11.8°C 50.6°F10.3°C 91% 8.9 mph S14.3 kmh S 13.0 mph20.9 kmh 29.31 in992.6 mb 0.00 in0.0 mm 0.00 in0.0 mm 0.00 in0.0 mm
05:42 AM 53.2°F11.8°C 50.6°F10.3°C 91% 5.0 mph S8.0 kmh S 13.0 mph20.9 kmh 29.31 in992.6 mb 0.00 in0.0 mm 0.00 in0.0 mm 0.00 in0.0 mm
05:43 AM 53.2°F11.8°C 50.6°F10.3°C 91% 6.6 mph S10.6 kmh S 9.0 mph14.5 kmh 29.31 in992.6 mb 0.00 in0.0 mm 0.00 in0.0 mm 0.00 in0.0 mm
05:44 AM 53.2°F11.8°C 50.6°F10.3°C 91% 5.2 mph S8.4 kmh S 9.0 mph14.5 kmh 29.31 in992.6 mb 0.00 in0.0 mm 0.00 in0.0 mm 0.00 in0.0 mm
05:45 AM 53.2°F11.8°C 50.6°F10.3°C 91% 7.5 mph S12.1 kmh S 11.0 mph17.7 kmh 29.31 in992.6 mb 0.00 in0.0 mm 0.00 in0.0 mm 0.00 in0.0 mm
05:46 AM 53.2°F11.8°C 50.6°F10.3°C 91% 7.1 mph S11.4 kmh S 11.0 mph17.7 kmh 29.31 in992.6 mb 0.00 in0.0 mm 0.00 in0.0 mm 0.00 in0.0 mm
05:47 AM 53.2°F11.8°C 50.6°F10.3°C 91% 6.9 mph S11.1 kmh S 12.0 mph19.3 kmh 29.31 in992.6 mb 0.00 in0.0 mm 0.00 in0.0 mm 0.00 in0.0 mm
05:48 AM 53.2°F11.8°C 50.3°F10.2°C 90% 5.9 mph S9.5 kmh S 12.0 mph19.3 kmh 29.31 in992.6 mb 0.00 in0.0 mm 0.00 in0.0 mm 0.00 in0.0 mm
05:49 AM 53.2°F11.8°C 50.6°F10.3°C 91% 8.9 mph SSE14.3 kmh SSE 12.0 mph19.3 kmh 29.30 in992.2 mb 0.00 in0.0 mm 0.00 in0.0 mm 0.00 in0.0 mm
05:50 AM 53.2°F11.8°C 50.3°F10.2°C 90% 7.0 mph S11.3 kmh S 12.0 mph19.3 kmh 29.30 in992.2 mb 0.00 in0.0 mm 0.00 in0.0 mm 0.00 in0.0 mm
05:51 AM 53.2°F11.8°C 50.3°F10.2°C 90% 6.0 mph SSE9.7 kmh SSE 10.0 mph16.1 kmh 29.30 in992.2 mb 0.00 in0.0 mm 0.00 in0.0 mm 0.00 in0.0 mm
05:52 AM 53.2°F11.8°C 50.3°F10.2°C 90% 5.7 mph S9.2 kmh S 10.0 mph16.1 kmh 29.30 in992.2 mb 0.00 in0.0 mm 0.00 in0.0 mm 0.00 in0.0 mm
05:53 AM 53.2°F11.8°C 50.3°F10.2°C 90% 7.0 mph S11.3 kmh S 10.0 mph16.1 kmh 29.30 in992.2 mb 0.00 in0.0 mm 0.00 in0.0 mm 0.00 in0.0 mm
05:54 AM 53.2°F11.8°C 50.3°F10.2°C 90% 5.7 mph S9.2 kmh S 10.0 mph16.1 kmh 29.30 in992.2 mb 0.00 in0.0 mm 0.00 in0.0 mm 0.00 in0.0 mm
05:55 AM 53.2°F11.8°C 50.3°F10.2°C 90% 5.2 mph SSE8.4 kmh SSE 10.0 mph16.1 kmh 29.30 in992.2 mb 0.00 in0.0 mm 0.00 in0.0 mm 0.00 in0.0 mm
05:56 AM 53.1°F11.7°C 50.2°F10.1°C 90% 8.1 mph SSE13.0 kmh SSE 11.0 mph17.7 kmh 29.30 in992.2 mb 0.00 in0.0 mm 0.00 in0.0 mm 0.00 in0.0 mm
05:57 AM 53.1°F11.7°C 50.2°F10.1°C 90% 8.2 mph SSE13.2 kmh SSE 11.0 mph17.7 kmh 29.30 in992.2 mb 0.00 in0.0 mm 0.00 in0.0 mm 0.00 in0.0 mm
05:58 AM 53.2°F11.8°C 50.3°F10.2°C 90% 6.4 mph SSE10.3 kmh SSE 11.0 mph17.7 kmh 29.30 in992.2 mb 0.00 in0.0 mm 0.00 in0.0 mm 0.00 in0.0 mm
05:59 AM 53.1°F11.7°C 50.2°F10.1°C 90% 6.5 mph SSE10.5 kmh SSE 8.0 mph12.9 kmh 29.29 in991.9 mb 0.00 in0.0 mm 0.00 in0.0 mm 0.00 in0.0 mm
06:00 AM 53.2°F11.8°C 50.3°F10.2°C 90% 5.7 mph S9.2 kmh S 8.0 mph12.9 kmh 29.29 in991.9 mb 0.00 in0.0 mm 0.00 in0.0 mm 0.00 in0.0 mm
06:01 AM 53.2°F11.8°C 50.3°F10.2°C 90% 4.9 mph SSE7.9 kmh SSE 10.0 mph16.1 kmh 29.29 in991.9 mb 0.00 in0.0 mm 0.00 in0.0 mm 0.00 in0.0 mm
06:02 AM 53.2°F11.8°C 50.3°F10.2°C 90% 4.5 mph S7.2 kmh S 10.0 mph16.1 kmh 29.29 in991.9 mb 0.00 in0.0 mm 0.00 in0.0 mm 0.00 in0.0 mm
06:03 AM 53.2°F11.8°C 50.3°F10.2°C 90% 4.0 mph SSE6.4 kmh SSE 7.0 mph11.3 kmh 29.29 in991.9 mb 0.00 in0.0 mm 0.00 in0.0 mm 0.00 in0.0 mm
06:04 AM 53.2°F11.8°C 50.3°F10.2°C 90% 6.8 mph SSE10.9 kmh SSE 11.0 mph17.7 kmh 29.29 in991.9 mb 0.00 in0.0 mm 0.00 in0.0 mm 0.00 in0.0 mm
06:05 AM 53.2°F11.8°C 50.3°F10.2°C 90% 6.0 mph SSE9.7 kmh SSE 11.0 mph17.7 kmh 29.29 in991.9 mb 0.00 in0.0 mm 0.00 in0.0 mm 0.00 in0.0 mm
06:06 AM 53.2°F11.8°C 50.3°F10.2°C 90% 5.3 mph SSE8.5 kmh SSE 10.0 mph16.1 kmh 29.29 in991.9 mb 0.00 in0.0 mm 0.00 in0.0 mm 0.00 in0.0 mm
06:07 AM 53.2°F11.8°C 50.3°F10.2°C 90% 5.4 mph SSE8.7 kmh SSE 8.0 mph12.9 kmh 29.29 in991.9 mb 0.00 in0.0 mm 0.00 in0.0 mm 0.00 in0.0 mm
06:08 AM 53.3°F11.8°C 50.4°F10.2°C 90% 6.4 mph S10.3 kmh S 9.0 mph14.5 kmh 29.29 in991.9 mb 0.00 in0.0 mm 0.00 in0.0 mm 0.00 in0.0 mm
06:09 AM 53.3°F11.8°C 50.4°F10.2°C 90% 6.2 mph S10.0 kmh S 9.0 mph14.5 kmh 29.28 in991.5 mb 0.00 in0.0 mm 0.00 in0.0 mm 0.00 in0.0 mm
06:10 AM 53.2°F11.8°C 50.0°F10.0°C 89% 6.2 mph SSE10.0 kmh SSE 10.0 mph16.1 kmh 29.28 in991.5 mb 0.00 in0.0 mm 0.00 in0.0 mm 0.00 in0.0 mm
06:11 AM 53.3°F11.8°C 50.1°F10.1°C 89% 6.9 mph SSE11.1 kmh SSE 10.0 mph16.1 kmh 29.28 in991.5 mb 0.00 in0.0 mm 0.00 in0.0 mm 0.00 in0.0 mm
06:12 AM 53.3°F11.8°C 50.1°F10.1°C 89% 6.2 mph SSE10.0 kmh SSE 10.0 mph16.1 kmh 29.28 in991.5 mb 0.00 in0.0 mm 0.00 in0.0 mm 0.00 in0.0 mm
06:13 AM 53.3°F11.8°C 50.1°F10.1°C 89% 7.2 mph SSE11.6 kmh SSE 11.0 mph17.7 kmh 29.28 in991.5 mb 0.00 in0.0 mm 0.00 in0.0 mm 0.00 in0.0 mm
06:14 AM 53.3°F11.8°C 50.1°F10.1°C 89% 6.3 mph SE10.1 kmh SE 11.0 mph17.7 kmh 29.28 in991.5 mb 0.00 in0.0 mm 0.00 in0.0 mm 0.00 in0.0 mm
06:15 AM 53.3°F11.8°C 50.1°F10.1°C 89% 7.2 mph S11.6 kmh S 12.0 mph19.3 kmh 29.28 in991.5 mb 0.00 in0.0 mm 0.00 in0.0 mm 0.00 in0.0 mm
06:16 AM 53.3°F11.8°C 50.1°F10.1°C 89% 7.1 mph SSE11.4 kmh SSE 12.0 mph19.3 kmh 29.28 in991.5 mb 0.00 in0.0 mm 0.00 in0.0 mm 0.00 in0.0 mm
06:17 AM 53.4°F11.9°C 50.2°F10.1°C 89% 7.8 mph S12.6 kmh S 11.0 mph17.7 kmh 29.28 in991.5 mb 0.00 in0.0 mm 0.00 in0.0 mm 0.00 in0.0 mm
06:18 AM 53.4°F11.9°C 49.9°F9.9°C 88% 6.2 mph SSE10.0 kmh SSE 11.0 mph17.7 kmh 29.28 in991.5 mb 0.00 in0.0 mm 0.00 in0.0 mm 0.00 in0.0 mm
06:19 AM 53.4°F11.9°C 49.9°F9.9°C 88% 8.1 mph S13.0 kmh S 11.0 mph17.7 kmh 29.28 in991.5 mb 0.00 in0.0 mm 0.00 in0.0 mm 0.00 in0.0 mm
06:20 AM 53.4°F11.9°C 49.9°F9.9°C 88% 11.2 mph S18.0 kmh S 15.0 mph24.1 kmh 29.28 in991.5 mb 0.00 in0.0 mm 0.00 in0.0 mm 0.00 in0.0 mm
06:21 AM 53.4°F11.9°C 49.9°F9.9°C 88% 7.4 mph SSE11.9 kmh SSE 15.0 mph24.1 kmh 29.28 in991.5 mb 0.00 in0.0 mm 0.00 in0.0 mm 0.00 in0.0 mm
06:22 AM 53.5°F11.9°C 50.0°F10.0°C 88% 7.6 mph SSE12.2 kmh SSE 12.0 mph19.3 kmh 29.28 in991.5 mb 0.00 in0.0 mm 0.00 in0.0 mm 0.00 in0.0 mm
06:23 AM 53.5°F11.9°C 50.0°F10.0°C 88% 9.0 mph S14.5 kmh S 12.0 mph19.3 kmh 29.28 in991.5 mb 0.00 in0.0 mm 0.00 in0.0 mm 0.00 in0.0 mm
06:24 AM 53.6°F12.0°C 50.1°F10.1°C 88% 7.8 mph S12.6 kmh S 12.0 mph19.3 kmh 29.28 in991.5 mb 0.00 in0.0 mm 0.00 in0.0 mm 0.00 in0.0 mm
06:25 AM 53.6°F12.0°C 50.1°F10.1°C 88% 6.0 mph S9.7 kmh S 10.0 mph16.1 kmh 29.28 in991.5 mb 0.00 in0.0 mm 0.00 in0.0 mm 0.00 in0.0 mm
06:26 AM 53.6°F12.0°C 50.1°F10.1°C 88% 5.3 mph S8.5 kmh S 11.0 mph17.7 kmh 29.28 in991.5 mb 0.00 in0.0 mm 0.00 in0.0 mm 0.00 in0.0 mm
06:27 AM 53.6°F12.0°C 50.4°F10.2°C 89% 8.3 mph SSE13.4 kmh SSE 12.0 mph19.3 kmh 29.28 in991.5 mb 0.00 in0.0 mm 0.00 in0.0 mm 0.00 in0.0 mm
06:28 AM 53.6°F12.0°C 50.1°F10.1°C 88% 5.8 mph SSE9.3 kmh SSE 11.0 mph17.7 kmh 29.27 in991.2 mb 0.00 in0.0 mm 0.00 in0.0 mm 0.00 in0.0 mm
06:29 AM 53.6°F12.0°C 50.4°F10.2°C 89% 5.6 mph SSE9.0 kmh SSE 10.0 mph16.1 kmh 29.27 in991.2 mb 0.00 in0.0 mm 0.00 in0.0 mm 0.00 in0.0 mm
06:30 AM 53.6°F12.0°C 50.1°F10.1°C 88% 7.6 mph SSE12.2 kmh SSE 10.0 mph16.1 kmh 29.27 in991.2 mb 0.00 in0.0 mm 0.00 in0.0 mm 0.00 in0.0 mm
06:31 AM 53.6°F12.0°C 50.1°F10.1°C 88% 7.7 mph SSE12.4 kmh SSE 12.0 mph19.3 kmh 29.27 in991.2 mb 0.00 in0.0 mm 0.00 in0.0 mm 0.00 in0.0 mm
06:32 AM 53.6°F12.0°C 50.1°F10.1°C 88% 6.2 mph SSE10.0 kmh SSE 12.0 mph19.3 kmh 29.27 in991.2 mb 0.00 in0.0 mm 0.00 in0.0 mm 0.00 in0.0 mm
06:33 AM 53.6°F12.0°C 50.1°F10.1°C 88% 4.9 mph SSE7.9 kmh SSE 10.0 mph16.1 kmh 29.27 in991.2 mb 0.00 in0.0 mm 0.00 in0.0 mm 0.00 in0.0 mm
06:34 AM 53.6°F12.0°C 50.1°F10.1°C 88% 9.3 mph S15.0 kmh S 12.0 mph19.3 kmh 29.27 in991.2 mb 0.00 in0.0 mm 0.00 in0.0 mm 0.00 in0.0 mm
06:35 AM 53.7°F12.1°C 50.2°F10.1°C 88% 7.8 mph S12.6 kmh S 12.0 mph19.3 kmh 29.27 in991.2 mb 0.00 in0.0 mm 0.00 in0.0 mm 0.00 in0.0 mm
06:36 AM 53.7°F12.1°C 49.9°F9.9°C 87% 6.0 mph S9.7 kmh S 11.0 mph17.7 kmh 29.27 in991.2 mb 0.00 in0.0 mm 0.00 in0.0 mm 0.00 in0.0 mm
06:37 AM 53.7°F12.1°C 49.9°F9.9°C 87% 8.0 mph S12.9 kmh S 11.0 mph17.7 kmh 29.27 in991.2 mb 0.00 in0.0 mm 0.00 in0.0 mm 0.00 in0.0 mm
06:38 AM 53.7°F12.1°C 49.9°F9.9°C 87% 8.0 mph S12.9 kmh S 10.0 mph16.1 kmh 29.27 in991.2 mb 0.00 in0.0 mm 0.00 in0.0 mm 0.00 in0.0 mm
06:39 AM 53.7°F12.1°C 49.9°F9.9°C 87% 8.9 mph S14.3 kmh S 12.0 mph19.3 kmh 29.27 in991.2 mb 0.00 in0.0 mm 0.00 in0.0 mm 0.00 in0.0 mm
06:40 AM 53.7°F12.1°C 49.9°F9.9°C 87% 5.5 mph S8.9 kmh S 12.0 mph19.3 kmh 29.27 in991.2 mb 0.00 in0.0 mm 0.00 in0.0 mm 0.00 in0.0 mm
06:41 AM 53.7°F12.1°C 49.9°F9.9°C 87% 8.9 mph SSE14.3 kmh SSE 12.0 mph19.3 kmh 29.27 in991.2 mb 0.00 in0.0 mm 0.00 in0.0 mm 0.00 in0.0 mm
06:42 AM 53.7°F12.1°C 49.9°F9.9°C 87% 8.6 mph SSE13.8 kmh SSE 14.0 mph22.5 kmh 29.27 in991.2 mb 0.00 in0.0 mm 0.00 in0.0 mm 0.00 in0.0 mm
06:43 AM 53.7°F12.1°C 49.9°F9.9°C 87% 7.6 mph S12.2 kmh S 14.0 mph22.5 kmh 29.27 in991.2 mb 0.00 in0.0 mm 0.00 in0.0 mm 0.00 in0.0 mm
06:44 AM 53.8°F12.1°C 49.7°F9.8°C 86% 11.1 mph S17.9 kmh S 16.0 mph25.7 kmh 29.26 in990.9 mb 0.00 in0.0 mm 0.00 in0.0 mm 0.00 in0.0 mm
06:45 AM 53.8°F12.1°C 49.7°F9.8°C 86% 11.3 mph SSE18.2 kmh SSE 16.0 mph25.7 kmh 29.27 in991.2 mb 0.00 in0.0 mm 0.00 in0.0 mm 0.00 in0.0 mm
06:46 AM 53.8°F12.1°C 50.0°F10.0°C 87% 6.3 mph SSE10.1 kmh SSE 15.0 mph24.1 kmh 29.26 in990.9 mb 0.00 in0.0 mm 0.00 in0.0 mm 0.00 in0.0 mm
06:47 AM 53.8°F12.1°C 50.0°F10.0°C 87% 7.3 mph SSE11.7 kmh SSE 10.0 mph16.1 kmh 29.26 in990.9 mb 0.00 in0.0 mm 0.00 in0.0 mm 0.00 in0.0 mm
06:48 AM 53.8°F12.1°C 50.0°F10.0°C 87% 5.5 mph S8.9 kmh S 10.0 mph16.1 kmh 29.26 in990.9 mb 0.00 in0.0 mm 0.00 in0.0 mm 0.00 in0.0 mm
06:49 AM 53.8°F12.1°C 50.0°F10.0°C 87% 10.3 mph SSE16.6 kmh SSE 13.0 mph20.9 kmh 29.26 in990.9 mb 0.00 in0.0 mm 0.00 in0.0 mm 0.00 in0.0 mm
06:50 AM 53.8°F12.1°C 50.0°F10.0°C 87% 8.4 mph SSE13.5 kmh SSE 13.0 mph20.9 kmh 29.26 in990.9 mb 0.00 in0.0 mm 0.00 in0.0 mm 0.00 in0.0 mm
06:51 AM 53.8°F12.1°C 50.0°F10.0°C 87% 12.5 mph SSE20.1 kmh SSE 17.0 mph27.4 kmh 29.26 in990.9 mb 0.00 in0.0 mm 0.00 in0.0 mm 0.00 in0.0 mm
06:52 AM 53.9°F12.2°C 50.1°F10.1°C 87% 9.0 mph SSE14.5 kmh SSE 17.0 mph27.4 kmh 29.26 in990.9 mb 0.00 in0.0 mm 0.00 in0.0 mm 0.00 in0.0 mm
06:53 AM 53.8°F12.1°C 50.0°F10.0°C 87% 8.9 mph SSE14.3 kmh SSE 15.0 mph24.1 kmh 29.26 in990.9 mb 0.00 in0.0 mm 0.00 in0.0 mm 0.00 in0.0 mm
06:54 AM 53.9°F12.2°C 50.1°F10.1°C 87% 7.1 mph SSE11.4 kmh SSE 15.0 mph24.1 kmh 29.26 in990.9 mb 0.00 in0.0 mm 0.00 in0.0 mm 0.00 in0.0 mm
06:55 AM 53.8°F12.1°C 50.0°F10.0°C 87% 8.5 mph SSE13.7 kmh SSE 15.0 mph24.1 kmh 29.26 in990.9 mb 0.00 in0.0 mm 0.00 in0.0 mm 0.00 in0.0 mm
06:56 AM 53.9°F12.2°C 50.1°F10.1°C 87% 10.6 mph SSE17.1 kmh SSE 15.0 mph24.1 kmh 29.26 in990.9 mb 0.00 in0.0 mm 0.00 in0.0 mm 0.00 in0.0 mm
06:57 AM 53.9°F12.2°C 50.1°F10.1°C 87% 7.9 mph SSE12.7 kmh SSE 14.0 mph22.5 kmh 29.26 in990.9 mb 0.00 in0.0 mm 0.00 in0.0 mm 0.00 in0.0 mm
06:58 AM 53.9°F12.2°C 50.1°F10.1°C 87% 11.9 mph SE19.2 kmh SE 17.0 mph27.4 kmh 29.26 in990.9 mb 0.00 in0.0 mm 0.00 in0.0 mm 0.00 in0.0 mm
06:59 AM 53.8°F12.1°C 50.0°F10.0°C 87% 10.0 mph SE16.1 kmh SE 17.0 mph27.4 kmh 29.26 in990.9 mb 0.00 in0.0 mm 0.00 in0.0 mm 0.00 in0.0 mm
07:00 AM 53.8°F12.1°C 50.0°F10.0°C 87% 6.5 mph SE10.5 kmh SE 13.0 mph20.9 kmh 29.26 in990.9 mb 0.00 in0.0 mm 0.00 in0.0 mm 0.00 in0.0 mm
07:01 AM 53.8°F12.1°C 50.0°F10.0°C 87% 8.5 mph SSE13.7 kmh SSE 12.0 mph19.3 kmh 29.26 in990.9 mb 0.00 in0.0 mm 0.00 in0.0 mm 0.00 in0.0 mm
07:02 AM 53.8°F12.1°C 50.0°F10.0°C 87% 6.6 mph SSE10.6 kmh SSE 12.0 mph19.3 kmh 29.26 in990.9 mb 0.00 in0.0 mm 0.00 in0.0 mm 0.00 in0.0 mm
07:03 AM 53.7°F12.1°C 49.9°F9.9°C 87% 11.0 mph SE17.7 kmh SE 15.0 mph24.1 kmh 29.25 in990.5 mb 0.00 in0.0 mm 0.00 in0.0 mm 0.00 in0.0 mm
07:04 AM 53.7°F12.1°C 49.9°F9.9°C 87% 9.4 mph SSE15.1 kmh SSE 15.0 mph24.1 kmh 29.25 in990.5 mb 0.00 in0.0 mm 0.00 in0.0 mm 0.00 in0.0 mm
07:05 AM 53.7°F12.1°C 49.9°F9.9°C 87% 6.6 mph SSE10.6 kmh SSE 12.0 mph19.3 kmh 29.26 in990.9 mb 0.00 in0.0 mm 0.00 in0.0 mm 0.00 in0.0 mm
07:06 AM 53.7°F12.1°C 49.9°F9.9°C 87% 9.7 mph S15.6 kmh S 15.0 mph24.1 kmh 29.25 in990.5 mb 0.00 in0.0 mm 0.00 in0.0 mm 0.00 in0.0 mm
07:07 AM 53.7°F12.1°C 49.9°F9.9°C 87% 6.4 mph SSE10.3 kmh SSE 15.0 mph24.1 kmh 29.25 in990.5 mb 0.00 in0.0 mm 0.00 in0.0 mm 0.00 in0.0 mm
07:08 AM 53.7°F12.1°C 49.9°F9.9°C 87% 12.5 mph SE20.1 kmh SE 16.0 mph25.7 kmh 29.25 in990.5 mb 0.00 in0.0 mm 0.00 in0.0 mm 0.00 in0.0 mm
07:09 AM 53.7°F12.1°C 49.9°F9.9°C 87% 9.3 mph SE15.0 kmh SE 16.0 mph25.7 kmh 29.25 in990.5 mb 0.00 in0.0 mm 0.00 in0.0 mm 0.00 in0.0 mm
07:10 AM 53.7°F12.1°C 49.9°F9.9°C 87% 7.5 mph SE12.1 kmh SE 14.0 mph22.5 kmh 29.25 in990.5 mb 0.00 in0.0 mm 0.00 in0.0 mm 0.00 in0.0 mm
07:11 AM 53.7°F12.1°C 50.2°F10.1°C 88% 6.3 mph SE10.1 kmh SE 13.0 mph20.9 kmh 29.25 in990.5 mb 0.00 in0.0 mm 0.00 in0.0 mm 0.00 in0.0 mm
07:12 AM 53.7°F12.1°C 50.2°F10.1°C 88% 9.1 mph SE14.6 kmh SE 14.0 mph22.5 kmh 29.25 in990.5 mb 0.00 in0.0 mm 0.00 in0.0 mm 0.00 in0.0 mm
07:13 AM 53.7°F12.1°C 50.2°F10.1°C 88% 9.0 mph SE14.5 kmh SE 14.0 mph22.5 kmh 29.25 in990.5 mb 0.00 in0.0 mm 0.00 in0.0 mm 0.00 in0.0 mm
07:14 AM 53.8°F12.1°C 50.3°F10.2°C 88% 5.3 mph SSE8.5 kmh SSE 12.0 mph19.3 kmh 29.25 in990.5 mb 0.00 in0.0 mm 0.00 in0.0 mm 0.00 in0.0 mm
07:15 AM 53.8°F12.1°C 50.3°F10.2°C 88% 10.8 mph SE17.4 kmh SE 15.0 mph24.1 kmh 29.25 in990.5 mb 0.00 in0.0 mm 0.00 in0.0 mm 0.00 in0.0 mm
07:16 AM 53.8°F12.1°C 50.3°F10.2°C 88% 8.6 mph SE13.8 kmh SE 15.0 mph24.1 kmh 29.24 in990.2 mb 0.00 in0.0 mm 0.00 in0.0 mm 0.00 in0.0 mm
07:17 AM 53.9°F12.2°C 50.4°F10.2°C 88% 10.5 mph SSE16.9 kmh SSE 16.0 mph25.7 kmh 29.24 in990.2 mb 0.00 in0.0 mm 0.00 in0.0 mm 0.00 in0.0 mm
07:18 AM 53.9°F12.2°C 50.4°F10.2°C 88% 9.8 mph SE15.8 kmh SE 16.0 mph25.7 kmh 29.24 in990.2 mb 0.00 in0.0 mm 0.00 in0.0 mm 0.00 in0.0 mm
07:19 AM 53.9°F12.2°C 50.4°F10.2°C 88% 12.5 mph SE20.1 kmh SE 17.0 mph27.4 kmh 29.24 in990.2 mb 0.00 in0.0 mm 0.00 in0.0 mm 0.00 in0.0 mm
07:20 AM 53.9°F12.2°C 50.4°F10.2°C 88% 8.7 mph SE14.0 kmh SE 17.0 mph27.4 kmh 29.24 in990.2 mb 0.00 in0.0 mm 0.00 in0.0 mm 0.00 in0.0 mm
07:21 AM 54.0°F12.2°C 50.5°F10.3°C 88% 10.5 mph SE16.9 kmh SE 14.0 mph22.5 kmh 29.24 in990.2 mb 0.00 in0.0 mm 0.00 in0.0 mm 0.00 in0.0 mm
07:22 AM 54.0°F12.2°C 50.5°F10.3°C 88% 11.0 mph SE17.7 kmh SE 18.0 mph29.0 kmh 29.24 in990.2 mb 0.00 in0.0 mm 0.00 in0.0 mm 0.00 in0.0 mm
07:23 AM 54.0°F12.2°C 50.5°F10.3°C 88% 11.6 mph SE18.7 kmh SE 18.0 mph29.0 kmh 29.24 in990.2 mb 0.00 in0.0 mm 0.00 in0.0 mm 0.00 in0.0 mm
07:24 AM 54.1°F12.3°C 50.6°F10.3°C 88% 10.3 mph SE16.6 kmh SE 16.0 mph25.7 kmh 29.23 in989.8 mb 0.00 in0.0 mm 0.00 in0.0 mm 0.00 in0.0 mm
07:25 AM 54.1°F12.3°C 50.6°F10.3°C 88% 14.1 mph SE22.7 kmh SE 16.0 mph25.7 kmh 29.23 in989.8 mb 0.00 in0.0 mm 0.00 in0.0 mm 0.00 in0.0 mm
07:26 AM 54.1°F12.3°C 50.6°F10.3°C 88% 11.2 mph SE18.0 kmh SE 16.0 mph25.7 kmh 29.23 in989.8 mb 0.00 in0.0 mm 0.00 in0.0 mm 0.00 in0.0 mm
07:27 AM 54.1°F12.3°C 50.6°F10.3°C 88% 10.4 mph SE16.7 kmh SE 15.0 mph24.1 kmh 29.23 in989.8 mb 0.00 in0.0 mm 0.00 in0.0 mm 0.00 in0.0 mm
07:28 AM 54.2°F12.3°C 50.7°F10.4°C 88% 12.3 mph SE19.8 kmh SE 16.0 mph25.7 kmh 29.23 in989.8 mb 0.00 in0.0 mm 0.00 in0.0 mm 0.00 in0.0 mm
07:29 AM 54.1°F12.3°C 50.6°F10.3°C 88% 11.5 mph SE18.5 kmh SE 16.0 mph25.7 kmh 29.23 in989.8 mb 0.00 in0.0 mm 0.00 in0.0 mm 0.00 in0.0 mm
07:30 AM 54.2°F12.3°C 50.7°F10.4°C 88% 12.1 mph SE19.5 kmh SE 16.0 mph25.7 kmh 29.23 in989.8 mb 0.00 in0.0 mm 0.00 in0.0 mm 0.00 in0.0 mm
07:31 AM 54.2°F12.3°C 50.7°F10.4°C 88% 9.3 mph SE15.0 kmh SE 16.0 mph25.7 kmh 29.23 in989.8 mb 0.00 in0.0 mm 0.00 in0.0 mm 0.00 in0.0 mm
07:32 AM 54.2°F12.3°C 51.0°F10.6°C 89% 11.4 mph SE18.3 kmh SE 15.0 mph24.1 kmh 29.23 in989.8 mb 0.00 in0.0 mm 0.00 in0.0 mm 0.00 in0.0 mm
07:33 AM 54.2°F12.3°C 50.7°F10.4°C 88% 11.7 mph SE18.8 kmh SE 15.0 mph24.1 kmh 29.23 in989.8 mb 0.00 in0.0 mm 0.00 in0.0 mm 0.00 in0.0 mm
07:34 AM 54.2°F12.3°C 50.7°F10.4°C 88% 9.6 mph SE15.4 kmh SE 14.0 mph22.5 kmh 29.23 in989.8 mb 0.00 in0.0 mm 0.00 in0.0 mm 0.00 in0.0 mm
07:35 AM 54.3°F12.4°C 50.8°F10.4°C 88% 11.3 mph SE18.2 kmh SE 14.0 mph22.5 kmh 29.23 in989.8 mb 0.00 in0.0 mm 0.00 in0.0 mm 0.00 in0.0 mm
07:36 AM 54.3°F12.4°C 50.8°F10.4°C 88% 8.6 mph SE13.8 kmh SE 14.0 mph22.5 kmh 29.23 in989.8 mb 0.00 in0.0 mm 0.00 in0.0 mm 0.00 in0.0 mm
07:37 AM 54.3°F12.4°C 51.1°F10.6°C 89% 9.5 mph SE15.3 kmh SE 14.0 mph22.5 kmh 29.23 in989.8 mb 0.00 in0.0 mm 0.00 in0.0 mm 0.00 in0.0 mm
07:38 AM 54.4°F12.4°C 51.2°F10.7°C 89% 9.7 mph SE15.6 kmh SE 17.0 mph27.4 kmh 29.23 in989.8 mb 0.00 in0.0 mm 0.00 in0.0 mm 0.00 in0.0 mm
07:39 AM 54.3°F12.4°C 50.8°F10.4°C 88% 15.4 mph SE24.8 kmh SE 20.0 mph32.2 kmh 29.22 in989.5 mb 0.00 in0.0 mm 0.00 in0.0 mm 0.00 in0.0 mm
07:40 AM 54.3°F12.4°C 51.1°F10.6°C 89% 14.5 mph SE23.3 kmh SE 20.0 mph32.2 kmh 29.23 in989.8 mb 0.00 in0.0 mm 0.00 in0.0 mm 0.00 in0.0 mm
07:41 AM 54.3°F12.4°C 51.1°F10.6°C 89% 8.6 mph SE13.8 kmh SE 18.0 mph29.0 kmh 29.22 in989.5 mb 0.00 in0.0 mm 0.00 in0.0 mm 0.00 in0.0 mm
07:42 AM 54.3°F12.4°C 51.1°F10.6°C 89% 9.7 mph SE15.6 kmh SE 13.0 mph20.9 kmh 29.22 in989.5 mb 0.00 in0.0 mm 0.00 in0.0 mm 0.00 in0.0 mm
07:43 AM 54.3°F12.4°C 51.1°F10.6°C 89% 9.5 mph SE15.3 kmh SE 13.0 mph20.9 kmh 29.22 in989.5 mb 0.00 in0.0 mm 0.00 in0.0 mm 0.00 in0.0 mm
07:44 AM 54.3°F12.4°C 51.1°F10.6°C 89% 12.7 mph SE20.4 kmh SE 16.0 mph25.7 kmh 29.22 in989.5 mb 0.00 in0.0 mm 0.00 in0.0 mm 0.00 in0.0 mm
07:45 AM 54.3°F12.4°C 50.8°F10.4°C 88% 10.9 mph SE17.5 kmh SE 16.0 mph25.7 kmh 29.22 in989.5 mb 0.00 in0.0 mm 0.00 in0.0 mm 0.00 in0.0 mm
07:46 AM 54.4°F12.4°C 51.2°F10.7°C 89% 10.2 mph SE16.4 kmh SE 14.0 mph22.5 kmh 29.22 in989.5 mb 0.00 in0.0 mm 0.00 in0.0 mm 0.00 in0.0 mm
07:47 AM 54.3°F12.4°C 51.1°F10.6°C 89% 11.1 mph SE17.9 kmh SE 14.0 mph22.5 kmh 29.22 in989.5 mb 0.00 in0.0 mm 0.00 in0.0 mm 0.00 in0.0 mm
07:48 AM 54.4°F12.4°C 51.2°F10.7°C 89% 11.7 mph SE18.8 kmh SE 18.0 mph29.0 kmh 29.22 in989.5 mb 0.00 in0.0 mm 0.00 in0.0 mm 0.00 in0.0 mm
07:49 AM 54.4°F12.4°C 51.2°F10.7°C 89% 7.9 mph SE12.7 kmh SE 18.0 mph29.0 kmh 29.22 in989.5 mb 0.00 in0.0 mm 0.00 in0.0 mm 0.00 in0.0 mm
07:50 AM 54.4°F12.4°C 51.2°F10.7°C 89% 12.5 mph SE20.1 kmh SE 17.0 mph27.4 kmh 29.22 in989.5 mb 0.00 in0.0 mm 0.00 in0.0 mm 0.00 in0.0 mm
07:51 AM 54.3°F12.4°C 51.1°F10.6°C 89% 12.9 mph SE20.8 kmh SE 18.0 mph29.0 kmh 29.21 in989.2 mb 0.00 in0.0 mm 0.00 in0.0 mm 0.00 in0.0 mm
07:52 AM 54.3°F12.4°C 51.1°F10.6°C 89% 9.5 mph SE15.3 kmh SE 18.0 mph29.0 kmh 29.21 in989.2 mb 0.00 in0.0 mm 0.00 in0.0 mm 0.00 in0.0 mm
07:53 AM 54.3°F12.4°C 51.1°F10.6°C 89% 10.3 mph SE16.6 kmh SE 15.0 mph24.1 kmh 29.21 in989.2 mb 0.00 in0.0 mm 0.00 in0.0 mm 0.00 in0.0 mm
07:54 AM 54.3°F12.4°C 51.1°F10.6°C 89% 12.5 mph SE20.1 kmh SE 15.0 mph24.1 kmh 29.21 in989.2 mb 0.00 in0.0 mm 0.00 in0.0 mm 0.00 in0.0 mm
07:55 AM 54.3°F12.4°C 51.1°F10.6°C 89% 11.4 mph SE18.3 kmh SE 18.0 mph29.0 kmh 29.21 in989.2 mb 0.00 in0.0 mm 0.00 in0.0 mm 0.00 in0.0 mm
07:56 AM 54.2°F12.3°C 51.0°F10.6°C 89% 13.3 mph SE21.4 kmh SE 18.0 mph29.0 kmh 29.21 in989.2 mb 0.00 in0.0 mm 0.00 in0.0 mm 0.00 in0.0 mm
07:57 AM 54.2°F12.3°C 51.0°F10.6°C 89% 8.8 mph SE14.2 kmh SE 16.0 mph25.7 kmh 29.21 in989.2 mb 0.00 in0.0 mm 0.00 in0.0 mm 0.00 in0.0 mm
07:58 AM 54.2°F12.3°C 51.0°F10.6°C 89% 9.4 mph SE15.1 kmh SE 18.0 mph29.0 kmh 29.21 in989.2 mb 0.00 in0.0 mm 0.00 in0.0 mm 0.00 in0.0 mm
07:59 AM 54.2°F12.3°C 51.0°F10.6°C 89% 10.5 mph SE16.9 kmh SE 18.0 mph29.0 kmh 29.21 in989.2 mb 0.00 in0.0 mm 0.00 in0.0 mm 0.00 in0.0 mm
08:00 AM 54.2°F12.3°C 51.0°F10.6°C 89% 12.4 mph SE20.0 kmh SE 18.0 mph29.0 kmh 29.21 in989.2 mb 0.00 in0.0 mm 0.00 in0.0 mm 0.00 in0.0 mm
08:01 AM 54.2°F12.3°C 51.0°F10.6°C 89% 11.3 mph SE18.2 kmh SE 18.0 mph29.0 kmh 29.21 in989.2 mb 0.00 in0.0 mm 0.00 in0.0 mm 0.00 in0.0 mm
08:02 AM 54.2°F12.3°C 51.3°F10.7°C 90% 9.7 mph SE15.6 kmh SE 18.0 mph29.0 kmh 29.21 in989.2 mb 0.00 in0.0 mm 0.00 in0.0 mm 0.00 in0.0 mm
08:03 AM 54.2°F12.3°C 51.3°F10.7°C 90% 10.0 mph SE16.1 kmh SE 16.0 mph25.7 kmh 29.21 in989.2 mb 0.00 in0.0 mm 0.00 in0.0 mm 0.00 in0.0 mm
08:04 AM 54.2°F12.3°C 51.3°F10.7°C 90% 11.8 mph SE19.0 kmh SE 16.0 mph25.7 kmh 29.21 in989.2 mb 0.00 in0.0 mm 0.00 in0.0 mm 0.00 in0.0 mm
08:05 AM 54.2°F12.3°C 51.3°F10.7°C 90% 12.2 mph SE19.6 kmh SE 17.0 mph27.4 kmh 29.21 in989.2 mb 0.00 in0.0 mm 0.00 in0.0 mm 0.00 in0.0 mm
08:06 AM 54.3°F12.4°C 51.4°F10.8°C 90% 12.4 mph SE20.0 kmh SE 17.0 mph27.4 kmh 29.20 in988.8 mb 0.00 in0.0 mm 0.00 in0.0 mm 0.00 in0.0 mm
08:07 AM 54.2°F12.3°C 51.0°F10.6°C 89% 12.3 mph SE19.8 kmh SE 17.0 mph27.4 kmh 29.20 in988.8 mb 0.00 in0.0 mm 0.00 in0.0 mm 0.00 in0.0 mm
08:08 AM 54.2°F12.3°C 51.0°F10.6°C 89% 10.9 mph SE17.5 kmh SE 16.0 mph25.7 kmh 29.20 in988.8 mb 0.00 in0.0 mm 0.00 in0.0 mm 0.00 in0.0 mm
08:09 AM 54.2°F12.3°C 51.0°F10.6°C 89% 9.1 mph SE14.6 kmh SE 15.0 mph24.1 kmh 29.20 in988.8 mb 0.00 in0.0 mm 0.00 in0.0 mm 0.00 in0.0 mm
08:10 AM 54.2°F12.3°C 51.3°F10.7°C 90% 10.9 mph SE17.5 kmh SE 16.0 mph25.7 kmh 29.20 in988.8 mb 0.00 in0.0 mm 0.00 in0.0 mm 0.00 in0.0 mm
08:11 AM 54.2°F12.3°C 51.0°F10.6°C 89% 13.0 mph SE20.9 kmh SE 18.0 mph29.0 kmh 29.20 in988.8 mb 0.00 in0.0 mm 0.00 in0.0 mm 0.00 in0.0 mm
08:12 AM 54.2°F12.3°C 51.0°F10.6°C 89% 11.9 mph SE19.2 kmh SE 18.0 mph29.0 kmh 29.20 in988.8 mb 0.00 in0.0 mm 0.00 in0.0 mm 0.00 in0.0 mm
08:13 AM 54.2°F12.3°C 51.0°F10.6°C 89% 12.6 mph SE20.3 kmh SE 16.0 mph25.7 kmh 29.20 in988.8 mb 0.00 in0.0 mm 0.00 in0.0 mm 0.00 in0.0 mm
08:14 AM 54.2°F12.3°C 51.0°F10.6°C 89% 11.3 mph SE18.2 kmh SE 16.0 mph25.7 kmh 29.20 in988.8 mb 0.00 in0.0 mm 0.00 in0.0 mm 0.00 in0.0 mm
08:15 AM 54.2°F12.3°C 51.0°F10.6°C 89% 13.5 mph SE21.7 kmh SE 17.0 mph27.4 kmh 29.20 in988.8 mb 0.00 in0.0 mm 0.00 in0.0 mm 0.00 in0.0 mm
08:16 AM 54.3°F12.4°C 51.1°F10.6°C 89% 11.4 mph SE18.3 kmh SE 17.0 mph27.4 kmh 29.20 in988.8 mb 0.00 in0.0 mm 0.00 in0.0 mm 0.00 in0.0 mm
08:17 AM 54.3°F12.4°C 51.1°F10.6°C 89% 12.0 mph SE19.3 kmh SE 16.0 mph25.7 kmh 29.20 in988.8 mb 0.00 in0.0 mm 0.00 in0.0 mm 0.00 in0.0 mm
08:18 AM 54.4°F12.4°C 51.2°F10.7°C 89% 12.2 mph SE19.6 kmh SE 18.0 mph29.0 kmh 29.20 in988.8 mb 0.00 in0.0 mm 0.00 in0.0 mm 0.00 in0.0 mm
08:19 AM 54.4°F12.4°C 51.2°F10.7°C 89% 8.9 mph SE14.3 kmh SE 18.0 mph29.0 kmh 29.20 in988.8 mb 0.00 in0.0 mm 0.00 in0.0 mm 0.00 in0.0 mm
08:20 AM 54.4°F12.4°C 51.2°F10.7°C 89% 13.2 mph SE21.2 kmh SE 18.0 mph29.0 kmh 29.20 in988.8 mb 0.00 in0.0 mm 0.00 in0.0 mm 0.00 in0.0 mm
08:21 AM 54.5°F12.5°C 51.3°F10.7°C 89% 13.9 mph SE22.4 kmh SE 19.0 mph30.6 kmh 29.20 in988.8 mb 0.00 in0.0 mm 0.00 in0.0 mm 0.00 in0.0 mm
08:22 AM 54.6°F12.6°C 51.4°F10.8°C 89% 11.2 mph SE18.0 kmh SE 19.0 mph30.6 kmh 29.19 in988.5 mb 0.00 in0.0 mm 0.00 in0.0 mm 0.00 in0.0 mm
08:23 AM 54.6°F12.6°C 51.4°F10.8°C 89% 11.0 mph SE17.7 kmh SE 17.0 mph27.4 kmh 29.20 in988.8 mb 0.00 in0.0 mm 0.00 in0.0 mm 0.00 in0.0 mm
08:24 AM 54.7°F12.6°C 51.5°F10.8°C 89% 12.9 mph SE20.8 kmh SE 17.0 mph27.4 kmh 29.19 in988.5 mb 0.00 in0.0 mm 0.00 in0.0 mm 0.00 in0.0 mm
08:25 AM 54.8°F12.7°C 51.6°F10.9°C 89% 9.9 mph SE15.9 kmh SE 17.0 mph27.4 kmh 29.19 in988.5 mb 0.00 in0.0 mm 0.00 in0.0 mm 0.00 in0.0 mm
08:26 AM 54.9°F12.7°C 51.4°F10.8°C 88% 11.6 mph SE18.7 kmh SE 16.0 mph25.7 kmh 29.19 in988.5 mb 0.00 in0.0 mm 0.00 in0.0 mm 0.00 in0.0 mm
08:27 AM 55.0°F12.8°C 51.8°F11.0°C 89% 10.2 mph SE16.4 kmh SE 17.0 mph27.4 kmh 29.19 in988.5 mb 0.00 in0.0 mm 0.00 in0.0 mm 0.00 in0.0 mm
08:28 AM 55.0°F12.8°C 51.5°F10.8°C 88% 11.0 mph SE17.7 kmh SE 17.0 mph27.4 kmh 29.19 in988.5 mb 0.00 in0.0 mm 0.00 in0.0 mm 0.00 in0.0 mm
08:29 AM 55.1°F12.8°C 51.6°F10.9°C 88% 10.0 mph SE16.1 kmh SE 16.0 mph25.7 kmh 29.19 in988.5 mb 0.00 in0.0 mm 0.00 in0.0 mm 0.00 in0.0 mm
08:30 AM 55.1°F12.8°C 51.6°F10.9°C 88% 12.7 mph SSE20.4 kmh SSE 18.0 mph29.0 kmh 29.19 in988.5 mb 0.00 in0.0 mm 0.00 in0.0 mm 0.00 in0.0 mm
08:31 AM 55.1°F12.8°C 51.6°F10.9°C 88% 13.0 mph SE20.9 kmh SE 18.0 mph29.0 kmh 29.19 in988.5 mb 0.00 in0.0 mm 0.00 in0.0 mm 0.00 in0.0 mm
08:32 AM 55.1°F12.8°C 51.3°F10.7°C 87% 15.3 mph SSE24.6 kmh SSE 22.0 mph35.4 kmh 29.19 in988.5 mb 0.00 in0.0 mm 0.00 in0.0 mm 0.00 in0.0 mm
08:33 AM 55.1°F12.8°C 51.3°F10.7°C 87% 14.5 mph SE23.3 kmh SE 22.0 mph35.4 kmh 29.19 in988.5 mb 0.00 in0.0 mm 0.00 in0.0 mm 0.00 in0.0 mm
08:34 AM 55.1°F12.8°C 51.3°F10.7°C 87% 17.3 mph SE27.8 kmh SE 21.0 mph33.8 kmh 29.19 in988.5 mb 0.00 in0.0 mm 0.00 in0.0 mm 0.00 in0.0 mm
08:35 AM 55.1°F12.8°C 51.3°F10.7°C 87% 11.7 mph SSE18.8 kmh SSE 21.0 mph33.8 kmh 29.19 in988.5 mb 0.00 in0.0 mm 0.00 in0.0 mm 0.00 in0.0 mm
08:36 AM 55.0°F12.8°C 51.2°F10.7°C 87% 11.5 mph SE18.5 kmh SE 22.0 mph35.4 kmh 29.19 in988.5 mb 0.00 in0.0 mm 0.00 in0.0 mm 0.00 in0.0 mm
08:37 AM 55.0°F12.8°C 51.2°F10.7°C 87% 11.9 mph SE19.2 kmh SE 22.0 mph35.4 kmh 29.19 in988.5 mb 0.00 in0.0 mm 0.00 in0.0 mm 0.00 in0.0 mm
08:38 AM 55.0°F12.8°C 51.2°F10.7°C 87% 11.8 mph SE19.0 kmh SE 18.0 mph29.0 kmh 29.19 in988.5 mb 0.00 in0.0 mm 0.00 in0.0 mm 0.00 in0.0 mm
08:39 AM 55.0°F12.8°C 51.2°F10.7°C 87% 12.8 mph SE20.6 kmh SE 18.0 mph29.0 kmh 29.19 in988.5 mb 0.00 in0.0 mm 0.00 in0.0 mm 0.00 in0.0 mm
08:40 AM 55.0°F12.8°C 51.2°F10.7°C 87% 11.4 mph SE18.3 kmh SE 18.0 mph29.0 kmh 29.19 in988.5 mb 0.00 in0.0 mm 0.00 in0.0 mm 0.00 in0.0 mm
08:41 AM 55.0°F12.8°C 51.2°F10.7°C 87% 12.0 mph SE19.3 kmh SE 18.0 mph29.0 kmh 29.19 in988.5 mb 0.00 in0.0 mm 0.00 in0.0 mm 0.00 in0.0 mm
08:42 AM 55.0°F12.8°C 51.2°F10.7°C 87% 9.3 mph SE15.0 kmh SE 17.0 mph27.4 kmh 29.19 in988.5 mb 0.00 in0.0 mm 0.00 in0.0 mm 0.00 in0.0 mm
08:43 AM 55.0°F12.8°C 51.2°F10.7°C 87% 16.6 mph SE26.7 kmh SE 22.0 mph35.4 kmh 29.18 in988.1 mb 0.00 in0.0 mm 0.00 in0.0 mm 0.00 in0.0 mm
08:44 AM 55.0°F12.8°C 50.9°F10.5°C 86% 14.5 mph SE23.3 kmh SE 22.0 mph35.4 kmh 29.18 in988.1 mb 0.00 in0.0 mm 0.00 in0.0 mm 0.00 in0.0 mm
08:45 AM 55.0°F12.8°C 50.9°F10.5°C 86% 15.6 mph SE25.1 kmh SE 21.0 mph33.8 kmh 29.18 in988.1 mb 0.00 in0.0 mm 0.00 in0.0 mm 0.00 in0.0 mm
08:46 AM 55.0°F12.8°C 50.9°F10.5°C 86% 12.2 mph SE19.6 kmh SE 21.0 mph33.8 kmh 29.18 in988.1 mb 0.00 in0.0 mm 0.00 in0.0 mm 0.00 in0.0 mm
08:47 AM 55.1°F12.8°C 51.0°F10.6°C 86% 10.6 mph SSE17.1 kmh SSE 17.0 mph27.4 kmh 29.18 in988.1 mb 0.00 in0.0 mm 0.00 in0.0 mm 0.00 in0.0 mm
08:48 AM 55.1°F12.8°C 51.0°F10.6°C 86% 11.6 mph SE18.7 kmh SE 20.0 mph32.2 kmh 29.18 in988.1 mb 0.00 in0.0 mm 0.00 in0.0 mm 0.00 in0.0 mm
08:49 AM 55.1°F12.8°C 51.0°F10.6°C 86% 13.5 mph SE21.7 kmh SE 20.0 mph32.2 kmh 29.18 in988.1 mb 0.00 in0.0 mm 0.00 in0.0 mm 0.00 in0.0 mm
08:50 AM 55.1°F12.8°C 51.0°F10.6°C 86% 11.8 mph SE19.0 kmh SE 17.0 mph27.4 kmh 29.18 in988.1 mb 0.00 in0.0 mm 0.00 in0.0 mm 0.00 in0.0 mm
08:51 AM 55.1°F12.8°C 51.0°F10.6°C 86% 12.2 mph SE19.6 kmh SE 17.0 mph27.4 kmh 29.18 in988.1 mb 0.00 in0.0 mm 0.00 in0.0 mm 0.00 in0.0 mm
08:52 AM 55.1°F12.8°C 51.0°F10.6°C 86% 12.7 mph SE20.4 kmh SE 20.0 mph32.2 kmh 29.18 in988.1 mb 0.00 in0.0 mm 0.00 in0.0 mm 0.00 in0.0 mm
08:53 AM 55.1°F12.8°C 51.0°F10.6°C 86% 12.0 mph SE19.3 kmh SE 20.0 mph32.2 kmh 29.18 in988.1 mb 0.00 in0.0 mm 0.00 in0.0 mm 0.00 in0.0 mm
08:54 AM 55.1°F12.8°C 51.0°F10.6°C 86% 10.8 mph SE17.4 kmh SE 16.0 mph25.7 kmh 29.18 in988.1 mb 0.00 in0.0 mm 0.00 in0.0 mm 0.00 in0.0 mm
08:55 AM 55.1°F12.8°C 51.0°F10.6°C 86% 12.9 mph SE20.8 kmh SE 18.0 mph29.0 kmh 29.18 in988.1 mb 0.00 in0.0 mm 0.00 in0.0 mm 0.00 in0.0 mm
08:56 AM 55.1°F12.8°C 51.0°F10.6°C 86% 15.8 mph SE25.4 kmh SE 21.0 mph33.8 kmh 29.18 in988.1 mb 0.00 in0.0 mm 0.00 in0.0 mm 0.00 in0.0 mm
08:57 AM 55.2°F12.9°C 50.8°F10.4°C 85% 12.8 mph SE20.6 kmh SE 21.0 mph33.8 kmh 29.18 in988.1 mb 0.00 in0.0 mm 0.00 in0.0 mm 0.00 in0.0 mm
08:58 AM 55.2°F12.9°C 51.1°F10.6°C 86% 10.9 mph SE17.5 kmh SE 17.0 mph27.4 kmh 29.18 in988.1 mb 0.00 in0.0 mm 0.00 in0.0 mm 0.00 in0.0 mm
08:59 AM 55.2°F12.9°C 51.1°F10.6°C 86% 14.0 mph SE22.5 kmh SE 19.0 mph30.6 kmh 29.18 in988.1 mb 0.00 in0.0 mm 0.00 in0.0 mm 0.00 in0.0 mm
09:00 AM 55.2°F12.9°C 51.1°F10.6°C 86% 14.5 mph SE23.3 kmh SE 20.0 mph32.2 kmh 29.17 in987.8 mb 0.00 in0.0 mm 0.00 in0.0 mm 0.00 in0.0 mm
09:01 AM 55.2°F12.9°C 51.1°F10.6°C 86% 12.7 mph SE20.4 kmh SE 20.0 mph32.2 kmh 29.18 in988.1 mb 0.00 in0.0 mm 0.00 in0.0 mm 0.00 in0.0 mm
09:02 AM 55.2°F12.9°C 51.1°F10.6°C 86% 11.1 mph SE17.9 kmh SE 15.0 mph24.1 kmh 29.17 in987.8 mb 0.00 in0.0 mm 0.00 in0.0 mm 0.00 in0.0 mm
09:03 AM 55.2°F12.9°C 51.1°F10.6°C 86% 9.4 mph SE15.1 kmh SE 14.0 mph22.5 kmh 29.17 in987.8 mb 0.00 in0.0 mm 0.00 in0.0 mm 0.00 in0.0 mm
09:04 AM 55.3°F12.9°C 50.9°F10.5°C 85% 16.0 mph SE25.7 kmh SE 20.0 mph32.2 kmh 29.17 in987.8 mb 0.00 in0.0 mm 0.00 in0.0 mm 0.00 in0.0 mm
09:05 AM 55.3°F12.9°C 50.9°F10.5°C 85% 12.2 mph SE19.6 kmh SE 20.0 mph32.2 kmh 29.17 in987.8 mb 0.00 in0.0 mm 0.00 in0.0 mm 0.00 in0.0 mm
09:06 AM 55.2°F12.9°C 50.8°F10.4°C 85% 14.7 mph SE23.7 kmh SE 20.0 mph32.2 kmh 29.17 in987.8 mb 0.00 in0.0 mm 0.00 in0.0 mm 0.00 in0.0 mm
09:07 AM 55.3°F12.9°C 50.9°F10.5°C 85% 12.1 mph SE19.5 kmh SE 20.0 mph32.2 kmh 29.17 in987.8 mb 0.00 in0.0 mm 0.00 in0.0 mm 0.00 in0.0 mm
09:08 AM 55.3°F12.9°C 50.9°F10.5°C 85% 14.2 mph SE22.9 kmh SE 20.0 mph32.2 kmh 29.17 in987.8 mb 0.00 in0.0 mm 0.00 in0.0 mm 0.00 in0.0 mm
09:09 AM 55.3°F12.9°C 50.5°F10.3°C 84% 12.8 mph SE20.6 kmh SE 20.0 mph32.2 kmh 29.17 in987.8 mb 0.00 in0.0 mm 0.00 in0.0 mm 0.00 in0.0 mm
09:10 AM 55.3°F12.9°C 50.5°F10.3°C 84% 10.3 mph SE16.6 kmh SE 16.0 mph25.7 kmh 29.17 in987.8 mb 0.00 in0.0 mm 0.00 in0.0 mm 0.00 in0.0 mm
09:11 AM 55.3°F12.9°C 50.5°F10.3°C 84% 11.0 mph SE17.7 kmh SE 15.0 mph24.1 kmh 29.17 in987.8 mb 0.00 in0.0 mm 0.00 in0.0 mm 0.00 in0.0 mm
09:12 AM 55.3°F12.9°C 50.5°F10.3°C 84% 13.5 mph SE21.7 kmh SE 23.0 mph37.0 kmh 29.17 in987.8 mb 0.00 in0.0 mm 0.00 in0.0 mm 0.00 in0.0 mm
09:13 AM 55.4°F13.0°C 50.6°F10.3°C 84% 13.7 mph SE22.0 kmh SE 23.0 mph37.0 kmh 29.17 in987.8 mb 0.00 in0.0 mm 0.00 in0.0 mm 0.00 in0.0 mm
09:14 AM 55.4°F13.0°C 50.6°F10.3°C 84% 11.8 mph SE19.0 kmh SE 20.0 mph32.2 kmh 29.17 in987.8 mb 0.00 in0.0 mm 0.00 in0.0 mm 0.00 in0.0 mm
09:15 AM 55.4°F13.0°C 50.6°F10.3°C 84% 12.6 mph SE20.3 kmh SE 20.0 mph32.2 kmh 29.17 in987.8 mb 0.00 in0.0 mm 0.00 in0.0 mm 0.00 in0.0 mm
09:16 AM 55.4°F13.0°C 50.6°F10.3°C 84% 10.2 mph SE16.4 kmh SE 20.0 mph32.2 kmh 29.17 in987.8 mb 0.00 in0.0 mm 0.00 in0.0 mm 0.00 in0.0 mm
09:17 AM 55.4°F13.0°C 50.6°F10.3°C 84% 9.1 mph SE14.6 kmh SE 14.0 mph22.5 kmh 29.16 in987.5 mb 0.00 in0.0 mm 0.00 in0.0 mm 0.00 in0.0 mm
09:18 AM 55.4°F13.0°C 50.6°F10.3°C 84% 13.9 mph SE22.4 kmh SE 17.0 mph27.4 kmh 29.16 in987.5 mb 0.00 in0.0 mm 0.00 in0.0 mm 0.00 in0.0 mm
09:19 AM 55.4°F13.0°C 50.6°F10.3°C 84% 13.1 mph SE21.1 kmh SE 21.0 mph33.8 kmh 29.16 in987.5 mb 0.00 in0.0 mm 0.00 in0.0 mm 0.00 in0.0 mm
09:20 AM 55.4°F13.0°C 50.6°F10.3°C 84% 10.9 mph SE17.5 kmh SE 21.0 mph33.8 kmh 29.16 in987.5 mb 0.00 in0.0 mm 0.00 in0.0 mm 0.00 in0.0 mm
09:21 AM 55.4°F13.0°C 50.6°F10.3°C 84% 12.1 mph SE19.5 kmh SE 17.0 mph27.4 kmh 29.16 in987.5 mb 0.00 in0.0 mm 0.00 in0.0 mm 0.00 in0.0 mm
09:22 AM 55.4°F13.0°C 50.6°F10.3°C 84% 14.4 mph SE23.2 kmh SE 19.0 mph30.6 kmh 29.16 in987.5 mb 0.00 in0.0 mm 0.00 in0.0 mm 0.00 in0.0 mm
09:23 AM 55.4°F13.0°C 50.6°F10.3°C 84% 13.7 mph SE22.0 kmh SE 19.0 mph30.6 kmh 29.16 in987.5 mb 0.00 in0.0 mm 0.00 in0.0 mm 0.00 in0.0 mm
09:24 AM 55.4°F13.0°C 50.6°F10.3°C 84% 10.7 mph SE17.2 kmh SE 17.0 mph27.4 kmh 29.16 in987.5 mb 0.00 in0.0 mm 0.00 in0.0 mm 0.00 in0.0 mm
09:25 AM 55.4°F13.0°C 50.6°F10.3°C 84% 9.8 mph SE15.8 kmh SE 15.0 mph24.1 kmh 29.16 in987.5 mb 0.00 in0.0 mm 0.00 in0.0 mm 0.00 in0.0 mm
09:26 AM 55.4°F13.0°C 50.6°F10.3°C 84% 12.4 mph SE20.0 kmh SE 18.0 mph29.0 kmh 29.16 in987.5 mb 0.00 in0.0 mm 0.00 in0.0 mm 0.00 in0.0 mm
09:27 AM 55.4°F13.0°C 51.0°F10.6°C 85% 11.9 mph SE19.2 kmh SE 18.0 mph29.0 kmh 29.16 in987.5 mb 0.00 in0.0 mm 0.00 in0.0 mm 0.00 in0.0 mm
09:28 AM 55.4°F13.0°C 51.0°F10.6°C 85% 10.5 mph SE16.9 kmh SE 16.0 mph25.7 kmh 29.16 in987.5 mb 0.00 in0.0 mm 0.00 in0.0 mm 0.00 in0.0 mm
09:29 AM 55.4°F13.0°C 50.6°F10.3°C 84% 14.5 mph SE23.3 kmh SE 20.0 mph32.2 kmh 29.16 in987.5 mb 0.00 in0.0 mm 0.00 in0.0 mm 0.00 in0.0 mm
09:30 AM 55.4°F13.0°C 50.6°F10.3°C 84% 10.7 mph SE17.2 kmh SE 20.0 mph32.2 kmh 29.16 in987.5 mb 0.00 in0.0 mm 0.00 in0.0 mm 0.00 in0.0 mm
09:31 AM 55.4°F13.0°C 50.6°F10.3°C 84% 12.1 mph SE19.5 kmh SE 17.0 mph27.4 kmh 29.16 in987.5 mb 0.00 in0.0 mm 0.00 in0.0 mm 0.00 in0.0 mm
09:32 AM 55.3°F12.9°C 50.5°F10.3°C 84% 16.0 mph SE25.7 kmh SE 22.0 mph35.4 kmh 29.16 in987.5 mb 0.00 in0.0 mm 0.00 in0.0 mm 0.00 in0.0 mm
09:33 AM 55.4°F13.0°C 50.6°F10.3°C 84% 11.8 mph SE19.0 kmh SE 22.0 mph35.4 kmh 29.16 in987.5 mb 0.00 in0.0 mm 0.00 in0.0 mm 0.00 in0.0 mm
09:34 AM 55.4°F13.0°C 50.6°F10.3°C 84% 13.4 mph SE21.6 kmh SE 16.0 mph25.7 kmh 29.16 in987.5 mb 0.00 in0.0 mm 0.00 in0.0 mm 0.00 in0.0 mm
09:35 AM 55.4°F13.0°C 50.6°F10.3°C 84% 11.3 mph SE18.2 kmh SE 15.0 mph24.1 kmh 29.16 in987.5 mb 0.00 in0.0 mm 0.00 in0.0 mm 0.00 in0.0 mm
09:36 AM 55.4°F13.0°C 50.6°F10.3°C 84% 12.4 mph SE20.0 kmh SE 15.0 mph24.1 kmh 29.15 in987.1 mb 0.00 in0.0 mm 0.00 in0.0 mm 0.00 in0.0 mm
09:37 AM 55.4°F13.0°C 50.6°F10.3°C 84% 9.6 mph SE15.4 kmh SE 15.0 mph24.1 kmh 29.15 in987.1 mb 0.00 in0.0 mm 0.00 in0.0 mm 0.00 in0.0 mm
09:38 AM 55.4°F13.0°C 50.6°F10.3°C 84% 13.1 mph SE21.1 kmh SE 18.0 mph29.0 kmh 29.15 in987.1 mb 0.00 in0.0 mm 0.00 in0.0 mm 0.00 in0.0 mm
09:39 AM 55.4°F13.0°C 50.6°F10.3°C 84% 11.0 mph SE17.7 kmh SE 18.0 mph29.0 kmh 29.15 in987.1 mb 0.00 in0.0 mm 0.00 in0.0 mm 0.00 in0.0 mm
09:40 AM 55.4°F13.0°C 50.6°F10.3°C 84% 12.3 mph SE19.8 kmh SE 18.0 mph29.0 kmh 29.15 in987.1 mb 0.00 in0.0 mm 0.00 in0.0 mm 0.00 in0.0 mm
09:41 AM 55.4°F13.0°C 50.6°F10.3°C 84% 12.2 mph SE19.6 kmh SE 18.0 mph29.0 kmh 29.15 in987.1 mb 0.00 in0.0 mm 0.00 in0.0 mm 0.00 in0.0 mm
09:42 AM 55.5°F13.1°C 50.7°F10.4°C 84% 13.6 mph SE21.9 kmh SE 20.0 mph32.2 kmh 29.15 in987.1 mb 0.00 in0.0 mm 0.00 in0.0 mm 0.00 in0.0 mm
09:43 AM 55.4°F13.0°C 50.6°F10.3°C 84% 13.7 mph SE22.0 kmh SE 20.0 mph32.2 kmh 29.15 in987.1 mb 0.00 in0.0 mm 0.00 in0.0 mm 0.00 in0.0 mm
09:44 AM 55.4°F13.0°C 50.3°F10.2°C 83% 15.0 mph SE24.1 kmh SE 20.0 mph32.2 kmh 29.15 in987.1 mb 0.00 in0.0 mm 0.00 in0.0 mm 0.00 in0.0 mm
09:45 AM 55.5°F13.1°C 50.7°F10.4°C 84% 10.0 mph SE16.1 kmh SE 20.0 mph32.2 kmh 29.15 in987.1 mb 0.00 in0.0 mm 0.00 in0.0 mm 0.00 in0.0 mm
09:46 AM 55.4°F13.0°C 50.6°F10.3°C 84% 12.7 mph SE20.4 kmh SE 17.0 mph27.4 kmh 29.15 in987.1 mb 0.00 in0.0 mm 0.00 in0.0 mm 0.00 in0.0 mm
09:47 AM 55.4°F13.0°C 50.6°F10.3°C 84% 11.7 mph SE18.8 kmh SE 17.0 mph27.4 kmh 29.15 in987.1 mb 0.00 in0.0 mm 0.00 in0.0 mm 0.00 in0.0 mm
09:48 AM 55.4°F13.0°C 50.6°F10.3°C 84% 13.6 mph SE21.9 kmh SE 18.0 mph29.0 kmh 29.15 in987.1 mb 0.00 in0.0 mm 0.00 in0.0 mm 0.00 in0.0 mm
09:49 AM 55.4°F13.0°C 50.6°F10.3°C 84% 11.9 mph SE19.2 kmh SE 18.0 mph29.0 kmh 29.14 in986.8 mb 0.00 in0.0 mm 0.00 in0.0 mm 0.00 in0.0 mm
09:50 AM 55.4°F13.0°C 51.0°F10.6°C 85% 9.0 mph SE14.5 kmh SE 16.0 mph25.7 kmh 29.14 in986.8 mb 0.00 in0.0 mm 0.00 in0.0 mm 0.00 in0.0 mm
09:51 AM 55.4°F13.0°C 51.0°F10.6°C 85% 12.1 mph SE19.5 kmh SE 18.0 mph29.0 kmh 29.14 in986.8 mb 0.00 in0.0 mm 0.00 in0.0 mm 0.00 in0.0 mm
09:52 AM 55.4°F13.0°C 50.6°F10.3°C 84% 12.0 mph SE19.3 kmh SE 18.0 mph29.0 kmh 29.14 in986.8 mb 0.00 in0.0 mm 0.00 in0.0 mm 0.00 in0.0 mm
09:53 AM 55.4°F13.0°C 51.0°F10.6°C 85% 14.3 mph ESE23.0 kmh ESE 19.0 mph30.6 kmh 29.14 in986.8 mb 0.00 in0.0 mm 0.00 in0.0 mm 0.00 in0.0 mm
09:54 AM 55.4°F13.0°C 50.6°F10.3°C 84% 14.3 mph SE23.0 kmh SE 19.0 mph30.6 kmh 29.14 in986.8 mb 0.00 in0.0 mm 0.00 in0.0 mm 0.00 in0.0 mm
09:55 AM 55.4°F13.0°C 50.6°F10.3°C 84% 14.0 mph SE22.5 kmh SE 18.0 mph29.0 kmh 29.14 in986.8 mb 0.00 in0.0 mm 0.00 in0.0 mm 0.00 in0.0 mm
09:56 AM 55.4°F13.0°C 51.0°F10.6°C 85% 11.7 mph SE18.8 kmh SE 17.0 mph27.4 kmh 29.14 in986.8 mb 0.00 in0.0 mm 0.00 in0.0 mm 0.00 in0.0 mm
09:57 AM 55.3°F12.9°C 50.5°F10.3°C 84% 12.6 mph SE20.3 kmh SE 20.0 mph32.2 kmh 29.14 in986.8 mb 0.00 in0.0 mm 0.00 in0.0 mm 0.00 in0.0 mm
09:58 AM 55.4°F13.0°C 50.6°F10.3°C 84% 15.3 mph SE24.6 kmh SE 21.0 mph33.8 kmh 29.14 in986.8 mb 0.00 in0.0 mm 0.00 in0.0 mm 0.00 in0.0 mm
09:59 AM 55.3°F12.9°C 50.5°F10.3°C 84% 10.2 mph SE16.4 kmh SE 21.0 mph33.8 kmh 29.14 in986.8 mb 0.00 in0.0 mm 0.00 in0.0 mm 0.00 in0.0 mm
10:00 AM 55.3°F12.9°C 50.9°F10.5°C 85% 9.7 mph SE15.6 kmh SE 16.0 mph25.7 kmh 29.14 in986.8 mb 0.00 in0.0 mm 0.00 in0.0 mm 0.00 in0.0 mm
10:01 AM 55.4°F13.0°C 51.0°F10.6°C 85% 12.9 mph SE20.8 kmh SE 16.0 mph25.7 kmh 29.14 in986.8 mb 0.00 in0.0 mm 0.00 in0.0 mm 0.00 in0.0 mm
10:02 AM 55.4°F13.0°C 50.6°F10.3°C 84% 15.9 mph SE25.6 kmh SE 21.0 mph33.8 kmh 29.14 in986.8 mb 0.00 in0.0 mm 0.00 in0.0 mm 0.00 in0.0 mm
10:03 AM 55.4°F13.0°C 50.6°F10.3°C 84% 11.5 mph SE18.5 kmh SE 21.0 mph33.8 kmh 29.14 in986.8 mb 0.00 in0.0 mm 0.00 in0.0 mm 0.00 in0.0 mm
10:04 AM 55.4°F13.0°C 51.0°F10.6°C 85% 9.3 mph SE15.0 kmh SE 16.0 mph25.7 kmh 29.14 in986.8 mb 0.00 in0.0 mm 0.00 in0.0 mm 0.00 in0.0 mm
10:05 AM 55.4°F13.0°C 50.6°F10.3°C 84% 12.1 mph SE19.5 kmh SE 16.0 mph25.7 kmh 29.14 in986.8 mb 0.00 in0.0 mm 0.00 in0.0 mm 0.00 in0.0 mm
10:06 AM 55.4°F13.0°C 50.6°F10.3°C 84% 9.7 mph SE15.6 kmh SE 16.0 mph25.7 kmh 29.13 in986.5 mb 0.00 in0.0 mm 0.00 in0.0 mm 0.00 in0.0 mm
10:07 AM 55.4°F13.0°C 50.6°F10.3°C 84% 11.6 mph SE18.7 kmh SE 20.0 mph32.2 kmh 29.13 in986.5 mb 0.00 in0.0 mm 0.00 in0.0 mm 0.00 in0.0 mm
10:08 AM 55.4°F13.0°C 50.6°F10.3°C 84% 14.9 mph SE24.0 kmh SE 20.0 mph32.2 kmh 29.14 in986.8 mb 0.00 in0.0 mm 0.00 in0.0 mm 0.00 in0.0 mm
10:09 AM 55.3°F12.9°C 50.5°F10.3°C 84% 12.9 mph SE20.8 kmh SE 19.0 mph30.6 kmh 29.13 in986.5 mb 0.00 in0.0 mm 0.00 in0.0 mm 0.00 in0.0 mm
10:10 AM 55.3°F12.9°C 50.5°F10.3°C 84% 13.3 mph SE21.4 kmh SE 18.0 mph29.0 kmh 29.13 in986.5 mb 0.00 in0.0 mm 0.00 in0.0 mm 0.00 in0.0 mm
10:11 AM 55.3°F12.9°C 50.9°F10.5°C 85% 13.2 mph SE21.2 kmh SE 19.0 mph30.6 kmh 29.13 in986.5 mb 0.00 in0.0 mm 0.00 in0.0 mm 0.00 in0.0 mm
10:12 AM 55.3°F12.9°C 50.5°F10.3°C 84% 14.6 mph SE23.5 kmh SE 21.0 mph33.8 kmh 29.13 in986.5 mb 0.00 in0.0 mm 0.00 in0.0 mm 0.00 in0.0 mm
10:13 AM 55.3°F12.9°C 50.5°F10.3°C 84% 13.8 mph SE22.2 kmh SE 21.0 mph33.8 kmh 29.13 in986.5 mb 0.00 in0.0 mm 0.00 in0.0 mm 0.00 in0.0 mm
10:14 AM 55.3°F12.9°C 50.2°F10.1°C 83% 15.0 mph SE24.1 kmh SE 19.0 mph30.6 kmh 29.13 in986.5 mb 0.00 in0.0 mm 0.00 in0.0 mm 0.00 in0.0 mm
10:15 AM 55.3°F12.9°C 50.2°F10.1°C 83% 13.9 mph SE22.4 kmh SE 19.0 mph30.6 kmh 29.13 in986.5 mb 0.00 in0.0 mm 0.00 in0.0 mm 0.00 in0.0 mm
10:16 AM 55.3°F12.9°C 50.2°F10.1°C 83% 13.2 mph SE21.2 kmh SE 19.0 mph30.6 kmh 29.13 in986.5 mb 0.00 in0.0 mm 0.00 in0.0 mm 0.00 in0.0 mm
10:17 AM 55.3°F12.9°C 50.5°F10.3°C 84% 11.7 mph SE18.8 kmh SE 19.0 mph30.6 kmh 29.13 in986.5 mb 0.00 in0.0 mm 0.00 in0.0 mm 0.00 in0.0 mm
10:18 AM 55.3°F12.9°C 50.5°F10.3°C 84% 12.3 mph SE19.8 kmh SE 19.0 mph30.6 kmh 29.12 in986.1 mb 0.00 in0.0 mm 0.00 in0.0 mm 0.00 in0.0 mm
10:19 AM 55.3°F12.9°C 50.5°F10.3°C 84% 11.0 mph SE17.7 kmh SE 15.0 mph24.1 kmh 29.12 in986.1 mb 0.00 in0.0 mm 0.00 in0.0 mm 0.00 in0.0 mm
10:20 AM 55.3°F12.9°C 50.9°F10.5°C 85% 10.3 mph SE16.6 kmh SE 14.0 mph22.5 kmh 29.12 in986.1 mb 0.00 in0.0 mm 0.00 in0.0 mm 0.00 in0.0 mm
10:21 AM 55.2°F12.9°C 50.8°F10.4°C 85% 11.6 mph SE18.7 kmh SE 15.0 mph24.1 kmh 29.12 in986.1 mb 0.00 in0.0 mm 0.00 in0.0 mm 0.00 in0.0 mm
10:22 AM 55.2°F12.9°C 50.4°F10.2°C 84% 12.1 mph SE19.5 kmh SE 15.0 mph24.1 kmh 29.12 in986.1 mb 0.00 in0.0 mm 0.00 in0.0 mm 0.00 in0.0 mm
10:23 AM 55.1°F12.8°C 50.4°F10.2°C 84% 10.7 mph SE17.2 kmh SE 15.0 mph24.1 kmh 29.12 in986.1 mb 0.00 in0.0 mm 0.00 in0.0 mm 0.00 in0.0 mm
10:24 AM 55.1°F12.8°C 50.4°F10.2°C 84% 11.9 mph SE19.2 kmh SE 15.0 mph24.1 kmh 29.12 in986.1 mb 0.00 in0.0 mm 0.00 in0.0 mm 0.00 in0.0 mm
10:25 AM 55.1°F12.8°C 50.7°F10.4°C 85% 11.4 mph SE18.3 kmh SE 17.0 mph27.4 kmh 29.12 in986.1 mb 0.00 in0.0 mm 0.00 in0.0 mm 0.00 in0.0 mm
10:26 AM 55.0°F12.8°C 50.6°F10.3°C 85% 11.3 mph SE18.2 kmh SE 17.0 mph27.4 kmh 29.12 in986.1 mb 0.00 in0.0 mm 0.00 in0.0 mm 0.00 in0.0 mm
10:27 AM 55.0°F12.8°C 50.6°F10.3°C 85% 12.7 mph SE20.4 kmh SE 17.0 mph27.4 kmh 29.12 in986.1 mb 0.01 in0.3 mm 0.60 in15.2 mm 0.01 in0.3 mm
10:28 AM 54.9°F12.7°C 50.2°F10.1°C 84% 17.8 mph SE28.6 kmh SE 23.0 mph37.0 kmh 29.12 in986.1 mb 0.01 in0.3 mm 0.00 in0.0 mm 0.01 in0.3 mm
10:29 AM 54.8°F12.7°C 50.1°F10.1°C 84% 15.9 mph SE25.6 kmh SE 23.0 mph37.0 kmh 29.12 in986.1 mb 0.01 in0.3 mm 0.00 in0.0 mm 0.01 in0.3 mm
10:30 AM 54.7°F12.6°C 50.0°F10.0°C 84% 15.4 mph SE24.8 kmh SE 19.0 mph30.6 kmh 29.12 in986.1 mb 0.01 in0.3 mm 0.00 in0.0 mm 0.01 in0.3 mm
10:31 AM 54.7°F12.6°C 50.3°F10.2°C 85% 15.4 mph SE24.8 kmh SE 21.0 mph33.8 kmh 29.12 in986.1 mb 0.01 in0.3 mm 0.00 in0.0 mm 0.01 in0.3 mm
10:32 AM 54.6°F12.6°C 50.2°F10.1°C 85% 16.3 mph SE26.2 kmh SE 21.0 mph33.8 kmh 29.12 in986.1 mb 0.01 in0.3 mm 0.00 in0.0 mm 0.01 in0.3 mm
10:33 AM 54.6°F12.6°C 50.2°F10.1°C 85% 14.9 mph SE24.0 kmh SE 21.0 mph33.8 kmh 29.11 in985.8 mb 0.01 in0.3 mm 0.00 in0.0 mm 0.01 in0.3 mm
10:34 AM 54.6°F12.6°C 50.5°F10.3°C 86% 10.3 mph SE16.6 kmh SE 21.0 mph33.8 kmh 29.11 in985.8 mb 0.01 in0.3 mm 0.00 in0.0 mm 0.01 in0.3 mm
10:35 AM 54.5°F12.5°C 50.4°F10.2°C 86% 9.3 mph SE15.0 kmh SE 14.0 mph22.5 kmh 29.11 in985.8 mb 0.01 in0.3 mm 0.00 in0.0 mm 0.01 in0.3 mm
10:36 AM 54.5°F12.5°C 50.4°F10.2°C 86% 9.4 mph SE15.1 kmh SE 13.0 mph20.9 kmh 29.11 in985.8 mb 0.01 in0.3 mm 0.00 in0.0 mm 0.01 in0.3 mm
10:37 AM 54.4°F12.4°C 50.3°F10.2°C 86% 13.6 mph SE21.9 kmh SE 18.0 mph29.0 kmh 29.11 in985.8 mb 0.01 in0.3 mm 0.00 in0.0 mm 0.01 in0.3 mm
10:38 AM 54.4°F12.4°C 50.3°F10.2°C 86% 11.8 mph ESE19.0 kmh ESE 18.0 mph29.0 kmh 29.11 in985.8 mb 0.01 in0.3 mm 0.00 in0.0 mm 0.01 in0.3 mm
10:39 AM 54.3°F12.4°C 50.2°F10.1°C 86% 10.7 mph SE17.2 kmh SE 15.0 mph24.1 kmh 29.11 in985.8 mb 0.01 in0.3 mm 0.00 in0.0 mm 0.01 in0.3 mm
10:40 AM 54.3°F12.4°C 50.5°F10.3°C 87% 12.0 mph SE19.3 kmh SE 18.0 mph29.0 kmh 29.11 in985.8 mb 0.01 in0.3 mm 0.00 in0.0 mm 0.01 in0.3 mm
10:41 AM 54.2°F12.3°C 50.1°F10.1°C 86% 10.5 mph SE16.9 kmh SE 18.0 mph29.0 kmh 29.11 in985.8 mb 0.01 in0.3 mm 0.00 in0.0 mm 0.01 in0.3 mm
10:42 AM 54.2°F12.3°C 50.4°F10.2°C 87% 9.2 mph ESE14.8 kmh ESE 14.0 mph22.5 kmh 29.11 in985.8 mb 0.01 in0.3 mm 0.00 in0.0 mm 0.01 in0.3 mm
10:43 AM 54.1°F12.3°C 50.3°F10.2°C 87% 13.5 mph SE21.7 kmh SE 17.0 mph27.4 kmh 29.10 in985.4 mb 0.01 in0.3 mm 0.00 in0.0 mm 0.01 in0.3 mm
10:44 AM 54.1°F12.3°C 50.0°F10.0°C 86% 14.1 mph ESE22.7 kmh ESE 17.0 mph27.4 kmh 29.11 in985.8 mb 0.01 in0.3 mm 0.00 in0.0 mm 0.01 in0.3 mm
10:45 AM 54.2°F12.3°C 50.4°F10.2°C 87% 11.7 mph ESE18.8 kmh ESE 17.0 mph27.4 kmh 29.10 in985.4 mb 0.01 in0.3 mm 0.00 in0.0 mm 0.01 in0.3 mm
10:46 AM 54.1°F12.3°C 50.3°F10.2°C 87% 12.9 mph ESE20.8 kmh ESE 17.0 mph27.4 kmh 29.10 in985.4 mb 0.01 in0.3 mm 0.00 in0.0 mm 0.01 in0.3 mm
10:47 AM 54.1°F12.3°C 50.3°F10.2°C 87% 8.1 mph ESE13.0 kmh ESE 17.0 mph27.4 kmh 29.10 in985.4 mb 0.01 in0.3 mm 0.00 in0.0 mm 0.01 in0.3 mm
10:48 AM 54.1°F12.3°C 50.6°F10.3°C 88% 12.5 mph ESE20.1 kmh ESE 18.0 mph29.0 kmh 29.10 in985.4 mb 0.01 in0.3 mm 0.00 in0.0 mm 0.01 in0.3 mm
10:49 AM 54.0°F12.2°C 50.5°F10.3°C 88% 11.7 mph SE18.8 kmh SE 18.0 mph29.0 kmh 29.10 in985.4 mb 0.01 in0.3 mm 0.00 in0.0 mm 0.01 in0.3 mm
10:50 AM 54.0°F12.2°C 50.5°F10.3°C 88% 10.9 mph ESE17.5 kmh ESE 14.0 mph22.5 kmh 29.10 in985.4 mb 0.01 in0.3 mm 0.00 in0.0 mm 0.01 in0.3 mm
10:51 AM 54.0°F12.2°C 50.5°F10.3°C 88% 13.6 mph ESE21.9 kmh ESE 18.0 mph29.0 kmh 29.10 in985.4 mb 0.01 in0.3 mm 0.00 in0.0 mm 0.01 in0.3 mm
10:52 AM 54.0°F12.2°C 50.2°F10.1°C 87% 14.6 mph ESE23.5 kmh ESE 19.0 mph30.6 kmh 29.09 in985.1 mb 0.01 in0.3 mm 0.00 in0.0 mm 0.01 in0.3 mm
10:53 AM 53.9°F12.2°C 50.4°F10.2°C 88% 13.0 mph SE20.9 kmh SE 19.0 mph30.6 kmh 29.09 in985.1 mb 0.01 in0.3 mm 0.00 in0.0 mm 0.01 in0.3 mm
10:54 AM 53.9°F12.2°C 50.4°F10.2°C 88% 11.2 mph ESE18.0 kmh ESE 17.0 mph27.4 kmh 29.09 in985.1 mb 0.01 in0.3 mm 0.00 in0.0 mm 0.01 in0.3 mm
10:55 AM 53.9°F12.2°C 50.4°F10.2°C 88% 12.1 mph ESE19.5 kmh ESE 16.0 mph25.7 kmh 29.09 in985.1 mb 0.01 in0.3 mm 0.00 in0.0 mm 0.01 in0.3 mm
10:56 AM 53.9°F12.2°C 50.4°F10.2°C 88% 13.5 mph SE21.7 kmh SE 23.0 mph37.0 kmh 29.09 in985.1 mb 0.02 in0.5 mm 0.60 in15.2 mm 0.02 in0.5 mm
10:57 AM 53.9°F12.2°C 50.7°F10.4°C 89% 12.4 mph ESE20.0 kmh ESE 23.0 mph37.0 kmh 29.09 in985.1 mb 0.02 in0.5 mm 0.00 in0.0 mm 0.02 in0.5 mm
10:58 AM 53.9°F12.2°C 50.4°F10.2°C 88% 10.1 mph ESE16.3 kmh ESE 17.0 mph27.4 kmh 29.09 in985.1 mb 0.02 in0.5 mm 0.00 in0.0 mm 0.02 in0.5 mm
10:59 AM 53.9°F12.2°C 50.7°F10.4°C 89% 13.5 mph ESE21.7 kmh ESE 16.0 mph25.7 kmh 29.09 in985.1 mb 0.02 in0.5 mm 0.00 in0.0 mm 0.02 in0.5 mm
11:00 AM 53.9°F12.2°C 50.7°F10.4°C 89% 10.6 mph ESE17.1 kmh ESE 16.0 mph25.7 kmh 29.09 in985.1 mb 0.02 in0.5 mm 0.00 in0.0 mm 0.02 in0.5 mm
11:01 AM 54.0°F12.2°C 50.5°F10.3°C 88% 12.1 mph ESE19.5 kmh ESE 16.0 mph25.7 kmh 29.09 in985.1 mb 0.02 in0.5 mm 0.00 in0.0 mm 0.02 in0.5 mm
11:02 AM 53.9°F12.2°C 50.4°F10.2°C 88% 14.3 mph ESE23.0 kmh ESE 18.0 mph29.0 kmh 29.09 in985.1 mb 0.02 in0.5 mm 0.00 in0.0 mm 0.02 in0.5 mm
11:03 AM 54.0°F12.2°C 50.5°F10.3°C 88% 13.4 mph ESE21.6 kmh ESE 18.0 mph29.0 kmh 29.09 in985.1 mb 0.02 in0.5 mm 0.00 in0.0 mm 0.02 in0.5 mm
11:04 AM 54.0°F12.2°C 50.5°F10.3°C 88% 12.4 mph ESE20.0 kmh ESE 17.0 mph27.4 kmh 29.09 in985.1 mb 0.02 in0.5 mm 0.00 in0.0 mm 0.02 in0.5 mm
11:05 AM 54.0°F12.2°C 50.8°F10.4°C 89% 10.3 mph SE16.6 kmh SE 16.0 mph25.7 kmh 29.09 in985.1 mb 0.02 in0.5 mm 0.00 in0.0 mm 0.02 in0.5 mm
11:06 AM 54.0°F12.2°C 50.8°F10.4°C 89% 11.0 mph ESE17.7 kmh ESE 13.0 mph20.9 kmh 29.09 in985.1 mb 0.02 in0.5 mm 0.00 in0.0 mm 0.02 in0.5 mm
11:07 AM 54.0°F12.2°C 50.8°F10.4°C 89% 10.7 mph ESE17.2 kmh ESE 13.0 mph20.9 kmh 29.08 in984.8 mb 0.02 in0.5 mm 0.00 in0.0 mm 0.02 in0.5 mm
11:08 AM 54.1°F12.3°C 50.9°F10.5°C 89% 12.4 mph ESE20.0 kmh ESE 16.0 mph25.7 kmh 29.08 in984.8 mb 0.02 in0.5 mm 0.00 in0.0 mm 0.02 in0.5 mm
11:09 AM 54.1°F12.3°C 50.9°F10.5°C 89% 10.5 mph SE16.9 kmh SE 16.0 mph25.7 kmh 29.08 in984.8 mb 0.02 in0.5 mm 0.00 in0.0 mm 0.02 in0.5 mm
11:10 AM 54.1°F12.3°C 50.9°F10.5°C 89% 11.8 mph ESE19.0 kmh ESE 17.0 mph27.4 kmh 29.08 in984.8 mb 0.02 in0.5 mm 0.00 in0.0 mm 0.02 in0.5 mm
11:11 AM 54.1°F12.3°C 50.9°F10.5°C 89% 13.1 mph SE21.1 kmh SE 20.0 mph32.2 kmh 29.08 in984.8 mb 0.02 in0.5 mm 0.00 in0.0 mm 0.02 in0.5 mm
11:12 AM 54.1°F12.3°C 50.6°F10.3°C 88% 10.9 mph ESE17.5 kmh ESE 20.0 mph32.2 kmh 29.08 in984.8 mb 0.02 in0.5 mm 0.00 in0.0 mm 0.02 in0.5 mm
11:13 AM 54.2°F12.3°C 50.7°F10.4°C 88% 11.1 mph ESE17.9 kmh ESE 15.0 mph24.1 kmh 29.08 in984.8 mb 0.02 in0.5 mm 0.00 in0.0 mm 0.02 in0.5 mm
11:14 AM 54.2°F12.3°C 50.7°F10.4°C 88% 10.0 mph ESE16.1 kmh ESE 17.0 mph27.4 kmh 29.08 in984.8 mb 0.02 in0.5 mm 0.00 in0.0 mm 0.02 in0.5 mm
11:15 AM 54.2°F12.3°C 50.7°F10.4°C 88% 14.1 mph SE22.7 kmh SE 18.0 mph29.0 kmh 29.08 in984.8 mb 0.02 in0.5 mm 0.00 in0.0 mm 0.02 in0.5 mm
11:16 AM 54.2°F12.3°C 50.7°F10.4°C 88% 13.7 mph SE22.0 kmh SE 19.0 mph30.6 kmh 29.08 in984.8 mb 0.02 in0.5 mm 0.00 in0.0 mm 0.02 in0.5 mm
11:17 AM 54.3°F12.4°C 50.5°F10.3°C 87% 11.4 mph SE18.3 kmh SE 19.0 mph30.6 kmh 29.08 in984.8 mb 0.02 in0.5 mm 0.00 in0.0 mm 0.02 in0.5 mm
11:18 AM 54.3°F12.4°C 50.8°F10.4°C 88% 15.4 mph SE24.8 kmh SE 21.0 mph33.8 kmh 29.08 in984.8 mb 0.02 in0.5 mm 0.00 in0.0 mm 0.02 in0.5 mm
11:19 AM 54.4°F12.4°C 50.9°F10.5°C 88% 12.6 mph SE20.3 kmh SE 21.0 mph33.8 kmh 29.07 in984.4 mb 0.02 in0.5 mm 0.00 in0.0 mm 0.02 in0.5 mm
11:20 AM 54.3°F12.4°C 50.8°F10.4°C 88% 14.6 mph ESE23.5 kmh ESE 18.0 mph29.0 kmh 29.07 in984.4 mb 0.02 in0.5 mm 0.00 in0.0 mm 0.02 in0.5 mm
11:21 AM 54.4°F12.4°C 50.9°F10.5°C 88% 14.9 mph ESE24.0 kmh ESE 21.0 mph33.8 kmh 29.07 in984.4 mb 0.02 in0.5 mm 0.00 in0.0 mm 0.02 in0.5 mm
11:22 AM 54.4°F12.4°C 50.9°F10.5°C 88% 10.6 mph SE17.1 kmh SE 21.0 mph33.8 kmh 29.07 in984.4 mb 0.02 in0.5 mm 0.00 in0.0 mm 0.02 in0.5 mm
11:23 AM 54.4°F12.4°C 50.9°F10.5°C 88% 11.2 mph ESE18.0 kmh ESE 15.0 mph24.1 kmh 29.07 in984.4 mb 0.02 in0.5 mm 0.00 in0.0 mm 0.02 in0.5 mm
11:24 AM 54.4°F12.4°C 50.9°F10.5°C 88% 13.7 mph ESE22.0 kmh ESE 18.0 mph29.0 kmh 29.07 in984.4 mb 0.02 in0.5 mm 0.00 in0.0 mm 0.02 in0.5 mm
11:25 AM 54.4°F12.4°C 50.9°F10.5°C 88% 14.8 mph ESE23.8 kmh ESE 19.0 mph30.6 kmh 29.07 in984.4 mb 0.02 in0.5 mm 0.00 in0.0 mm 0.02 in0.5 mm
11:26 AM 54.4°F12.4°C 50.6°F10.3°C 87% 17.5 mph SE28.2 kmh SE 22.0 mph35.4 kmh 29.07 in984.4 mb 0.02 in0.5 mm 0.00 in0.0 mm 0.02 in0.5 mm
11:27 AM 54.4°F12.4°C 50.3°F10.2°C 86% 16.4 mph ESE26.4 kmh ESE 22.0 mph35.4 kmh 29.07 in984.4 mb 0.01 in0.3 mm 0.00 in0.0 mm 0.02 in0.5 mm
11:28 AM 54.4°F12.4°C 50.3°F10.2°C 86% 18.5 mph SE29.8 kmh SE 27.0 mph43.5 kmh 29.07 in984.4 mb 0.01 in0.3 mm 0.00 in0.0 mm 0.02 in0.5 mm
11:29 AM 54.4°F12.4°C 50.0°F10.0°C 85% 11.4 mph SE18.3 kmh SE 27.0 mph43.5 kmh 29.07 in984.4 mb 0.01 in0.3 mm 0.00 in0.0 mm 0.02 in0.5 mm
11:30 AM 54.3°F12.4°C 50.2°F10.1°C 86% 11.6 mph SE18.7 kmh SE 22.0 mph35.4 kmh 29.07 in984.4 mb 0.01 in0.3 mm 0.00 in0.0 mm 0.02 in0.5 mm
11:31 AM 54.4°F12.4°C 50.3°F10.2°C 86% 15.5 mph SE24.9 kmh SE 22.0 mph35.4 kmh 29.07 in984.4 mb 0.01 in0.3 mm 0.00 in0.0 mm 0.02 in0.5 mm
11:32 AM 54.4°F12.4°C 50.3°F10.2°C 86% 13.8 mph ESE22.2 kmh ESE 22.0 mph35.4 kmh 29.06 in984.1 mb 0.01 in0.3 mm 0.00 in0.0 mm 0.02 in0.5 mm
11:33 AM 54.4°F12.4°C 50.3°F10.2°C 86% 12.7 mph ESE20.4 kmh ESE 20.0 mph32.2 kmh 29.06 in984.1 mb 0.01 in0.3 mm 0.00 in0.0 mm 0.02 in0.5 mm
11:34 AM 54.4°F12.4°C 50.3°F10.2°C 86% 13.6 mph SE21.9 kmh SE 17.0 mph27.4 kmh 29.06 in984.1 mb 0.01 in0.3 mm 0.00 in0.0 mm 0.02 in0.5 mm
11:35 AM 54.4°F12.4°C 50.3°F10.2°C 86% 16.7 mph ESE26.9 kmh ESE 24.0 mph38.6 kmh 29.06 in984.1 mb 0.01 in0.3 mm 0.00 in0.0 mm 0.02 in0.5 mm
11:36 AM 54.4°F12.4°C 50.0°F10.0°C 85% 18.3 mph SE29.5 kmh SE 24.0 mph38.6 kmh 29.06 in984.1 mb 0.01 in0.3 mm 0.00 in0.0 mm 0.02 in0.5 mm
11:37 AM 54.4°F12.4°C 50.0°F10.0°C 85% 19.5 mph SE31.4 kmh SE 27.0 mph43.5 kmh 29.06 in984.1 mb 0.01 in0.3 mm 0.00 in0.0 mm 0.02 in0.5 mm
11:38 AM 54.4°F12.4°C 50.3°F10.2°C 86% 20.6 mph SE33.2 kmh SE 29.0 mph46.7 kmh 29.06 in984.1 mb 0.01 in0.3 mm 0.00 in0.0 mm 0.02 in0.5 mm
11:39 AM 54.4°F12.4°C 50.0°F10.0°C 85% 20.4 mph ESE32.8 kmh ESE 29.0 mph46.7 kmh 29.06 in984.1 mb 0.01 in0.3 mm 0.00 in0.0 mm 0.02 in0.5 mm
11:40 AM 54.4°F12.4°C 50.0°F10.0°C 85% 14.1 mph ESE22.7 kmh ESE 28.0 mph45.1 kmh 29.06 in984.1 mb 0.01 in0.3 mm 0.00 in0.0 mm 0.02 in0.5 mm
11:41 AM 54.4°F12.4°C 50.0°F10.0°C 85% 12.6 mph SE20.3 kmh SE 18.0 mph29.0 kmh 29.06 in984.1 mb 0.01 in0.3 mm 0.00 in0.0 mm 0.02 in0.5 mm
11:42 AM 54.4°F12.4°C 50.0°F10.0°C 85% 14.6 mph SE23.5 kmh SE 22.0 mph35.4 kmh 29.06 in984.1 mb 0.01 in0.3 mm 0.00 in0.0 mm 0.02 in0.5 mm
11:43 AM 54.4°F12.4°C 50.0°F10.0°C 85% 14.0 mph SE22.5 kmh SE 22.0 mph35.4 kmh 29.05 in983.7 mb 0.01 in0.3 mm 0.00 in0.0 mm 0.02 in0.5 mm
11:44 AM 54.5°F12.5°C 50.1°F10.1°C 85% 15.8 mph ESE25.4 kmh ESE 28.0 mph45.1 kmh 29.05 in983.7 mb 0.01 in0.3 mm 0.00 in0.0 mm 0.02 in0.5 mm
11:45 AM 54.6°F12.6°C 50.5°F10.3°C 86% 12.3 mph ESE19.8 kmh ESE 28.0 mph45.1 kmh 29.05 in983.7 mb 0.01 in0.3 mm 0.00 in0.0 mm 0.02 in0.5 mm
11:46 AM 54.6°F12.6°C 50.5°F10.3°C 86% 15.7 mph ESE25.3 kmh ESE 22.0 mph35.4 kmh 29.05 in983.7 mb 0.01 in0.3 mm 0.00 in0.0 mm 0.02 in0.5 mm
11:47 AM 54.6°F12.6°C 50.5°F10.3°C 86% 10.5 mph SE16.9 kmh SE 22.0 mph35.4 kmh 29.05 in983.7 mb 0.01 in0.3 mm 0.00 in0.0 mm 0.02 in0.5 mm
11:48 AM 54.6°F12.6°C 50.2°F10.1°C 85% 14.6 mph ESE23.5 kmh ESE 18.0 mph29.0 kmh 29.05 in983.7 mb 0.01 in0.3 mm 0.00 in0.0 mm 0.02 in0.5 mm
11:49 AM 54.7°F12.6°C 50.3°F10.2°C 85% 14.0 mph ESE22.5 kmh ESE 19.0 mph30.6 kmh 29.05 in983.7 mb 0.01 in0.3 mm 0.00 in0.0 mm 0.02 in0.5 mm
11:50 AM 54.8°F12.7°C 50.7°F10.4°C 86% 13.1 mph SE21.1 kmh SE 20.0 mph32.2 kmh 29.05 in983.7 mb 0.01 in0.3 mm 0.00 in0.0 mm 0.02 in0.5 mm
11:51 AM 54.7°F12.6°C 50.3°F10.2°C 85% 14.0 mph ESE22.5 kmh ESE 20.0 mph32.2 kmh 29.05 in983.7 mb 0.01 in0.3 mm 0.00 in0.0 mm 0.02 in0.5 mm
11:52 AM 54.8°F12.7°C 50.4°F10.2°C 85% 14.7 mph ESE23.7 kmh ESE 20.0 mph32.2 kmh 29.05 in983.7 mb 0.01 in0.3 mm 0.00 in0.0 mm 0.02 in0.5 mm
11:53 AM 54.8°F12.7°C 50.4°F10.2°C 85% 12.2 mph SE19.6 kmh SE 20.0 mph32.2 kmh 29.04 in983.4 mb 0.01 in0.3 mm 0.00 in0.0 mm 0.02 in0.5 mm
11:54 AM 54.8°F12.7°C 50.4°F10.2°C 85% 14.4 mph ESE23.2 kmh ESE 19.0 mph30.6 kmh 29.04 in983.4 mb 0.01 in0.3 mm 0.00 in0.0 mm 0.02 in0.5 mm
11:55 AM 54.8°F12.7°C 50.4°F10.2°C 85% 14.1 mph ESE22.7 kmh ESE 19.0 mph30.6 kmh 29.04 in983.4 mb 0.01 in0.3 mm 0.00 in0.0 mm 0.02 in0.5 mm
11:56 AM 54.8°F12.7°C 50.4°F10.2°C 85% 16.6 mph ESE26.7 kmh ESE 26.0 mph41.8 kmh 29.04 in983.4 mb 0.00 in0.0 mm 0.00 in0.0 mm 0.02 in0.5 mm
11:57 AM 54.8°F12.7°C 50.4°F10.2°C 85% 14.4 mph ESE23.2 kmh ESE 26.0 mph41.8 kmh 29.04 in983.4 mb 0.00 in0.0 mm 0.00 in0.0 mm 0.02 in0.5 mm
11:58 AM 54.8°F12.7°C 50.4°F10.2°C 85% 16.1 mph ESE25.9 kmh ESE 20.0 mph32.2 kmh 29.04 in983.4 mb 0.00 in0.0 mm 0.00 in0.0 mm 0.02 in0.5 mm
11:59 AM 54.8°F12.7°C 50.4°F10.2°C 85% 16.3 mph ESE26.2 kmh ESE 23.0 mph37.0 kmh 29.04 in983.4 mb 0.00 in0.0 mm 0.00 in0.0 mm 0.02 in0.5 mm
12:00 PM 54.8°F12.7°C 50.4°F10.2°C 85% 13.3 mph ESE21.4 kmh ESE 23.0 mph37.0 kmh 29.04 in983.4 mb 0.00 in0.0 mm 0.00 in0.0 mm 0.02 in0.5 mm
12:01 PM 54.7°F12.6°C 50.3°F10.2°C 85% 16.4 mph ESE26.4 kmh ESE 22.0 mph35.4 kmh 29.04 in983.4 mb 0.00 in0.0 mm 0.00 in0.0 mm 0.02 in0.5 mm
12:02 PM 54.8°F12.7°C 50.4°F10.2°C 85% 12.6 mph ESE20.3 kmh ESE 22.0 mph35.4 kmh 29.04 in983.4 mb 0.00 in0.0 mm 0.00 in0.0 mm 0.02 in0.5 mm
12:03 PM 54.8°F12.7°C 50.4°F10.2°C 85% 13.6 mph SE21.9 kmh SE 17.0 mph27.4 kmh 29.04 in983.4 mb 0.00 in0.0 mm 0.00 in0.0 mm 0.02 in0.5 mm
12:04 PM 54.8°F12.7°C 50.4°F10.2°C 85% 14.1 mph ESE22.7 kmh ESE 19.0 mph30.6 kmh 29.04 in983.4 mb 0.00 in0.0 mm 0.00 in0.0 mm 0.02 in0.5 mm
12:05 PM 54.9°F12.7°C 50.5°F10.3°C 85% 15.3 mph SE24.6 kmh SE 23.0 mph37.0 kmh 29.03 in983.1 mb 0.00 in0.0 mm 0.00 in0.0 mm 0.02 in0.5 mm
12:06 PM 54.8°F12.7°C 50.4°F10.2°C 85% 11.6 mph ESE18.7 kmh ESE 23.0 mph37.0 kmh 29.03 in983.1 mb 0.00 in0.0 mm 0.00 in0.0 mm 0.02 in0.5 mm
12:07 PM 54.9°F12.7°C 50.5°F10.3°C 85% 15.9 mph ESE25.6 kmh ESE 22.0 mph35.4 kmh 29.03 in983.1 mb 0.00 in0.0 mm 0.00 in0.0 mm 0.02 in0.5 mm
12:08 PM 54.9°F12.7°C 50.5°F10.3°C 85% 16.2 mph ESE26.1 kmh ESE 24.0 mph38.6 kmh 29.03 in983.1 mb 0.00 in0.0 mm 0.00 in0.0 mm 0.02 in0.5 mm
12:09 PM 54.9°F12.7°C 50.5°F10.3°C 85% 19.6 mph ESE31.5 kmh ESE 26.0 mph41.8 kmh 29.03 in983.1 mb 0.00 in0.0 mm 0.00 in0.0 mm 0.02 in0.5 mm
12:10 PM 54.9°F12.7°C 50.2°F10.1°C 84% 14.5 mph SE23.3 kmh SE 26.0 mph41.8 kmh 29.03 in983.1 mb 0.00 in0.0 mm 0.00 in0.0 mm 0.02 in0.5 mm
12:11 PM 54.9°F12.7°C 50.2°F10.1°C 84% 16.0 mph ESE25.7 kmh ESE 20.0 mph32.2 kmh 29.03 in983.1 mb 0.00 in0.0 mm 0.00 in0.0 mm 0.02 in0.5 mm
12:12 PM 54.9°F12.7°C 50.2°F10.1°C 84% 16.8 mph ESE27.0 kmh ESE 26.0 mph41.8 kmh 29.03 in983.1 mb 0.00 in0.0 mm 0.00 in0.0 mm 0.02 in0.5 mm
12:13 PM 54.8°F12.7°C 50.1°F10.1°C 84% 16.5 mph ESE26.6 kmh ESE 26.0 mph41.8 kmh 29.03 in983.1 mb 0.00 in0.0 mm 0.00 in0.0 mm 0.02 in0.5 mm
12:14 PM 54.9°F12.7°C 50.2°F10.1°C 84% 13.4 mph ESE21.6 kmh ESE 24.0 mph38.6 kmh 29.03 in983.1 mb 0.00 in0.0 mm 0.00 in0.0 mm 0.02 in0.5 mm
12:15 PM 54.9°F12.7°C 50.5°F10.3°C 85% 18.7 mph ESE30.1 kmh ESE 27.0 mph43.5 kmh 29.03 in983.1 mb 0.00 in0.0 mm 0.00 in0.0 mm 0.02 in0.5 mm
12:16 PM 54.8°F12.7°C 50.1°F10.1°C 84% 18.9 mph SE30.4 kmh SE 27.0 mph43.5 kmh 29.03 in983.1 mb 0.00 in0.0 mm 0.00 in0.0 mm 0.02 in0.5 mm
12:17 PM 54.8°F12.7°C 50.4°F10.2°C 85% 13.4 mph ESE21.6 kmh ESE 22.0 mph35.4 kmh 29.03 in983.1 mb 0.00 in0.0 mm 0.00 in0.0 mm 0.02 in0.5 mm
12:18 PM 54.8°F12.7°C 50.4°F10.2°C 85% 12.1 mph ESE19.5 kmh ESE 19.0 mph30.6 kmh 29.03 in983.1 mb 0.00 in0.0 mm 0.00 in0.0 mm 0.02 in0.5 mm
12:19 PM 54.8°F12.7°C 50.4°F10.2°C 85% 12.2 mph E19.6 kmh E 19.0 mph30.6 kmh 29.03 in983.1 mb 0.00 in0.0 mm 0.00 in0.0 mm 0.02 in0.5 mm
12:20 PM 54.8°F12.7°C 50.4°F10.2°C 85% 13.8 mph ESE22.2 kmh ESE 20.0 mph32.2 kmh 29.02 in982.7 mb 0.00 in0.0 mm 0.00 in0.0 mm 0.02 in0.5 mm
12:21 PM 54.8°F12.7°C 50.4°F10.2°C 85% 11.9 mph ESE19.2 kmh ESE 20.0 mph32.2 kmh 29.02 in982.7 mb 0.00 in0.0 mm 0.00 in0.0 mm 0.02 in0.5 mm
12:22 PM 54.9°F12.7°C 50.5°F10.3°C 85% 14.3 mph ESE23.0 kmh ESE 18.0 mph29.0 kmh 29.02 in982.7 mb 0.00 in0.0 mm 0.00 in0.0 mm 0.02 in0.5 mm
12:23 PM 54.8°F12.7°C 50.4°F10.2°C 85% 18.6 mph ESE29.9 kmh ESE 25.0 mph40.2 kmh 29.02 in982.7 mb 0.00 in0.0 mm 0.00 in0.0 mm 0.02 in0.5 mm
12:24 PM 54.8°F12.7°C 50.1°F10.1°C 84% 17.2 mph ESE27.7 kmh ESE 25.0 mph40.2 kmh 29.02 in982.7 mb 0.00 in0.0 mm 0.00 in0.0 mm 0.02 in0.5 mm
12:25 PM 54.9°F12.7°C 50.5°F10.3°C 85% 13.5 mph SE21.7 kmh SE 25.0 mph40.2 kmh 29.02 in982.7 mb 0.00 in0.0 mm 0.00 in0.0 mm 0.02 in0.5 mm
12:26 PM 54.9°F12.7°C 50.2°F10.1°C 84% 15.4 mph SE24.8 kmh SE 21.0 mph33.8 kmh 29.02 in982.7 mb 0.00 in0.0 mm 0.00 in0.0 mm 0.02 in0.5 mm
12:27 PM 54.8°F12.7°C 50.4°F10.2°C 85% 13.0 mph ESE20.9 kmh ESE 21.0 mph33.8 kmh 29.02 in982.7 mb 0.00 in0.0 mm 0.00 in0.0 mm 0.02 in0.5 mm
12:28 PM 54.9°F12.7°C 50.5°F10.3°C 85% 15.5 mph ESE24.9 kmh ESE 24.0 mph38.6 kmh 29.02 in982.7 mb 0.00 in0.0 mm 0.00 in0.0 mm 0.02 in0.5 mm
12:29 PM 54.9°F12.7°C 50.5°F10.3°C 85% 14.7 mph ESE23.7 kmh ESE 24.0 mph38.6 kmh 29.02 in982.7 mb 0.00 in0.0 mm 0.00 in0.0 mm 0.02 in0.5 mm
12:30 PM 54.9°F12.7°C 50.5°F10.3°C 85% 11.0 mph ESE17.7 kmh ESE 18.0 mph29.0 kmh 29.02 in982.7 mb 0.00 in0.0 mm 0.00 in0.0 mm 0.02 in0.5 mm
12:31 PM 54.9°F12.7°C 50.5°F10.3°C 85% 9.5 mph ESE15.3 kmh ESE 16.0 mph25.7 kmh 29.02 in982.7 mb 0.00 in0.0 mm 0.00 in0.0 mm 0.02 in0.5 mm
12:32 PM 54.9°F12.7°C 50.5°F10.3°C 85% 16.3 mph ESE26.2 kmh ESE 20.0 mph32.2 kmh 29.02 in982.7 mb 0.00 in0.0 mm 0.00 in0.0 mm 0.02 in0.5 mm
12:33 PM 54.8°F12.7°C 50.4°F10.2°C 85% 14.4 mph ESE23.2 kmh ESE 20.0 mph32.2 kmh 29.02 in982.7 mb 0.00 in0.0 mm 0.00 in0.0 mm 0.02 in0.5 mm
12:34 PM 54.9°F12.7°C 50.5°F10.3°C 85% 15.2 mph ESE24.5 kmh ESE 22.0 mph35.4 kmh 29.02 in982.7 mb 0.00 in0.0 mm 0.00 in0.0 mm 0.02 in0.5 mm
12:35 PM 54.7°F12.6°C 50.3°F10.2°C 85% 15.3 mph ESE24.6 kmh ESE 22.0 mph35.4 kmh 29.02 in982.7 mb 0.00 in0.0 mm 0.00 in0.0 mm 0.02 in0.5 mm
12:36 PM 54.8°F12.7°C 50.4°F10.2°C 85% 14.5 mph ESE23.3 kmh ESE 22.0 mph35.4 kmh 29.02 in982.7 mb 0.00 in0.0 mm 0.00 in0.0 mm 0.02 in0.5 mm
12:37 PM 54.7°F12.6°C 50.3°F10.2°C 85% 14.7 mph ESE23.7 kmh ESE 19.0 mph30.6 kmh 29.01 in982.4 mb 0.00 in0.0 mm 0.00 in0.0 mm 0.02 in0.5 mm
12:38 PM 54.8°F12.7°C 50.7°F10.4°C 86% 12.1 mph ESE19.5 kmh ESE 18.0 mph29.0 kmh 29.02 in982.7 mb 0.00 in0.0 mm 0.00 in0.0 mm 0.02 in0.5 mm
12:39 PM 54.8°F12.7°C 50.4°F10.2°C 85% 14.7 mph ESE23.7 kmh ESE 17.0 mph27.4 kmh 29.01 in982.4 mb 0.00 in0.0 mm 0.00 in0.0 mm 0.02 in0.5 mm
12:40 PM 54.8°F12.7°C 50.7°F10.4°C 86% 14.0 mph ESE22.5 kmh ESE 19.0 mph30.6 kmh 29.01 in982.4 mb 0.00 in0.0 mm 0.00 in0.0 mm 0.02 in0.5 mm
12:41 PM 54.8°F12.7°C 50.7°F10.4°C 86% 13.6 mph ESE21.9 kmh ESE 19.0 mph30.6 kmh 29.01 in982.4 mb 0.00 in0.0 mm 0.00 in0.0 mm 0.02 in0.5 mm
12:42 PM 54.7°F12.6°C 50.6°F10.3°C 86% 10.9 mph ESE17.5 kmh ESE 17.0 mph27.4 kmh 29.01 in982.4 mb 0.00 in0.0 mm 0.00 in0.0 mm 0.02 in0.5 mm
12:43 PM 54.7°F12.6°C 50.6°F10.3°C 86% 12.8 mph E20.6 kmh E 18.0 mph29.0 kmh 29.01 in982.4 mb 0.00 in0.0 mm 0.00 in0.0 mm 0.02 in0.5 mm
12:44 PM 54.8°F12.7°C 50.7°F10.4°C 86% 12.6 mph ESE20.3 kmh ESE 19.0 mph30.6 kmh 29.01 in982.4 mb 0.00 in0.0 mm 0.00 in0.0 mm 0.02 in0.5 mm
12:45 PM 54.7°F12.6°C 50.9°F10.5°C 87% 11.0 mph ESE17.7 kmh ESE 19.0 mph30.6 kmh 29.01 in982.4 mb 0.00 in0.0 mm 0.00 in0.0 mm 0.02 in0.5 mm
12:46 PM 54.7°F12.6°C 50.9°F10.5°C 87% 14.7 mph ESE23.7 kmh ESE 25.0 mph40.2 kmh 29.00 in982.1 mb 0.00 in0.0 mm 0.00 in0.0 mm 0.02 in0.5 mm
12:47 PM 54.7°F12.6°C 50.9°F10.5°C 87% 11.6 mph ESE18.7 kmh ESE 25.0 mph40.2 kmh 29.01 in982.4 mb 0.00 in0.0 mm 0.00 in0.0 mm 0.02 in0.5 mm
12:48 PM 54.6°F12.6°C 50.8°F10.4°C 87% 10.5 mph ESE16.9 kmh ESE 16.0 mph25.7 kmh 29.01 in982.4 mb 0.00 in0.0 mm 0.00 in0.0 mm 0.02 in0.5 mm
12:49 PM 54.6°F12.6°C 50.8°F10.4°C 87% 13.4 mph ESE21.6 kmh ESE 17.0 mph27.4 kmh 29.00 in982.1 mb 0.00 in0.0 mm 0.00 in0.0 mm 0.02 in0.5 mm
12:50 PM 54.6°F12.6°C 50.8°F10.4°C 87% 11.3 mph ESE18.2 kmh ESE 17.0 mph27.4 kmh 29.00 in982.1 mb 0.00 in0.0 mm 0.00 in0.0 mm 0.02 in0.5 mm
12:51 PM 54.6°F12.6°C 50.8°F10.4°C 87% 16.1 mph ESE25.9 kmh ESE 23.0 mph37.0 kmh 29.00 in982.1 mb 0.00 in0.0 mm 0.00 in0.0 mm 0.02 in0.5 mm
12:52 PM 54.5°F12.5°C 50.7°F10.4°C 87% 10.1 mph ESE16.3 kmh ESE 23.0 mph37.0 kmh 29.00 in982.1 mb 0.00 in0.0 mm 0.00 in0.0 mm 0.02 in0.5 mm
12:53 PM 54.4°F12.4°C 50.9°F10.5°C 88% 11.5 mph E18.5 kmh E 17.0 mph27.4 kmh 29.00 in982.1 mb 0.00 in0.0 mm 0.00 in0.0 mm 0.02 in0.5 mm
12:54 PM 54.4°F12.4°C 50.9°F10.5°C 88% 12.0 mph ESE19.3 kmh ESE 17.0 mph27.4 kmh 29.00 in982.1 mb 0.00 in0.0 mm 0.00 in0.0 mm 0.02 in0.5 mm
12:55 PM 54.4°F12.4°C 50.9°F10.5°C 88% 8.2 mph E13.2 kmh E 17.0 mph27.4 kmh 29.00 in982.1 mb 0.00 in0.0 mm 0.00 in0.0 mm 0.02 in0.5 mm
12:56 PM 54.4°F12.4°C 50.9°F10.5°C 88% 8.8 mph ESE14.2 kmh ESE 16.0 mph25.7 kmh 29.00 in982.1 mb 0.00 in0.0 mm 0.00 in0.0 mm 0.02 in0.5 mm
12:57 PM 54.4°F12.4°C 50.9°F10.5°C 88% 10.3 mph ESE16.6 kmh ESE 19.0 mph30.6 kmh 29.00 in982.1 mb 0.00 in0.0 mm 0.00 in0.0 mm 0.02 in0.5 mm
12:58 PM 54.4°F12.4°C 50.9°F10.5°C 88% 14.0 mph ESE22.5 kmh ESE 24.0 mph38.6 kmh 29.00 in982.1 mb 0.00 in0.0 mm 0.00 in0.0 mm 0.02 in0.5 mm
12:59 PM 54.3°F12.4°C 50.8°F10.4°C 88% 16.6 mph E26.7 kmh E 24.0 mph38.6 kmh 29.00 in982.1 mb 0.00 in0.0 mm 0.00 in0.0 mm 0.02 in0.5 mm
01:00 PM 54.2°F12.3°C 50.7°F10.4°C 88% 16.7 mph ESE26.9 kmh ESE 22.0 mph35.4 kmh 29.00 in982.1 mb 0.00 in0.0 mm 0.00 in0.0 mm 0.02 in0.5 mm
01:01 PM 54.2°F12.3°C 50.7°F10.4°C 88% 12.3 mph ESE19.8 kmh ESE 22.0 mph35.4 kmh 29.00 in982.1 mb 0.00 in0.0 mm 0.00 in0.0 mm 0.02 in0.5 mm
01:02 PM 54.2°F12.3°C 50.7°F10.4°C 88% 15.2 mph ESE24.5 kmh ESE 19.0 mph30.6 kmh 29.00 in982.1 mb 0.00 in0.0 mm 0.00 in0.0 mm 0.02 in0.5 mm
01:03 PM 54.1°F12.3°C 50.6°F10.3°C 88% 10.7 mph ESE17.2 kmh ESE 18.0 mph29.0 kmh 29.00 in982.1 mb 0.00 in0.0 mm 0.00 in0.0 mm 0.02 in0.5 mm
01:04 PM 54.1°F12.3°C 50.9°F10.5°C 89% 10.0 mph ESE16.1 kmh ESE 18.0 mph29.0 kmh 29.00 in982.1 mb 0.00 in0.0 mm 0.00 in0.0 mm 0.02 in0.5 mm
01:05 PM 54.1°F12.3°C 50.9°F10.5°C 89% 12.8 mph ESE20.6 kmh ESE 16.0 mph25.7 kmh 29.00 in982.1 mb 0.00 in0.0 mm 0.00 in0.0 mm 0.02 in0.5 mm
01:06 PM 54.1°F12.3°C 50.9°F10.5°C 89% 10.8 mph E17.4 kmh E 15.0 mph24.1 kmh 29.00 in982.1 mb 0.00 in0.0 mm 0.00 in0.0 mm 0.02 in0.5 mm
01:07 PM 54.1°F12.3°C 50.9°F10.5°C 89% 11.5 mph E18.5 kmh E 16.0 mph25.7 kmh 29.00 in982.1 mb 0.00 in0.0 mm 0.00 in0.0 mm 0.02 in0.5 mm
01:08 PM 54.1°F12.3°C 50.9°F10.5°C 89% 11.9 mph E19.2 kmh E 19.0 mph30.6 kmh 28.99 in981.7 mb 0.00 in0.0 mm 0.00 in0.0 mm 0.02 in0.5 mm
01:09 PM 54.0°F12.2°C 51.1°F10.6°C 90% 9.6 mph ESE15.4 kmh ESE 19.0 mph30.6 kmh 28.99 in981.7 mb 0.00 in0.0 mm 0.00 in0.0 mm 0.02 in0.5 mm
01:10 PM 54.0°F12.2°C 50.8°F10.4°C 89% 10.3 mph E16.6 kmh E 16.0 mph25.7 kmh 28.99 in981.7 mb 0.00 in0.0 mm 0.00 in0.0 mm 0.02 in0.5 mm
01:11 PM 54.0°F12.2°C 51.1°F10.6°C 90% 9.4 mph ESE15.1 kmh ESE 16.0 mph25.7 kmh 28.99 in981.7 mb 0.01 in0.3 mm 0.60 in15.2 mm 0.02 in0.5 mm
01:12 PM 53.9°F12.2°C 51.0°F10.6°C 90% 10.1 mph E16.3 kmh E 15.0 mph24.1 kmh 28.99 in981.7 mb 0.01 in0.3 mm 0.00 in0.0 mm 0.02 in0.5 mm
01:13 PM 53.9°F12.2°C 51.0°F10.6°C 90% 8.8 mph ESE14.2 kmh ESE 16.0 mph25.7 kmh 28.99 in981.7 mb 0.01 in0.3 mm 0.00 in0.0 mm 0.02 in0.5 mm
01:14 PM 53.9°F12.2°C 51.0°F10.6°C 90% 11.4 mph E18.3 kmh E 16.0 mph25.7 kmh 28.99 in981.7 mb 0.01 in0.3 mm 0.00 in0.0 mm 0.02 in0.5 mm
01:15 PM 53.9°F12.2°C 51.0°F10.6°C 90% 11.4 mph E18.3 kmh E 17.0 mph27.4 kmh 28.99 in981.7 mb 0.01 in0.3 mm 0.00 in0.0 mm 0.02 in0.5 mm
01:16 PM 53.8°F12.1°C 51.2°F10.7°C 91% 9.5 mph E15.3 kmh E 17.0 mph27.4 kmh 28.99 in981.7 mb 0.01 in0.3 mm 0.00 in0.0 mm 0.02 in0.5 mm
01:17 PM 53.9°F12.2°C 51.3°F10.7°C 91% 11.2 mph E18.0 kmh E 16.0 mph25.7 kmh 28.99 in981.7 mb 0.01 in0.3 mm 0.00 in0.0 mm 0.02 in0.5 mm
01:18 PM 53.8°F12.1°C 51.2°F10.7°C 91% 13.3 mph E21.4 kmh E 18.0 mph29.0 kmh 28.99 in981.7 mb 0.01 in0.3 mm 0.00 in0.0 mm 0.02 in0.5 mm
01:19 PM 53.8°F12.1°C 50.9°F10.5°C 90% 13.5 mph E21.7 kmh E 18.0 mph29.0 kmh 28.99 in981.7 mb 0.01 in0.3 mm 0.00 in0.0 mm 0.02 in0.5 mm
01:20 PM 53.8°F12.1°C 50.9°F10.5°C 90% 10.4 mph E16.7 kmh E 18.0 mph29.0 kmh 28.99 in981.7 mb 0.01 in0.3 mm 0.00 in0.0 mm 0.02 in0.5 mm
01:21 PM 53.8°F12.1°C 51.2°F10.7°C 91% 14.8 mph E23.8 kmh E 19.0 mph30.6 kmh 28.99 in981.7 mb 0.01 in0.3 mm 0.00 in0.0 mm 0.02 in0.5 mm
01:22 PM 53.8°F12.1°C 51.2°F10.7°C 91% 13.4 mph ESE21.6 kmh ESE 19.0 mph30.6 kmh 28.99 in981.7 mb 0.01 in0.3 mm 0.00 in0.0 mm 0.02 in0.5 mm
01:23 PM 53.8°F12.1°C 51.2°F10.7°C 91% 11.3 mph E18.2 kmh E 17.0 mph27.4 kmh 28.99 in981.7 mb 0.01 in0.3 mm 0.00 in0.0 mm 0.02 in0.5 mm
01:24 PM 53.8°F12.1°C 51.2°F10.7°C 91% 12.1 mph ESE19.5 kmh ESE 18.0 mph29.0 kmh 28.98 in981.4 mb 0.01 in0.3 mm 0.00 in0.0 mm 0.02 in0.5 mm
01:25 PM 53.9°F12.2°C 51.3°F10.7°C 91% 14.9 mph E24.0 kmh E 18.0 mph29.0 kmh 28.98 in981.4 mb 0.01 in0.3 mm 0.00 in0.0 mm 0.02 in0.5 mm
01:26 PM 53.8°F12.1°C 51.2°F10.7°C 91% 12.4 mph E20.0 kmh E 18.0 mph29.0 kmh 28.98 in981.4 mb 0.01 in0.3 mm 0.00 in0.0 mm 0.02 in0.5 mm
01:27 PM 53.8°F12.1°C 51.2°F10.7°C 91% 13.4 mph E21.6 kmh E 18.0 mph29.0 kmh 28.98 in981.4 mb 0.01 in0.3 mm 0.00 in0.0 mm 0.02 in0.5 mm
01:28 PM 53.7°F12.1°C 51.1°F10.6°C 91% 13.8 mph E22.2 kmh E 19.0 mph30.6 kmh 28.98 in981.4 mb 0.01 in0.3 mm 0.00 in0.0 mm 0.02 in0.5 mm
01:29 PM 53.8°F12.1°C 51.2°F10.7°C 91% 14.6 mph E23.5 kmh E 19.0 mph30.6 kmh 28.98 in981.4 mb 0.01 in0.3 mm 0.00 in0.0 mm 0.02 in0.5 mm
01:30 PM 53.8°F12.1°C 51.2°F10.7°C 91% 12.5 mph E20.1 kmh E 18.0 mph29.0 kmh 28.98 in981.4 mb 0.01 in0.3 mm 0.00 in0.0 mm 0.02 in0.5 mm
01:31 PM 53.7°F12.1°C 51.1°F10.6°C 91% 13.3 mph E21.4 kmh E 16.0 mph25.7 kmh 28.98 in981.4 mb 0.01 in0.3 mm 0.00 in0.0 mm 0.02 in0.5 mm
01:32 PM 53.7°F12.1°C 51.1°F10.6°C 91% 12.5 mph E20.1 kmh E 16.0 mph25.7 kmh 28.98 in981.4 mb 0.01 in0.3 mm 0.00 in0.0 mm 0.02 in0.5 mm
01:33 PM 53.7°F12.1°C 51.1°F10.6°C 91% 14.5 mph E23.3 kmh E 20.0 mph32.2 kmh 28.98 in981.4 mb 0.01 in0.3 mm 0.00 in0.0 mm 0.02 in0.5 mm
01:34 PM 53.6°F12.0°C 50.7°F10.4°C 90% 15.1 mph E24.3 kmh E 22.0 mph35.4 kmh 28.98 in981.4 mb 0.01 in0.3 mm 0.00 in0.0 mm 0.02 in0.5 mm
01:35 PM 53.5°F11.9°C 50.9°F10.5°C 91% 13.3 mph E21.4 kmh E 22.0 mph35.4 kmh 28.98 in981.4 mb 0.01 in0.3 mm 0.00 in0.0 mm 0.02 in0.5 mm
01:36 PM 53.5°F11.9°C 50.9°F10.5°C 91% 13.6 mph E21.9 kmh E 20.0 mph32.2 kmh 28.98 in981.4 mb 0.01 in0.3 mm 0.00 in0.0 mm 0.02 in0.5 mm
01:37 PM 53.4°F11.9°C 50.8°F10.4°C 91% 13.5 mph E21.7 kmh E 18.0 mph29.0 kmh 28.98 in981.4 mb 0.01 in0.3 mm 0.00 in0.0 mm 0.02 in0.5 mm
01:38 PM 53.4°F11.9°C 50.8°F10.4°C 91% 16.3 mph E26.2 kmh E 20.0 mph32.2 kmh 28.98 in981.4 mb 0.01 in0.3 mm 0.00 in0.0 mm 0.02 in0.5 mm
01:39 PM 53.3°F11.8°C 50.7°F10.4°C 91% 16.0 mph E25.7 kmh E 22.0 mph35.4 kmh 28.98 in981.4 mb 0.01 in0.3 mm 0.00 in0.0 mm 0.02 in0.5 mm
01:40 PM 53.3°F11.8°C 50.7°F10.4°C 91% 13.1 mph E21.1 kmh E 22.0 mph35.4 kmh 28.98 in981.4 mb 0.01 in0.3 mm 0.00 in0.0 mm 0.02 in0.5 mm
01:41 PM 53.3°F11.8°C 50.7°F10.4°C 91% 12.5 mph ESE20.1 kmh ESE 17.0 mph27.4 kmh 28.98 in981.4 mb 0.01 in0.3 mm 0.00 in0.0 mm 0.02 in0.5 mm
01:42 PM 53.3°F11.8°C 51.0°F10.6°C 92% 14.6 mph E23.5 kmh E 19.0 mph30.6 kmh 28.98 in981.4 mb 0.01 in0.3 mm 0.00 in0.0 mm 0.02 in0.5 mm
01:43 PM 53.3°F11.8°C 50.7°F10.4°C 91% 12.8 mph E20.6 kmh E 19.0 mph30.6 kmh 28.97 in981.0 mb 0.01 in0.3 mm 0.00 in0.0 mm 0.02 in0.5 mm
01:44 PM 53.3°F11.8°C 50.7°F10.4°C 91% 14.5 mph E23.3 kmh E 16.0 mph25.7 kmh 28.98 in981.4 mb 0.01 in0.3 mm 0.00 in0.0 mm 0.02 in0.5 mm
01:45 PM 53.3°F11.8°C 51.0°F10.6°C 92% 13.9 mph E22.4 kmh E 18.0 mph29.0 kmh 28.97 in981.0 mb 0.01 in0.3 mm 0.00 in0.0 mm 0.02 in0.5 mm
01:46 PM 53.2°F11.8°C 50.9°F10.5°C 92% 12.1 mph E19.5 kmh E 18.0 mph29.0 kmh 28.97 in981.0 mb 0.01 in0.3 mm 0.00 in0.0 mm 0.02 in0.5 mm
01:47 PM 53.3°F11.8°C 51.0°F10.6°C 92% 11.8 mph E19.0 kmh E 16.0 mph25.7 kmh 28.97 in981.0 mb 0.01 in0.3 mm 0.00 in0.0 mm 0.02 in0.5 mm
01:48 PM 53.3°F11.8°C 51.0°F10.6°C 92% 11.6 mph E18.7 kmh E 15.0 mph24.1 kmh 28.97 in981.0 mb 0.01 in0.3 mm 0.00 in0.0 mm 0.02 in0.5 mm
01:49 PM 53.3°F11.8°C 51.0°F10.6°C 92% 13.4 mph E21.6 kmh E 16.0 mph25.7 kmh 28.97 in981.0 mb 0.01 in0.3 mm 0.00 in0.0 mm 0.02 in0.5 mm
01:50 PM 53.2°F11.8°C 50.9°F10.5°C 92% 13.5 mph E21.7 kmh E 18.0 mph29.0 kmh 28.97 in981.0 mb 0.01 in0.3 mm 0.00 in0.0 mm 0.02 in0.5 mm
01:51 PM 53.3°F11.8°C 51.0°F10.6°C 92% 12.1 mph E19.5 kmh E 18.0 mph29.0 kmh 28.97 in981.0 mb 0.01 in0.3 mm 0.00 in0.0 mm 0.02 in0.5 mm
01:52 PM 53.2°F11.8°C 50.9°F10.5°C 92% 15.7 mph E25.3 kmh E 19.0 mph30.6 kmh 28.97 in981.0 mb 0.01 in0.3 mm 0.00 in0.0 mm 0.02 in0.5 mm
01:53 PM 53.2°F11.8°C 50.9°F10.5°C 92% 13.8 mph E22.2 kmh E 20.0 mph32.2 kmh 28.97 in981.0 mb 0.01 in0.3 mm 0.00 in0.0 mm 0.02 in0.5 mm
01:54 PM 53.2°F11.8°C 50.9°F10.5°C 92% 12.2 mph E19.6 kmh E 20.0 mph32.2 kmh 28.97 in981.0 mb 0.01 in0.3 mm 0.00 in0.0 mm 0.02 in0.5 mm
01:55 PM 53.2°F11.8°C 50.9°F10.5°C 92% 16.2 mph E26.1 kmh E 20.0 mph32.2 kmh 28.97 in981.0 mb 0.01 in0.3 mm 0.00 in0.0 mm 0.02 in0.5 mm
01:56 PM 53.1°F11.7°C 50.8°F10.4°C 92% 14.6 mph E23.5 kmh E 20.0 mph32.2 kmh 28.97 in981.0 mb 0.01 in0.3 mm 0.00 in0.0 mm 0.02 in0.5 mm
01:57 PM 53.2°F11.8°C 50.9°F10.5°C 92% 14.0 mph E22.5 kmh E 19.0 mph30.6 kmh 28.97 in981.0 mb 0.01 in0.3 mm 0.00 in0.0 mm 0.02 in0.5 mm
01:58 PM 53.1°F11.7°C 50.8°F10.4°C 92% 18.3 mph E29.5 kmh E 25.0 mph40.2 kmh 28.96 in980.7 mb 0.01 in0.3 mm 0.00 in0.0 mm 0.02 in0.5 mm
01:59 PM 53.1°F11.7°C 50.8°F10.4°C 92% 13.2 mph E21.2 kmh E 25.0 mph40.2 kmh 28.96 in980.7 mb 0.01 in0.3 mm 0.00 in0.0 mm 0.02 in0.5 mm
02:00 PM 53.1°F11.7°C 50.8°F10.4°C 92% 13.3 mph E21.4 kmh E 17.0 mph27.4 kmh 28.96 in980.7 mb 0.01 in0.3 mm 0.00 in0.0 mm 0.02 in0.5 mm
02:01 PM 53.1°F11.7°C 50.8°F10.4°C 92% 13.4 mph E21.6 kmh E 18.0 mph29.0 kmh 28.96 in980.7 mb 0.01 in0.3 mm 0.00 in0.0 mm 0.02 in0.5 mm
02:02 PM 53.1°F11.7°C 50.8°F10.4°C 92% 13.8 mph E22.2 kmh E 18.0 mph29.0 kmh 28.96 in980.7 mb 0.01 in0.3 mm 0.00 in0.0 mm 0.02 in0.5 mm
02:03 PM 53.1°F11.7°C 50.8°F10.4°C 92% 11.8 mph E19.0 kmh E 17.0 mph27.4 kmh 28.96 in980.7 mb 0.01 in0.3 mm 0.00 in0.0 mm 0.02 in0.5 mm
02:04 PM 53.1°F11.7°C 51.1°F10.6°C 93% 11.0 mph E17.7 kmh E 15.0 mph24.1 kmh 28.96 in980.7 mb 0.01 in0.3 mm 0.00 in0.0 mm 0.02 in0.5 mm
02:05 PM 53.1°F11.7°C 51.1°F10.6°C 93% 9.3 mph E15.0 kmh E 15.0 mph24.1 kmh 28.96 in980.7 mb 0.01 in0.3 mm 0.00 in0.0 mm 0.02 in0.5 mm
02:06 PM 53.1°F11.7°C 51.1°F10.6°C 93% 11.8 mph E19.0 kmh E 15.0 mph24.1 kmh 28.96 in980.7 mb 0.01 in0.3 mm 0.00 in0.0 mm 0.02 in0.5 mm
02:07 PM 53.2°F11.8°C 51.2°F10.7°C 93% 14.7 mph E23.7 kmh E 17.0 mph27.4 kmh 28.96 in980.7 mb 0.01 in0.3 mm 0.00 in0.0 mm 0.02 in0.5 mm
02:08 PM 53.2°F11.8°C 51.2°F10.7°C 93% 10.9 mph E17.5 kmh E 17.0 mph27.4 kmh 28.96 in980.7 mb 0.01 in0.3 mm 0.00 in0.0 mm 0.02 in0.5 mm
02:09 PM 53.1°F11.7°C 51.1°F10.6°C 93% 10.9 mph E17.5 kmh E 16.0 mph25.7 kmh 28.96 in980.7 mb 0.01 in0.3 mm 0.00 in0.0 mm 0.02 in0.5 mm
02:10 PM 53.2°F11.8°C 51.2°F10.7°C 93% 14.8 mph E23.8 kmh E 19.0 mph30.6 kmh 28.96 in980.7 mb 0.01 in0.3 mm 0.00 in0.0 mm 0.02 in0.5 mm
02:11 PM 53.2°F11.8°C 51.2°F10.7°C 93% 11.7 mph E18.8 kmh E 19.0 mph30.6 kmh 28.96 in980.7 mb 0.00 in0.0 mm 0.00 in0.0 mm 0.02 in0.5 mm
02:12 PM 53.2°F11.8°C 51.2°F10.7°C 93% 14.9 mph E24.0 kmh E 18.0 mph29.0 kmh 28.96 in980.7 mb 0.00 in0.0 mm 0.00 in0.0 mm 0.02 in0.5 mm
02:13 PM 53.2°F11.8°C 50.9°F10.5°C 92% 13.5 mph E21.7 kmh E 18.0 mph29.0 kmh 28.96 in980.7 mb 0.00 in0.0 mm 0.00 in0.0 mm 0.02 in0.5 mm
02:14 PM 53.2°F11.8°C 50.9°F10.5°C 92% 13.4 mph E21.6 kmh E 16.0 mph25.7 kmh 28.96 in980.7 mb 0.00 in0.0 mm 0.00 in0.0 mm 0.02 in0.5 mm
02:15 PM 53.2°F11.8°C 50.9°F10.5°C 92% 11.4 mph E18.3 kmh E 16.0 mph25.7 kmh 28.96 in980.7 mb 0.00 in0.0 mm 0.00 in0.0 mm 0.02 in0.5 mm
02:16 PM 53.2°F11.8°C 50.9°F10.5°C 92% 10.9 mph E17.5 kmh E 15.0 mph24.1 kmh 28.96 in980.7 mb 0.00 in0.0 mm 0.00 in0.0 mm 0.02 in0.5 mm
02:17 PM 53.3°F11.8°C 51.3°F10.7°C 93% 12.0 mph E19.3 kmh E 15.0 mph24.1 kmh 28.96 in980.7 mb 0.00 in0.0 mm 0.00 in0.0 mm 0.02 in0.5 mm
02:18 PM 53.3°F11.8°C 51.0°F10.6°C 92% 14.7 mph E23.7 kmh E 18.0 mph29.0 kmh 28.96 in980.7 mb 0.01 in0.3 mm 0.60 in15.2 mm 0.03 in0.8 mm
02:19 PM 53.3°F11.8°C 51.0°F10.6°C 92% 12.9 mph E20.8 kmh E 19.0 mph30.6 kmh 28.96 in980.7 mb 0.01 in0.3 mm 0.00 in0.0 mm 0.03 in0.8 mm
02:20 PM 53.3°F11.8°C 51.0°F10.6°C 92% 12.6 mph E20.3 kmh E 19.0 mph30.6 kmh 28.96 in980.7 mb 0.01 in0.3 mm 0.00 in0.0 mm 0.03 in0.8 mm
02:21 PM 53.4°F11.9°C 51.1°F10.6°C 92% 9.3 mph E15.0 kmh E 16.0 mph25.7 kmh 28.96 in980.7 mb 0.01 in0.3 mm 0.00 in0.0 mm 0.03 in0.8 mm
02:22 PM 53.3°F11.8°C 51.0°F10.6°C 92% 11.6 mph E18.7 kmh E 16.0 mph25.7 kmh 28.96 in980.7 mb 0.01 in0.3 mm 0.00 in0.0 mm 0.03 in0.8 mm
02:23 PM 53.3°F11.8°C 51.0°F10.6°C 92% 9.9 mph E15.9 kmh E 16.0 mph25.7 kmh 28.96 in980.7 mb 0.01 in0.3 mm 0.00 in0.0 mm 0.03 in0.8 mm
02:24 PM 53.4°F11.9°C 51.1°F10.6°C 92% 7.2 mph E11.6 kmh E 14.0 mph22.5 kmh 28.95 in980.4 mb 0.01 in0.3 mm 0.00 in0.0 mm 0.03 in0.8 mm
02:25 PM 53.4°F11.9°C 51.1°F10.6°C 92% 8.7 mph E14.0 kmh E 12.0 mph19.3 kmh 28.95 in980.4 mb 0.01 in0.3 mm 0.00 in0.0 mm 0.03 in0.8 mm
02:26 PM 53.4°F11.9°C 51.1°F10.6°C 92% 13.6 mph E21.9 kmh E 17.0 mph27.4 kmh 28.95 in980.4 mb 0.01 in0.3 mm 0.00 in0.0 mm 0.03 in0.8 mm
02:27 PM 53.5°F11.9°C 51.2°F10.7°C 92% 11.3 mph E18.2 kmh E 17.0 mph27.4 kmh 28.95 in980.4 mb 0.01 in0.3 mm 0.00 in0.0 mm 0.03 in0.8 mm
02:28 PM 53.5°F11.9°C 51.2°F10.7°C 92% 14.5 mph E23.3 kmh E 18.0 mph29.0 kmh 28.95 in980.4 mb 0.01 in0.3 mm 0.00 in0.0 mm 0.03 in0.8 mm
02:29 PM 53.5°F11.9°C 51.2°F10.7°C 92% 11.5 mph E18.5 kmh E 18.0 mph29.0 kmh 28.95 in980.4 mb 0.01 in0.3 mm 0.00 in0.0 mm 0.03 in0.8 mm
02:30 PM 53.6°F12.0°C 51.3°F10.7°C 92% 9.3 mph E15.0 kmh E 15.0 mph24.1 kmh 28.95 in980.4 mb 0.01 in0.3 mm 0.00 in0.0 mm 0.03 in0.8 mm
02:31 PM 53.6°F12.0°C 51.3°F10.7°C 92% 13.7 mph E22.0 kmh E 17.0 mph27.4 kmh 28.95 in980.4 mb 0.01 in0.3 mm 0.00 in0.0 mm 0.03 in0.8 mm
02:32 PM 53.6°F12.0°C 51.3°F10.7°C 92% 9.3 mph E15.0 kmh E 17.0 mph27.4 kmh 28.95 in980.4 mb 0.01 in0.3 mm 0.00 in0.0 mm 0.03 in0.8 mm
02:33 PM 53.7°F12.1°C 51.4°F10.8°C 92% 12.3 mph E19.8 kmh E 17.0 mph27.4 kmh 28.95 in980.4 mb 0.01 in0.3 mm 0.00 in0.0 mm 0.03 in0.8 mm
02:34 PM 53.7°F12.1°C 51.4°F10.8°C 92% 14.4 mph E23.2 kmh E 19.0 mph30.6 kmh 28.95 in980.4 mb 0.01 in0.3 mm 0.00 in0.0 mm 0.03 in0.8 mm
02:35 PM 53.7°F12.1°C 51.4°F10.8°C 92% 14.5 mph E23.3 kmh E 19.0 mph30.6 kmh 28.95 in980.4 mb 0.01 in0.3 mm 0.00 in0.0 mm 0.03 in0.8 mm
02:36 PM 53.8°F12.1°C 51.2°F10.7°C 91% 12.1 mph E19.5 kmh E 19.0 mph30.6 kmh 28.95 in980.4 mb 0.01 in0.3 mm 0.00 in0.0 mm 0.03 in0.8 mm
02:37 PM 53.8°F12.1°C 51.5°F10.8°C 92% 13.4 mph E21.6 kmh E 19.0 mph30.6 kmh 28.95 in980.4 mb 0.01 in0.3 mm 0.00 in0.0 mm 0.03 in0.8 mm
02:38 PM 53.9°F12.2°C 51.3°F10.7°C 91% 14.2 mph E22.9 kmh E 17.0 mph27.4 kmh 28.95 in980.4 mb 0.01 in0.3 mm 0.00 in0.0 mm 0.03 in0.8 mm
02:39 PM 54.0°F12.2°C 51.4°F10.8°C 91% 13.0 mph E20.9 kmh E 17.0 mph27.4 kmh 28.95 in980.4 mb 0.01 in0.3 mm 0.00 in0.0 mm 0.03 in0.8 mm
02:40 PM 54.0°F12.2°C 51.4°F10.8°C 91% 12.4 mph E20.0 kmh E 17.0 mph27.4 kmh 28.95 in980.4 mb 0.01 in0.3 mm 0.00 in0.0 mm 0.03 in0.8 mm
02:41 PM 54.1°F12.3°C 51.5°F10.8°C 91% 11.0 mph E17.7 kmh E 16.0 mph25.7 kmh 28.95 in980.4 mb 0.01 in0.3 mm 0.00 in0.0 mm 0.03 in0.8 mm
02:42 PM 54.1°F12.3°C 51.5°F10.8°C 91% 15.1 mph E24.3 kmh E 19.0 mph30.6 kmh 28.95 in980.4 mb 0.01 in0.3 mm 0.00 in0.0 mm 0.03 in0.8 mm
02:43 PM 54.2°F12.3°C 51.3°F10.7°C 90% 16.2 mph E26.1 kmh E 20.0 mph32.2 kmh 28.95 in980.4 mb 0.01 in0.3 mm 0.00 in0.0 mm 0.03 in0.8 mm
02:44 PM 54.2°F12.3°C 51.3°F10.7°C 90% 14.4 mph E23.2 kmh E 20.0 mph32.2 kmh 28.95 in980.4 mb 0.01 in0.3 mm 0.00 in0.0 mm 0.03 in0.8 mm
02:45 PM 54.3°F12.4°C 51.4°F10.8°C 90% 12.8 mph E20.6 kmh E 20.0 mph32.2 kmh 28.95 in980.4 mb 0.01 in0.3 mm 0.00 in0.0 mm 0.03 in0.8 mm
02:46 PM 54.4°F12.4°C 51.8°F11.0°C 91% 12.4 mph E20.0 kmh E 19.0 mph30.6 kmh 28.95 in980.4 mb 0.01 in0.3 mm 0.00 in0.0 mm 0.03 in0.8 mm
02:47 PM 54.4°F12.4°C 51.8°F11.0°C 91% 13.2 mph E21.2 kmh E 20.0 mph32.2 kmh 28.95 in980.4 mb 0.01 in0.3 mm 0.00 in0.0 mm 0.03 in0.8 mm
02:48 PM 54.4°F12.4°C 51.5°F10.8°C 90% 10.9 mph E17.5 kmh E 19.0 mph30.6 kmh 28.95 in980.4 mb 0.01 in0.3 mm 0.00 in0.0 mm 0.03 in0.8 mm
02:49 PM 54.5°F12.5°C 51.6°F10.9°C 90% 14.1 mph E22.7 kmh E 18.0 mph29.0 kmh 28.95 in980.4 mb 0.01 in0.3 mm 0.00 in0.0 mm 0.03 in0.8 mm
02:50 PM 54.6°F12.6°C 51.7°F10.9°C 90% 15.7 mph E25.3 kmh E 21.0 mph33.8 kmh 28.95 in980.4 mb 0.01 in0.3 mm 0.00 in0.0 mm 0.03 in0.8 mm
02:51 PM 54.6°F12.6°C 51.7°F10.9°C 90% 13.6 mph E21.9 kmh E 21.0 mph33.8 kmh 28.95 in980.4 mb 0.01 in0.3 mm 0.00 in0.0 mm 0.03 in0.8 mm
02:52 PM 54.6°F12.6°C 51.4°F10.8°C 89% 15.2 mph E24.5 kmh E 19.0 mph30.6 kmh 28.95 in980.4 mb 0.01 in0.3 mm 0.00 in0.0 mm 0.03 in0.8 mm
02:53 PM 54.7°F12.6°C 51.8°F11.0°C 90% 10.8 mph E17.4 kmh E 19.0 mph30.6 kmh 28.95 in980.4 mb 0.01 in0.3 mm 0.00 in0.0 mm 0.03 in0.8 mm
02:54 PM 54.7°F12.6°C 51.8°F11.0°C 90% 11.4 mph E18.3 kmh E 17.0 mph27.4 kmh 28.95 in980.4 mb 0.01 in0.3 mm 0.00 in0.0 mm 0.03 in0.8 mm
02:55 PM 54.7°F12.6°C 51.5°F10.8°C 89% 15.9 mph E25.6 kmh E 22.0 mph35.4 kmh 28.95 in980.4 mb 0.01 in0.3 mm 0.00 in0.0 mm 0.03 in0.8 mm
02:56 PM 54.8°F12.7°C 51.6°F10.9°C 89% 15.1 mph E24.3 kmh E 22.0 mph35.4 kmh 28.95 in980.4 mb 0.01 in0.3 mm 0.00 in0.0 mm 0.03 in0.8 mm
02:57 PM 54.8°F12.7°C 51.6°F10.9°C 89% 13.2 mph E21.2 kmh E 19.0 mph30.6 kmh 28.95 in980.4 mb 0.01 in0.3 mm 0.00 in0.0 mm 0.03 in0.8 mm
02:58 PM 54.8°F12.7°C 51.6°F10.9°C 89% 13.5 mph E21.7 kmh E 17.0 mph27.4 kmh 28.95 in980.4 mb 0.01 in0.3 mm 0.00 in0.0 mm 0.03 in0.8 mm
02:59 PM 54.8°F12.7°C 51.6°F10.9°C 89% 12.3 mph E19.8 kmh E 17.0 mph27.4 kmh 28.95 in980.4 mb 0.01 in0.3 mm 0.00 in0.0 mm 0.03 in0.8 mm
03:00 PM 54.9°F12.7°C 51.7°F10.9°C 89% 11.0 mph E17.7 kmh E 17.0 mph27.4 kmh 28.95 in980.4 mb 0.01 in0.3 mm 0.00 in0.0 mm 0.03 in0.8 mm
03:01 PM 54.9°F12.7°C 51.7°F10.9°C 89% 12.7 mph E20.4 kmh E 17.0 mph27.4 kmh 28.95 in980.4 mb 0.01 in0.3 mm 0.00 in0.0 mm 0.03 in0.8 mm
03:02 PM 55.0°F12.8°C 51.8°F11.0°C 89% 13.2 mph E21.2 kmh E 16.0 mph25.7 kmh 28.95 in980.4 mb 0.01 in0.3 mm 0.00 in0.0 mm 0.03 in0.8 mm
03:03 PM 55.0°F12.8°C 51.8°F11.0°C 89% 13.7 mph E22.0 kmh E 18.0 mph29.0 kmh 28.95 in980.4 mb 0.01 in0.3 mm 0.00 in0.0 mm 0.03 in0.8 mm
03:04 PM 55.0°F12.8°C 51.5°F10.8°C 88% 11.5 mph E18.5 kmh E 18.0 mph29.0 kmh 28.94 in980.0 mb 0.01 in0.3 mm 0.00 in0.0 mm 0.03 in0.8 mm
03:05 PM 55.1°F12.8°C 51.9°F11.1°C 89% 10.7 mph E17.2 kmh E 16.0 mph25.7 kmh 28.95 in980.4 mb 0.01 in0.3 mm 0.00 in0.0 mm 0.03 in0.8 mm
03:06 PM 55.1°F12.8°C 51.9°F11.1°C 89% 9.5 mph E15.3 kmh E 13.0 mph20.9 kmh 28.95 in980.4 mb 0.01 in0.3 mm 0.00 in0.0 mm 0.03 in0.8 mm
03:07 PM 55.1°F12.8°C 51.9°F11.1°C 89% 10.8 mph E17.4 kmh E 16.0 mph25.7 kmh 28.94 in980.0 mb 0.01 in0.3 mm 0.00 in0.0 mm 0.03 in0.8 mm
03:08 PM 55.1°F12.8°C 51.9°F11.1°C 89% 14.1 mph E22.7 kmh E 17.0 mph27.4 kmh 28.94 in980.0 mb 0.01 in0.3 mm 0.00 in0.0 mm 0.03 in0.8 mm
03:09 PM 55.2°F12.9°C 52.0°F11.1°C 89% 15.1 mph E24.3 kmh E 19.0 mph30.6 kmh 28.94 in980.0 mb 0.01 in0.3 mm 0.00 in0.0 mm 0.03 in0.8 mm
03:10 PM 55.2°F12.9°C 51.7°F10.9°C 88% 14.8 mph E23.8 kmh E 19.0 mph30.6 kmh 28.94 in980.0 mb 0.01 in0.3 mm 0.00 in0.0 mm 0.03 in0.8 mm
03:11 PM 55.2°F12.9°C 51.7°F10.9°C 88% 13.0 mph E20.9 kmh E 18.0 mph29.0 kmh 28.94 in980.0 mb 0.01 in0.3 mm 0.00 in0.0 mm 0.03 in0.8 mm
03:12 PM 55.2°F12.9°C 52.0°F11.1°C 89% 10.8 mph E17.4 kmh E 17.0 mph27.4 kmh 28.94 in980.0 mb 0.01 in0.3 mm 0.00 in0.0 mm 0.03 in0.8 mm
03:13 PM 55.2°F12.9°C 52.0°F11.1°C 89% 9.4 mph E15.1 kmh E 15.0 mph24.1 kmh 28.94 in980.0 mb 0.01 in0.3 mm 0.00 in0.0 mm 0.03 in0.8 mm
03:14 PM 55.2°F12.9°C 52.0°F11.1°C 89% 12.2 mph E19.6 kmh E 15.0 mph24.1 kmh 28.94 in980.0 mb 0.01 in0.3 mm 0.00 in0.0 mm 0.03 in0.8 mm
03:15 PM 55.3°F12.9°C 51.8°F11.0°C 88% 11.6 mph E18.7 kmh E 15.0 mph24.1 kmh 28.94 in980.0 mb 0.01 in0.3 mm 0.00 in0.0 mm 0.03 in0.8 mm
03:16 PM 55.3°F12.9°C 51.8°F11.0°C 88% 11.3 mph ENE18.2 kmh ENE 16.0 mph25.7 kmh 28.94 in980.0 mb 0.01 in0.3 mm 0.00 in0.0 mm 0.03 in0.8 mm
03:17 PM 55.3°F12.9°C 52.1°F11.2°C 89% 9.9 mph E15.9 kmh E 16.0 mph25.7 kmh 28.94 in980.0 mb 0.01 in0.3 mm 0.00 in0.0 mm 0.03 in0.8 mm
03:18 PM 55.3°F12.9°C 51.8°F11.0°C 88% 13.1 mph E21.1 kmh E 16.0 mph25.7 kmh 28.94 in980.0 mb 0.00 in0.0 mm 0.00 in0.0 mm 0.03 in0.8 mm
03:19 PM 55.3°F12.9°C 51.8°F11.0°C 88% 13.1 mph E21.1 kmh E 16.0 mph25.7 kmh 28.94 in980.0 mb 0.00 in0.0 mm 0.00 in0.0 mm 0.03 in0.8 mm
03:20 PM 55.4°F13.0°C 51.9°F11.1°C 88% 11.2 mph E18.0 kmh E 16.0 mph25.7 kmh 28.94 in980.0 mb 0.00 in0.0 mm 0.00 in0.0 mm 0.03 in0.8 mm
03:21 PM 55.3°F12.9°C 52.1°F11.2°C 89% 9.7 mph E15.6 kmh E 15.0 mph24.1 kmh 28.94 in980.0 mb 0.00 in0.0 mm 0.00 in0.0 mm 0.03 in0.8 mm
03:22 PM 55.4°F13.0°C 52.2°F11.2°C 89% 11.7 mph E18.8 kmh E 15.0 mph24.1 kmh 28.94 in980.0 mb 0.00 in0.0 mm 0.00 in0.0 mm 0.03 in0.8 mm
03:23 PM 55.4°F13.0°C 52.2°F11.2°C 89% 13.0 mph ENE20.9 kmh ENE 15.0 mph24.1 kmh 28.94 in980.0 mb 0.00 in0.0 mm 0.00 in0.0 mm 0.03 in0.8 mm
03:24 PM 55.4°F13.0°C 51.9°F11.1°C 88% 10.8 mph ENE17.4 kmh ENE 15.0 mph24.1 kmh 28.94 in980.0 mb 0.00 in0.0 mm 0.00 in0.0 mm 0.03 in0.8 mm
03:25 PM 55.4°F13.0°C 52.2°F11.2°C 89% 12.8 mph E20.6 kmh E 16.0 mph25.7 kmh 28.94 in980.0 mb 0.00 in0.0 mm 0.00 in0.0 mm 0.03 in0.8 mm
03:26 PM 55.5°F13.1°C 52.0°F11.1°C 88% 11.7 mph ENE18.8 kmh ENE 16.0 mph25.7 kmh 28.94 in980.0 mb 0.00 in0.0 mm 0.00 in0.0 mm 0.03 in0.8 mm
03:27 PM 55.4°F13.0°C 51.9°F11.1°C 88% 10.7 mph ENE17.2 kmh ENE 14.0 mph22.5 kmh 28.94 in980.0 mb 0.00 in0.0 mm 0.00 in0.0 mm 0.03 in0.8 mm
03:28 PM 55.4°F13.0°C 52.2°F11.2°C 89% 9.1 mph E14.6 kmh E 14.0 mph22.5 kmh 28.94 in980.0 mb 0.00 in0.0 mm 0.00 in0.0 mm 0.03 in0.8 mm
03:29 PM 55.5°F13.1°C 52.3°F11.3°C 89% 12.9 mph E20.8 kmh E 16.0 mph25.7 kmh 28.94 in980.0 mb 0.00 in0.0 mm 0.00 in0.0 mm 0.03 in0.8 mm
03:30 PM 55.5°F13.1°C 52.3°F11.3°C 89% 11.2 mph E18.0 kmh E 16.0 mph25.7 kmh 28.94 in980.0 mb 0.00 in0.0 mm 0.00 in0.0 mm 0.03 in0.8 mm
03:31 PM 55.5°F13.1°C 52.3°F11.3°C 89% 7.5 mph E12.1 kmh E 15.0 mph24.1 kmh 28.94 in980.0 mb 0.00 in0.0 mm 0.00 in0.0 mm 0.03 in0.8 mm
03:32 PM 55.5°F13.1°C 52.3°F11.3°C 89% 7.9 mph E12.7 kmh E 12.0 mph19.3 kmh 28.94 in980.0 mb 0.00 in0.0 mm 0.00 in0.0 mm 0.03 in0.8 mm
03:33 PM 55.5°F13.1°C 52.3°F11.3°C 89% 9.1 mph E14.6 kmh E 12.0 mph19.3 kmh 28.94 in980.0 mb 0.00 in0.0 mm 0.00 in0.0 mm 0.03 in0.8 mm
03:34 PM 55.6°F13.1°C 52.4°F11.3°C 89% 7.6 mph E12.2 kmh E 11.0 mph17.7 kmh 28.94 in980.0 mb 0.00 in0.0 mm 0.00 in0.0 mm 0.03 in0.8 mm
03:35 PM 55.6°F13.1°C 52.4°F11.3°C 89% 11.3 mph ENE18.2 kmh ENE 15.0 mph24.1 kmh 28.94 in980.0 mb 0.00 in0.0 mm 0.00 in0.0 mm 0.03 in0.8 mm
03:36 PM 55.7°F13.2°C 52.5°F11.4°C 89% 10.3 mph ENE16.6 kmh ENE 15.0 mph24.1 kmh 28.94 in980.0 mb 0.00 in0.0 mm 0.00 in0.0 mm 0.03 in0.8 mm
03:37 PM 55.7°F13.2°C 52.5°F11.4°C 89% 9.4 mph ENE15.1 kmh ENE 13.0 mph20.9 kmh 28.94 in980.0 mb 0.00 in0.0 mm 0.00 in0.0 mm 0.03 in0.8 mm
03:38 PM 55.7°F13.2°C 52.5°F11.4°C 89% 8.6 mph E13.8 kmh E 11.0 mph17.7 kmh 28.94 in980.0 mb 0.00 in0.0 mm 0.00 in0.0 mm 0.03 in0.8 mm
03:39 PM 55.7°F13.2°C 52.5°F11.4°C 89% 9.0 mph ENE14.5 kmh ENE 13.0 mph20.9 kmh 28.94 in980.0 mb 0.00 in0.0 mm 0.00 in0.0 mm 0.03 in0.8 mm
03:40 PM 55.7°F13.2°C 52.5°F11.4°C 89% 10.6 mph E17.1 kmh E 13.0 mph20.9 kmh 28.94 in980.0 mb 0.00 in0.0 mm 0.00 in0.0 mm 0.03 in0.8 mm
03:41 PM 55.7°F13.2°C 52.5°F11.4°C 89% 8.7 mph E14.0 kmh E 13.0 mph20.9 kmh 28.94 in980.0 mb 0.00 in0.0 mm 0.00 in0.0 mm 0.03 in0.8 mm
03:42 PM 55.7°F13.2°C 52.5°F11.4°C 89% 7.9 mph ENE12.7 kmh ENE 13.0 mph20.9 kmh 28.94 in980.0 mb 0.00 in0.0 mm 0.00 in0.0 mm 0.03 in0.8 mm
03:43 PM 55.7°F13.2°C 52.5°F11.4°C 89% 5.5 mph ENE8.9 kmh ENE 10.0 mph16.1 kmh 28.94 in980.0 mb 0.00 in0.0 mm 0.00 in0.0 mm 0.03 in0.8 mm
03:44 PM 55.8°F13.2°C 52.6°F11.4°C 89% 7.3 mph ENE11.7 kmh ENE 11.0 mph17.7 kmh 28.94 in980.0 mb 0.00 in0.0 mm 0.00 in0.0 mm 0.03 in0.8 mm
03:45 PM 55.8°F13.2°C 52.6°F11.4°C 89% 7.4 mph ENE11.9 kmh ENE 11.0 mph17.7 kmh 28.94 in980.0 mb 0.00 in0.0 mm 0.00 in0.0 mm 0.03 in0.8 mm
03:46 PM 55.8°F13.2°C 52.6°F11.4°C 89% 8.3 mph ENE13.4 kmh ENE 12.0 mph19.3 kmh 28.94 in980.0 mb 0.00 in0.0 mm 0.00 in0.0 mm 0.03 in0.8 mm
03:47 PM 55.8°F13.2°C 52.6°F11.4°C 89% 11.8 mph E19.0 kmh E 15.0 mph24.1 kmh 28.94 in980.0 mb 0.00 in0.0 mm 0.00 in0.0 mm 0.03 in0.8 mm
03:48 PM 55.8°F13.2°C 52.6°F11.4°C 89% 10.0 mph E16.1 kmh E 15.0 mph24.1 kmh 28.94 in980.0 mb 0.00 in0.0 mm 0.00 in0.0 mm 0.03 in0.8 mm
03:49 PM 55.8°F13.2°C 52.6°F11.4°C 89% 7.7 mph E12.4 kmh E 15.0 mph24.1 kmh 28.94 in980.0 mb 0.00 in0.0 mm 0.00 in0.0 mm 0.03 in0.8 mm
03:50 PM 55.8°F13.2°C 52.6°F11.4°C 89% 9.4 mph ENE15.1 kmh ENE 16.0 mph25.7 kmh 28.94 in980.0 mb 0.00 in0.0 mm 0.00 in0.0 mm 0.03 in0.8 mm
03:51 PM 55.8°F13.2°C 52.6°F11.4°C 89% 8.6 mph ENE13.8 kmh ENE 16.0 mph25.7 kmh 28.93 in979.7 mb 0.00 in0.0 mm 0.00 in0.0 mm 0.03 in0.8 mm
03:52 PM 55.9°F13.3°C 52.7°F11.5°C 89% 10.9 mph ENE17.5 kmh ENE 15.0 mph24.1 kmh 28.94 in980.0 mb 0.00 in0.0 mm 0.00 in0.0 mm 0.03 in0.8 mm
03:53 PM 55.9°F13.3°C 52.7°F11.5°C 89% 10.9 mph ENE17.5 kmh ENE 15.0 mph24.1 kmh 28.93 in979.7 mb 0.00 in0.0 mm 0.00 in0.0 mm 0.03 in0.8 mm
03:54 PM 55.9°F13.3°C 52.7°F11.5°C 89% 11.2 mph ENE18.0 kmh ENE 14.0 mph22.5 kmh 28.93 in979.7 mb 0.00 in0.0 mm 0.00 in0.0 mm 0.03 in0.8 mm
03:55 PM 55.9°F13.3°C 52.7°F11.5°C 89% 8.0 mph ENE12.9 kmh ENE 14.0 mph22.5 kmh 28.93 in979.7 mb 0.00 in0.0 mm 0.00 in0.0 mm 0.03 in0.8 mm
03:56 PM 55.9°F13.3°C 52.7°F11.5°C 89% 7.7 mph NE12.4 kmh NE 12.0 mph19.3 kmh 28.93 in979.7 mb 0.00 in0.0 mm 0.00 in0.0 mm 0.03 in0.8 mm
03:57 PM 55.9°F13.3°C 52.7°F11.5°C 89% 6.4 mph NE10.3 kmh NE 12.0 mph19.3 kmh 28.93 in979.7 mb 0.00 in0.0 mm 0.00 in0.0 mm 0.03 in0.8 mm
03:58 PM 55.9°F13.3°C 52.7°F11.5°C 89% 7.4 mph ENE11.9 kmh ENE 10.0 mph16.1 kmh 28.93 in979.7 mb 0.00 in0.0 mm 0.00 in0.0 mm 0.03 in0.8 mm
03:59 PM 56.0°F13.3°C 52.8°F11.6°C 89% 7.9 mph ENE12.7 kmh ENE 10.0 mph16.1 kmh 28.93 in979.7 mb 0.00 in0.0 mm 0.00 in0.0 mm 0.03 in0.8 mm
04:00 PM 56.0°F13.3°C 52.8°F11.6°C 89% 6.9 mph ENE11.1 kmh ENE 10.0 mph16.1 kmh 28.93 in979.7 mb 0.00 in0.0 mm 0.00 in0.0 mm 0.03 in0.8 mm
04:01 PM 56.0°F13.3°C 52.8°F11.6°C 89% 6.8 mph NE10.9 kmh NE 11.0 mph17.7 kmh 28.93 in979.7 mb 0.00 in0.0 mm 0.00 in0.0 mm 0.03 in0.8 mm
04:02 PM 56.0°F13.3°C 52.8°F11.6°C 89% 8.7 mph ENE14.0 kmh ENE 11.0 mph17.7 kmh 28.93 in979.7 mb 0.00 in0.0 mm 0.00 in0.0 mm 0.03 in0.8 mm
04:03 PM 56.0°F13.3°C 52.8°F11.6°C 89% 5.1 mph NE8.2 kmh NE 10.0 mph16.1 kmh 28.93 in979.7 mb 0.00 in0.0 mm 0.00 in0.0 mm 0.03 in0.8 mm
04:04 PM 56.0°F13.3°C 52.8°F11.6°C 89% 5.0 mph NE8.0 kmh NE 9.0 mph14.5 kmh 28.93 in979.7 mb 0.00 in0.0 mm 0.00 in0.0 mm 0.03 in0.8 mm
04:05 PM 56.0°F13.3°C 52.8°F11.6°C 89% 7.3 mph NE11.7 kmh NE 10.0 mph16.1 kmh 28.93 in979.7 mb 0.00 in0.0 mm 0.00 in0.0 mm 0.03 in0.8 mm
04:06 PM 56.0°F13.3°C 52.8°F11.6°C 89% 10.1 mph NE16.3 kmh NE 13.0 mph20.9 kmh 28.93 in979.7 mb 0.00 in0.0 mm 0.00 in0.0 mm 0.03 in0.8 mm
04:07 PM 56.0°F13.3°C 52.8°F11.6°C 89% 9.3 mph NE15.0 kmh NE 13.0 mph20.9 kmh 28.93 in979.7 mb 0.00 in0.0 mm 0.00 in0.0 mm 0.03 in0.8 mm
04:08 PM 56.0°F13.3°C 52.8°F11.6°C 89% 6.7 mph NE10.8 kmh NE 13.0 mph20.9 kmh 28.93 in979.7 mb 0.00 in0.0 mm 0.00 in0.0 mm 0.03 in0.8 mm
04:09 PM 56.0°F13.3°C 52.8°F11.6°C 89% 7.6 mph NE12.2 kmh NE 10.0 mph16.1 kmh 28.93 in979.7 mb 0.00 in0.0 mm 0.00 in0.0 mm 0.03 in0.8 mm
04:10 PM 56.0°F13.3°C 52.8°F11.6°C 89% 8.2 mph NE13.2 kmh NE 12.0 mph19.3 kmh 28.93 in979.7 mb 0.00 in0.0 mm 0.00 in0.0 mm 0.03 in0.8 mm
04:11 PM 56.0°F13.3°C 52.8°F11.6°C 89% 6.5 mph NE10.5 kmh NE 12.0 mph19.3 kmh 28.93 in979.7 mb 0.00 in0.0 mm 0.00 in0.0 mm 0.03 in0.8 mm
04:12 PM 56.0°F13.3°C 52.8°F11.6°C 89% 7.6 mph NE12.2 kmh NE 11.0 mph17.7 kmh 28.93 in979.7 mb 0.00 in0.0 mm 0.00 in0.0 mm 0.03 in0.8 mm
04:13 PM 56.0°F13.3°C 52.8°F11.6°C 89% 9.0 mph NE14.5 kmh NE 11.0 mph17.7 kmh 28.93 in979.7 mb 0.00 in0.0 mm 0.00 in0.0 mm 0.03 in0.8 mm
04:14 PM 56.0°F13.3°C 52.8°F11.6°C 89% 5.8 mph NE9.3 kmh NE 11.0 mph17.7 kmh 28.93 in979.7 mb 0.00 in0.0 mm 0.00 in0.0 mm 0.03 in0.8 mm
04:15 PM 56.0°F13.3°C 52.8°F11.6°C 89% 5.9 mph NE9.5 kmh NE 10.0 mph16.1 kmh 28.93 in979.7 mb 0.00 in0.0 mm 0.00 in0.0 mm 0.03 in0.8 mm
04:16 PM 56.0°F13.3°C 52.8°F11.6°C 89% 6.4 mph NE10.3 kmh NE 10.0 mph16.1 kmh 28.93 in979.7 mb 0.00 in0.0 mm 0.00 in0.0 mm 0.03 in0.8 mm
04:17 PM 56.0°F13.3°C 52.8°F11.6°C 89% 6.4 mph NE10.3 kmh NE 10.0 mph16.1 kmh 28.93 in979.7 mb 0.00 in0.0 mm 0.00 in0.0 mm 0.03 in0.8 mm
04:18 PM 56.0°F13.3°C 52.8°F11.6°C 89% 8.8 mph NE14.2 kmh NE 11.0 mph17.7 kmh 28.93 in979.7 mb 0.00 in0.0 mm 0.00 in0.0 mm 0.03 in0.8 mm
04:19 PM 56.0°F13.3°C 52.8°F11.6°C 89% 7.5 mph NE12.1 kmh NE 11.0 mph17.7 kmh 28.93 in979.7 mb 0.00 in0.0 mm 0.00 in0.0 mm 0.03 in0.8 mm
04:20 PM 56.0°F13.3°C 52.8°F11.6°C 89% 8.6 mph NE13.8 kmh NE 13.0 mph20.9 kmh 28.93 in979.7 mb 0.00 in0.0 mm 0.00 in0.0 mm 0.03 in0.8 mm
04:21 PM 56.0°F13.3°C 52.8°F11.6°C 89% 8.0 mph NE12.9 kmh NE 13.0 mph20.9 kmh 28.93 in979.7 mb 0.00 in0.0 mm 0.00 in0.0 mm 0.03 in0.8 mm
04:22 PM 56.0°F13.3°C 52.8°F11.6°C 89% 11.4 mph NE18.3 kmh NE 13.0 mph20.9 kmh 28.93 in979.7 mb 0.00 in0.0 mm 0.00 in0.0 mm 0.03 in0.8 mm
04:23 PM 56.0°F13.3°C 52.8°F11.6°C 89% 11.0 mph NE17.7 kmh NE 13.0 mph20.9 kmh 28.93 in979.7 mb 0.00 in0.0 mm 0.00 in0.0 mm 0.03 in0.8 mm
04:24 PM 56.0°F13.3°C 52.8°F11.6°C 89% 8.6 mph NE13.8 kmh NE 13.0 mph20.9 kmh 28.93 in979.7 mb 0.00 in0.0 mm 0.00 in0.0 mm 0.03 in0.8 mm
04:25 PM 55.9°F13.3°C 52.7°F11.5°C 89% 8.2 mph NE13.2 kmh NE 12.0 mph19.3 kmh 28.93 in979.7 mb 0.00 in0.0 mm 0.00 in0.0 mm 0.03 in0.8 mm
04:26 PM 55.9°F13.3°C 52.7°F11.5°C 89% 5.0 mph NE8.0 kmh NE 11.0 mph17.7 kmh 28.93 in979.7 mb 0.00 in0.0 mm 0.00 in0.0 mm 0.03 in0.8 mm
04:27 PM 55.9°F13.3°C 52.7°F11.5°C 89% 5.9 mph NE9.5 kmh NE 9.0 mph14.5 kmh 28.93 in979.7 mb 0.00 in0.0 mm 0.00 in0.0 mm 0.03 in0.8 mm
04:28 PM 55.9°F13.3°C 52.7°F11.5°C 89% 8.1 mph NE13.0 kmh NE 10.0 mph16.1 kmh 28.93 in979.7 mb 0.00 in0.0 mm 0.00 in0.0 mm 0.03 in0.8 mm
04:29 PM 55.9°F13.3°C 52.7°F11.5°C 89% 9.2 mph NE14.8 kmh NE 12.0 mph19.3 kmh 28.93 in979.7 mb 0.00 in0.0 mm 0.00 in0.0 mm 0.03 in0.8 mm
04:30 PM 55.9°F13.3°C 52.7°F11.5°C 89% 6.7 mph NE10.8 kmh NE 12.0 mph19.3 kmh 28.93 in979.7 mb 0.00 in0.0 mm 0.00 in0.0 mm 0.03 in0.8 mm
04:31 PM 55.9°F13.3°C 52.7°F11.5°C 89% 5.4 mph NE8.7 kmh NE 9.0 mph14.5 kmh 28.93 in979.7 mb 0.00 in0.0 mm 0.00 in0.0 mm 0.03 in0.8 mm
04:32 PM 55.9°F13.3°C 53.0°F11.7°C 90% 7.4 mph NE11.9 kmh NE 9.0 mph14.5 kmh 28.93 in979.7 mb 0.00 in0.0 mm 0.00 in0.0 mm 0.03 in0.8 mm
04:33 PM 55.9°F13.3°C 53.0°F11.7°C 90% 6.5 mph NE10.5 kmh NE 11.0 mph17.7 kmh 28.93 in979.7 mb 0.00 in0.0 mm 0.00 in0.0 mm 0.03 in0.8 mm
04:34 PM 55.9°F13.3°C 53.0°F11.7°C 90% 8.5 mph NE13.7 kmh NE 11.0 mph17.7 kmh 28.93 in979.7 mb 0.00 in0.0 mm 0.00 in0.0 mm 0.03 in0.8 mm
04:35 PM 56.0°F13.3°C 53.1°F11.7°C 90% 8.5 mph NE13.7 kmh NE 11.0 mph17.7 kmh 28.93 in979.7 mb 0.00 in0.0 mm 0.00 in0.0 mm 0.03 in0.8 mm
04:36 PM 55.9°F13.3°C 53.0°F11.7°C 90% 10.1 mph NE16.3 kmh NE 12.0 mph19.3 kmh 28.93 in979.7 mb 0.00 in0.0 mm 0.00 in0.0 mm 0.03 in0.8 mm
04:37 PM 55.9°F13.3°C 53.0°F11.7°C 90% 7.6 mph NE12.2 kmh NE 12.0 mph19.3 kmh 28.93 in979.7 mb 0.00 in0.0 mm 0.00 in0.0 mm 0.03 in0.8 mm
04:38 PM 55.9°F13.3°C 53.0°F11.7°C 90% 7.0 mph NE11.3 kmh NE 10.0 mph16.1 kmh 28.93 in979.7 mb 0.00 in0.0 mm 0.00 in0.0 mm 0.03 in0.8 mm
04:39 PM 56.0°F13.3°C 53.1°F11.7°C 90% 7.2 mph NE11.6 kmh NE 10.0 mph16.1 kmh 28.93 in979.7 mb 0.00 in0.0 mm 0.00 in0.0 mm 0.03 in0.8 mm
04:40 PM 55.9°F13.3°C 53.0°F11.7°C 90% 5.2 mph NE8.4 kmh NE 10.0 mph16.1 kmh 28.93 in979.7 mb 0.00 in0.0 mm 0.00 in0.0 mm 0.03 in0.8 mm
04:41 PM 56.0°F13.3°C 53.1°F11.7°C 90% 4.7 mph NE7.6 kmh NE 9.0 mph14.5 kmh 28.93 in979.7 mb 0.00 in0.0 mm 0.00 in0.0 mm 0.03 in0.8 mm
04:42 PM 56.0°F13.3°C 53.1°F11.7°C 90% 5.1 mph NE8.2 kmh NE 9.0 mph14.5 kmh 28.93 in979.7 mb 0.00 in0.0 mm 0.00 in0.0 mm 0.03 in0.8 mm
04:43 PM 56.0°F13.3°C 53.1°F11.7°C 90% 9.5 mph NE15.3 kmh NE 12.0 mph19.3 kmh 28.93 in979.7 mb 0.00 in0.0 mm 0.00 in0.0 mm 0.03 in0.8 mm
04:44 PM 56.0°F13.3°C 53.1°F11.7°C 90% 7.6 mph NE12.2 kmh NE 12.0 mph19.3 kmh 28.93 in979.7 mb 0.00 in0.0 mm 0.00 in0.0 mm 0.03 in0.8 mm
04:45 PM 56.0°F13.3°C 53.1°F11.7°C 90% 8.3 mph NE13.4 kmh NE 12.0 mph19.3 kmh 28.93 in979.7 mb 0.00 in0.0 mm 0.00 in0.0 mm 0.03 in0.8 mm
04:46 PM 56.0°F13.3°C 53.1°F11.7°C 90% 8.3 mph NE13.4 kmh NE 12.0 mph19.3 kmh 28.93 in979.7 mb 0.00 in0.0 mm 0.00 in0.0 mm 0.03 in0.8 mm
04:47 PM 56.0°F13.3°C 53.1°F11.7°C 90% 7.1 mph NE11.4 kmh NE 11.0 mph17.7 kmh 28.93 in979.7 mb 0.00 in0.0 mm 0.00 in0.0 mm 0.03 in0.8 mm
04:48 PM 56.0°F13.3°C 53.1°F11.7°C 90% 6.1 mph NE9.8 kmh NE 10.0 mph16.1 kmh 28.93 in979.7 mb 0.00 in0.0 mm 0.00 in0.0 mm 0.03 in0.8 mm
04:49 PM 56.0°F13.3°C 53.1°F11.7°C 90% 4.9 mph NE7.9 kmh NE 9.0 mph14.5 kmh 28.93 in979.7 mb 0.00 in0.0 mm 0.00 in0.0 mm 0.03 in0.8 mm
04:50 PM 56.0°F13.3°C 53.1°F11.7°C 90% 6.0 mph NE9.7 kmh NE 9.0 mph14.5 kmh 28.93 in979.7 mb 0.00 in0.0 mm 0.00 in0.0 mm 0.03 in0.8 mm
04:51 PM 56.1°F13.4°C 53.2°F11.8°C 90% 6.4 mph NE10.3 kmh NE 10.0 mph16.1 kmh 28.93 in979.7 mb 0.00 in0.0 mm 0.00 in0.0 mm 0.03 in0.8 mm
04:52 PM 56.1°F13.4°C 53.2°F11.8°C 90% 9.9 mph NE15.9 kmh NE 12.0 mph19.3 kmh 28.93 in979.7 mb 0.00 in0.0 mm 0.00 in0.0 mm 0.03 in0.8 mm
04:53 PM 56.1°F13.4°C 53.2°F11.8°C 90% 6.8 mph NE10.9 kmh NE 12.0 mph19.3 kmh 28.93 in979.7 mb 0.00 in0.0 mm 0.00 in0.0 mm 0.03 in0.8 mm
04:54 PM 56.1°F13.4°C 53.2°F11.8°C 90% 7.2 mph NE11.6 kmh NE 9.0 mph14.5 kmh 28.93 in979.7 mb 0.00 in0.0 mm 0.00 in0.0 mm 0.03 in0.8 mm
04:55 PM 56.1°F13.4°C 53.2°F11.8°C 90% 6.0 mph NE9.7 kmh NE 11.0 mph17.7 kmh 28.93 in979.7 mb 0.00 in0.0 mm 0.00 in0.0 mm 0.03 in0.8 mm
04:56 PM 56.2°F13.4°C 53.3°F11.8°C 90% 5.7 mph NE9.2 kmh NE 11.0 mph17.7 kmh 28.93 in979.7 mb 0.00 in0.0 mm 0.00 in0.0 mm 0.03 in0.8 mm
04:57 PM 56.1°F13.4°C 53.2°F11.8°C 90% 6.1 mph NE9.8 kmh NE 10.0 mph16.1 kmh 28.93 in979.7 mb 0.00 in0.0 mm 0.00 in0.0 mm 0.03 in0.8 mm
04:58 PM 56.2°F13.4°C 53.3°F11.8°C 90% 5.5 mph NE8.9 kmh NE 9.0 mph14.5 kmh 28.93 in979.7 mb 0.00 in0.0 mm 0.00 in0.0 mm 0.03 in0.8 mm
04:59 PM 56.2°F13.4°C 53.3°F11.8°C 90% 5.0 mph NE8.0 kmh NE 9.0 mph14.5 kmh 28.93 in979.7 mb 0.00 in0.0 mm 0.00 in0.0 mm 0.03 in0.8 mm
05:00 PM 56.2°F13.4°C 53.3°F11.8°C 90% 8.3 mph NE13.4 kmh NE 10.0 mph16.1 kmh 28.93 in979.7 mb 0.00 in0.0 mm 0.00 in0.0 mm 0.03 in0.8 mm
05:01 PM 56.2°F13.4°C 53.3°F11.8°C 90% 6.5 mph NE10.5 kmh NE 10.0 mph16.1 kmh 28.93 in979.7 mb 0.00 in0.0 mm 0.00 in0.0 mm 0.03 in0.8 mm
05:02 PM 56.2°F13.4°C 53.3°F11.8°C 90% 7.7 mph NE12.4 kmh NE 11.0 mph17.7 kmh 28.93 in979.7 mb 0.00 in0.0 mm 0.00 in0.0 mm 0.03 in0.8 mm
05:03 PM 56.3°F13.5°C 53.4°F11.9°C 90% 5.3 mph NE8.5 kmh NE 11.0 mph17.7 kmh 28.93 in979.7 mb 0.00 in0.0 mm 0.00 in0.0 mm 0.03 in0.8 mm
05:04 PM 56.3°F13.5°C 53.4°F11.9°C 90% 7.1 mph NE11.4 kmh NE 10.0 mph16.1 kmh 28.93 in979.7 mb 0.00 in0.0 mm 0.00 in0.0 mm 0.03 in0.8 mm
05:05 PM 56.3°F13.5°C 53.4°F11.9°C 90% 7.5 mph NE12.1 kmh NE 11.0 mph17.7 kmh 28.93 in979.7 mb 0.00 in0.0 mm 0.00 in0.0 mm 0.03 in0.8 mm
05:06 PM 56.3°F13.5°C 53.4°F11.9°C 90% 9.8 mph NE15.8 kmh NE 12.0 mph19.3 kmh 28.93 in979.7 mb 0.00 in0.0 mm 0.00 in0.0 mm 0.03 in0.8 mm
05:07 PM 56.3°F13.5°C 53.4°F11.9°C 90% 7.8 mph NE12.6 kmh NE 12.0 mph19.3 kmh 28.93 in979.7 mb 0.00 in0.0 mm 0.00 in0.0 mm 0.03 in0.8 mm
05:08 PM 56.3°F13.5°C 53.4°F11.9°C 90% 9.2 mph NE14.8 kmh NE 12.0 mph19.3 kmh 28.93 in979.7 mb 0.00 in0.0 mm 0.00 in0.0 mm 0.03 in0.8 mm
05:09 PM 56.3°F13.5°C 53.4°F11.9°C 90% 5.7 mph NE9.2 kmh NE 11.0 mph17.7 kmh 28.93 in979.7 mb 0.00 in0.0 mm 0.00 in0.0 mm 0.03 in0.8 mm
05:10 PM 56.3°F13.5°C 53.4°F11.9°C 90% 7.0 mph NE11.3 kmh NE 10.0 mph16.1 kmh 28.93 in979.7 mb 0.00 in0.0 mm 0.00 in0.0 mm 0.03 in0.8 mm
05:11 PM 56.3°F13.5°C 53.4°F11.9°C 90% 9.5 mph NE15.3 kmh NE 12.0 mph19.3 kmh 28.93 in979.7 mb 0.00 in0.0 mm 0.00 in0.0 mm 0.03 in0.8 mm
05:12 PM 56.4°F13.6°C 53.5°F11.9°C 90% 7.8 mph NE12.6 kmh NE 12.0 mph19.3 kmh 28.93 in979.7 mb 0.00 in0.0 mm 0.00 in0.0 mm 0.03 in0.8 mm
05:13 PM 56.4°F13.6°C 53.5°F11.9°C 90% 6.0 mph NE9.7 kmh NE 11.0 mph17.7 kmh 28.93 in979.7 mb 0.00 in0.0 mm 0.00 in0.0 mm 0.03 in0.8 mm
05:14 PM 56.4°F13.6°C 53.5°F11.9°C 90% 9.1 mph NE14.6 kmh NE 13.0 mph20.9 kmh 28.93 in979.7 mb 0.00 in0.0 mm 0.00 in0.0 mm 0.03 in0.8 mm
05:15 PM 56.4°F13.6°C 53.5°F11.9°C 90% 8.6 mph NE13.8 kmh NE 13.0 mph20.9 kmh 28.93 in979.7 mb 0.00 in0.0 mm 0.00 in0.0 mm 0.03 in0.8 mm
05:16 PM 56.5°F13.6°C 53.6°F12.0°C 90% 7.4 mph NE11.9 kmh NE 12.0 mph19.3 kmh 28.93 in979.7 mb 0.00 in0.0 mm 0.00 in0.0 mm 0.03 in0.8 mm
05:17 PM 56.5°F13.6°C 53.6°F12.0°C 90% 6.0 mph NE9.7 kmh NE 11.0 mph17.7 kmh 28.93 in979.7 mb 0.00 in0.0 mm 0.00 in0.0 mm 0.03 in0.8 mm
05:18 PM 56.5°F13.6°C 53.6°F12.0°C 90% 9.3 mph NE15.0 kmh NE 13.0 mph20.9 kmh 28.93 in979.7 mb 0.00 in0.0 mm 0.00 in0.0 mm 0.03 in0.8 mm
05:19 PM 56.5°F13.6°C 53.6°F12.0°C 90% 9.4 mph NE15.1 kmh NE 13.0 mph20.9 kmh 28.93 in979.7 mb 0.00 in0.0 mm 0.00 in0.0 mm 0.03 in0.8 mm
05:20 PM 56.5°F13.6°C 53.6°F12.0°C 90% 9.1 mph NE14.6 kmh NE 12.0 mph19.3 kmh 28.93 in979.7 mb 0.00 in0.0 mm 0.00 in0.0 mm 0.03 in0.8 mm
05:21 PM 56.5°F13.6°C 53.6°F12.0°C 90% 7.2 mph NE11.6 kmh NE 11.0 mph17.7 kmh 28.93 in979.7 mb 0.00 in0.0 mm 0.00 in0.0 mm 0.03 in0.8 mm
05:22 PM 56.5°F13.6°C 53.6°F12.0°C 90% 8.2 mph NE13.2 kmh NE 11.0 mph17.7 kmh 28.93 in979.7 mb 0.00 in0.0 mm 0.00 in0.0 mm 0.03 in0.8 mm
05:23 PM 56.6°F13.7°C 53.7°F12.1°C 90% 9.0 mph NE14.5 kmh NE 12.0 mph19.3 kmh 28.93 in979.7 mb 0.00 in0.0 mm 0.00 in0.0 mm 0.03 in0.8 mm
05:24 PM 56.5°F13.6°C 53.6°F12.0°C 90% 7.0 mph NE11.3 kmh NE 9.0 mph14.5 kmh 28.93 in979.7 mb 0.00 in0.0 mm 0.00 in0.0 mm 0.03 in0.8 mm
05:25 PM 56.5°F13.6°C 53.6°F12.0°C 90% 6.0 mph NE9.7 kmh NE 9.0 mph14.5 kmh 28.93 in979.7 mb 0.00 in0.0 mm 0.00 in0.0 mm 0.03 in0.8 mm
05:26 PM 56.5°F13.6°C 53.6°F12.0°C 90% 10.4 mph NE16.7 kmh NE 12.0 mph19.3 kmh 28.93 in979.7 mb 0.00 in0.0 mm 0.00 in0.0 mm 0.03 in0.8 mm
05:27 PM 56.5°F13.6°C 53.6°F12.0°C 90% 7.8 mph NE12.6 kmh NE 12.0 mph19.3 kmh 28.93 in979.7 mb 0.00 in0.0 mm 0.00 in0.0 mm 0.03 in0.8 mm
05:28 PM 56.6°F13.7°C 53.7°F12.1°C 90% 8.8 mph NE14.2 kmh NE 12.0 mph19.3 kmh 28.93 in979.7 mb 0.00 in0.0 mm 0.00 in0.0 mm 0.03 in0.8 mm
05:29 PM 56.6°F13.7°C 53.7°F12.1°C 90% 6.5 mph NE10.5 kmh NE 12.0 mph19.3 kmh 28.93 in979.7 mb 0.00 in0.0 mm 0.00 in0.0 mm 0.03 in0.8 mm
05:30 PM 56.5°F13.6°C 53.6°F12.0°C 90% 9.5 mph NE15.3 kmh NE 14.0 mph22.5 kmh 28.93 in979.7 mb 0.00 in0.0 mm 0.00 in0.0 mm 0.03 in0.8 mm
05:31 PM 56.6°F13.7°C 53.7°F12.1°C 90% 11.0 mph NE17.7 kmh NE 14.0 mph22.5 kmh 28.93 in979.7 mb 0.00 in0.0 mm 0.00 in0.0 mm 0.03 in0.8 mm
05:32 PM 56.6°F13.7°C 53.7°F12.1°C 90% 8.0 mph NE12.9 kmh NE 11.0 mph17.7 kmh 28.93 in979.7 mb 0.00 in0.0 mm 0.00 in0.0 mm 0.03 in0.8 mm
05:33 PM 56.6°F13.7°C 53.7°F12.1°C 90% 6.4 mph NE10.3 kmh NE 10.0 mph16.1 kmh 28.93 in979.7 mb 0.00 in0.0 mm 0.00 in0.0 mm 0.03 in0.8 mm
05:34 PM 56.6°F13.7°C 53.7°F12.1°C 90% 6.8 mph NE10.9 kmh NE 10.0 mph16.1 kmh 28.93 in979.7 mb 0.00 in0.0 mm 0.00 in0.0 mm 0.03 in0.8 mm
05:35 PM 56.6°F13.7°C 54.0°F12.2°C 91% 8.7 mph NNE14.0 kmh NNE 14.0 mph22.5 kmh 28.93 in979.7 mb 0.00 in0.0 mm 0.00 in0.0 mm 0.03 in0.8 mm
05:36 PM 56.6°F13.7°C 53.7°F12.1°C 90% 8.6 mph NE13.8 kmh NE 14.0 mph22.5 kmh 28.93 in979.7 mb 0.00 in0.0 mm 0.00 in0.0 mm 0.03 in0.8 mm
05:37 PM 56.6°F13.7°C 53.7°F12.1°C 90% 10.7 mph NE17.2 kmh NE 14.0 mph22.5 kmh 28.93 in979.7 mb 0.00 in0.0 mm 0.00 in0.0 mm 0.03 in0.8 mm
05:38 PM 56.6°F13.7°C 53.7°F12.1°C 90% 9.9 mph NE15.9 kmh NE 14.0 mph22.5 kmh 28.93 in979.7 mb 0.00 in0.0 mm 0.00 in0.0 mm 0.03 in0.8 mm
05:39 PM 56.5°F13.6°C 53.6°F12.0°C 90% 9.1 mph NE14.6 kmh NE 14.0 mph22.5 kmh 28.93 in979.7 mb 0.00 in0.0 mm 0.00 in0.0 mm 0.03 in0.8 mm
05:40 PM 56.5°F13.6°C 53.6°F12.0°C 90% 8.4 mph NE13.5 kmh NE 13.0 mph20.9 kmh 28.93 in979.7 mb 0.00 in0.0 mm 0.00 in0.0 mm 0.03 in0.8 mm
05:41 PM 56.5°F13.6°C 53.6°F12.0°C 90% 11.3 mph NE18.2 kmh NE 15.0 mph24.1 kmh 28.93 in979.7 mb 0.00 in0.0 mm 0.00 in0.0 mm 0.03 in0.8 mm
05:42 PM 56.5°F13.6°C 53.6°F12.0°C 90% 12.0 mph NE19.3 kmh NE 15.0 mph24.1 kmh 28.93 in979.7 mb 0.00 in0.0 mm 0.00 in0.0 mm 0.03 in0.8 mm
05:43 PM 56.5°F13.6°C 53.6°F12.0°C 90% 10.0 mph NE16.1 kmh NE 15.0 mph24.1 kmh 28.93 in979.7 mb 0.00 in0.0 mm 0.00 in0.0 mm 0.03 in0.8 mm
05:44 PM 56.4°F13.6°C 53.5°F11.9°C 90% 11.5 mph NE18.5 kmh NE 15.0 mph24.1 kmh 28.93 in979.7 mb 0.00 in0.0 mm 0.00 in0.0 mm 0.03 in0.8 mm
05:45 PM 56.4°F13.6°C 53.5°F11.9°C 90% 11.1 mph NE17.9 kmh NE 16.0 mph25.7 kmh 28.93 in979.7 mb 0.00 in0.0 mm 0.00 in0.0 mm 0.03 in0.8 mm
05:46 PM 56.3°F13.5°C 53.4°F11.9°C 90% 10.8 mph NE17.4 kmh NE 16.0 mph25.7 kmh 28.93 in979.7 mb 0.00 in0.0 mm 0.00 in0.0 mm 0.03 in0.8 mm
05:47 PM 56.3°F13.5°C 53.4°F11.9°C 90% 8.0 mph NE12.9 kmh NE 13.0 mph20.9 kmh 28.93 in979.7 mb 0.00 in0.0 mm 0.00 in0.0 mm 0.03 in0.8 mm
05:48 PM 56.3°F13.5°C 53.4°F11.9°C 90% 7.5 mph NE12.1 kmh NE 11.0 mph17.7 kmh 28.93 in979.7 mb 0.00 in0.0 mm 0.00 in0.0 mm 0.03 in0.8 mm
05:49 PM 56.3°F13.5°C 53.4°F11.9°C 90% 7.1 mph NE11.4 kmh NE 11.0 mph17.7 kmh 28.93 in979.7 mb 0.00 in0.0 mm 0.00 in0.0 mm 0.03 in0.8 mm
05:50 PM 56.3°F13.5°C 53.4°F11.9°C 90% 11.4 mph NE18.3 kmh NE 14.0 mph22.5 kmh 28.93 in979.7 mb 0.00 in0.0 mm 0.00 in0.0 mm 0.03 in0.8 mm
05:51 PM 56.2°F13.4°C 53.3°F11.8°C 90% 9.8 mph NE15.8 kmh NE 14.0 mph22.5 kmh 28.93 in979.7 mb 0.00 in0.0 mm 0.00 in0.0 mm 0.03 in0.8 mm
05:52 PM 56.2°F13.4°C 53.3°F11.8°C 90% 6.0 mph NE9.7 kmh NE 9.0 mph14.5 kmh 28.93 in979.7 mb 0.00 in0.0 mm 0.00 in0.0 mm 0.03 in0.8 mm
05:53 PM 56.2°F13.4°C 53.3°F11.8°C 90% 9.0 mph NE14.5 kmh NE 12.0 mph19.3 kmh 28.93 in979.7 mb 0.00 in0.0 mm 0.00 in0.0 mm 0.03 in0.8 mm
05:54 PM 56.2°F13.4°C 53.3°F11.8°C 90% 10.6 mph NE17.1 kmh NE 11.0 mph17.7 kmh 28.93 in979.7 mb 0.00 in0.0 mm 0.00 in0.0 mm 0.03 in0.8 mm
05:55 PM 56.1°F13.4°C 53.2°F11.8°C 90% 8.9 mph NE14.3 kmh NE 12.0 mph19.3 kmh 28.93 in979.7 mb 0.00 in0.0 mm 0.00 in0.0 mm 0.03 in0.8 mm
05:56 PM 56.2°F13.4°C 53.3°F11.8°C 90% 9.2 mph NE14.8 kmh NE 12.0 mph19.3 kmh 28.93 in979.7 mb 0.00 in0.0 mm 0.00 in0.0 mm 0.03 in0.8 mm
05:57 PM 56.1°F13.4°C 53.2°F11.8°C 90% 9.5 mph NE15.3 kmh NE 13.0 mph20.9 kmh 28.94 in980.0 mb 0.00 in0.0 mm 0.00 in0.0 mm 0.03 in0.8 mm
05:58 PM 56.1°F13.4°C 53.2°F11.8°C 90% 8.7 mph NE14.0 kmh NE 13.0 mph20.9 kmh 28.94 in980.0 mb 0.00 in0.0 mm 0.00 in0.0 mm 0.03 in0.8 mm
05:59 PM 56.1°F13.4°C 53.2°F11.8°C 90% 10.0 mph NE16.1 kmh NE 13.0 mph20.9 kmh 28.94 in980.0 mb 0.00 in0.0 mm 0.00 in0.0 mm 0.03 in0.8 mm
06:00 PM 56.1°F13.4°C 53.5°F11.9°C 91% 9.8 mph NE15.8 kmh NE 14.0 mph22.5 kmh 28.94 in980.0 mb 0.00 in0.0 mm 0.00 in0.0 mm 0.03 in0.8 mm
06:01 PM 56.1°F13.4°C 53.2°F11.8°C 90% 7.3 mph NE11.7 kmh NE 14.0 mph22.5 kmh 28.94 in980.0 mb 0.00 in0.0 mm 0.00 in0.0 mm 0.03 in0.8 mm
06:02 PM 56.0°F13.3°C 53.4°F11.9°C 91% 8.0 mph NE12.9 kmh NE 12.0 mph19.3 kmh 28.94 in980.0 mb 0.00 in0.0 mm 0.00 in0.0 mm 0.03 in0.8 mm
06:03 PM 56.0°F13.3°C 53.4°F11.9°C 91% 12.0 mph NE19.3 kmh NE 14.0 mph22.5 kmh 28.94 in980.0 mb 0.00 in0.0 mm 0.00 in0.0 mm 0.03 in0.8 mm
06:04 PM 56.0°F13.3°C 53.4°F11.9°C 91% 10.5 mph NE16.9 kmh NE 12.0 mph19.3 kmh 28.94 in980.0 mb 0.00 in0.0 mm 0.00 in0.0 mm 0.03 in0.8 mm
06:05 PM 56.0°F13.3°C 53.4°F11.9°C 91% 8.9 mph NE14.3 kmh NE 13.0 mph20.9 kmh 28.94 in980.0 mb 0.00 in0.0 mm 0.00 in0.0 mm 0.03 in0.8 mm
06:06 PM 56.0°F13.3°C 53.4°F11.9°C 91% 10.8 mph NE17.4 kmh NE 14.0 mph22.5 kmh 28.94 in980.0 mb 0.00 in0.0 mm 0.00 in0.0 mm 0.03 in0.8 mm
06:07 PM 56.0°F13.3°C 53.4°F11.9°C 91% 8.3 mph NE13.4 kmh NE 14.0 mph22.5 kmh 28.94 in980.0 mb 0.00 in0.0 mm 0.00 in0.0 mm 0.03 in0.8 mm
06:08 PM 56.0°F13.3°C 53.4°F11.9°C 91% 12.3 mph NE19.8 kmh NE 15.0 mph24.1 kmh 28.94 in980.0 mb 0.00 in0.0 mm 0.00 in0.0 mm 0.03 in0.8 mm
06:09 PM 56.0°F13.3°C 53.1°F11.7°C 90% 12.9 mph NE20.8 kmh NE 16.0 mph25.7 kmh 28.94 in980.0 mb 0.00 in0.0 mm 0.00 in0.0 mm 0.03 in0.8 mm
06:10 PM 56.0°F13.3°C 53.1°F11.7°C 90% 8.5 mph NE13.7 kmh NE 16.0 mph25.7 kmh 28.94 in980.0 mb 0.00 in0.0 mm 0.00 in0.0 mm 0.03 in0.8 mm
06:11 PM 56.0°F13.3°C 53.1°F11.7°C 90% 12.4 mph NE20.0 kmh NE 15.0 mph24.1 kmh 28.94 in980.0 mb 0.00 in0.0 mm 0.00 in0.0 mm 0.03 in0.8 mm
06:12 PM 55.9°F13.3°C 53.0°F11.7°C 90% 9.0 mph NE14.5 kmh NE 15.0 mph24.1 kmh 28.94 in980.0 mb 0.00 in0.0 mm 0.00 in0.0 mm 0.03 in0.8 mm
06:13 PM 55.9°F13.3°C 53.0°F11.7°C 90% 10.8 mph NE17.4 kmh NE 14.0 mph22.5 kmh 28.94 in980.0 mb 0.00 in0.0 mm 0.00 in0.0 mm 0.03 in0.8 mm
06:14 PM 56.0°F13.3°C 53.4°F11.9°C 91% 8.4 mph NE13.5 kmh NE 14.0 mph22.5 kmh 28.94 in980.0 mb 0.00 in0.0 mm 0.00 in0.0 mm 0.03 in0.8 mm
06:15 PM 55.9°F13.3°C 53.3°F11.8°C 91% 8.0 mph NE12.9 kmh NE 11.0 mph17.7 kmh 28.94 in980.0 mb 0.00 in0.0 mm 0.00 in0.0 mm 0.03 in0.8 mm
06:16 PM 55.9°F13.3°C 53.3°F11.8°C 91% 10.9 mph NE17.5 kmh NE 14.0 mph22.5 kmh 28.94 in980.0 mb 0.00 in0.0 mm 0.00 in0.0 mm 0.03 in0.8 mm
06:17 PM 55.9°F13.3°C 53.3°F11.8°C 91% 11.2 mph NE18.0 kmh NE 14.0 mph22.5 kmh 28.94 in980.0 mb 0.00 in0.0 mm 0.00 in0.0 mm 0.03 in0.8 mm
06:18 PM 55.9°F13.3°C 53.3°F11.8°C 91% 8.5 mph NE13.7 kmh NE 13.0 mph20.9 kmh 28.94 in980.0 mb 0.00 in0.0 mm 0.00 in0.0 mm 0.03 in0.8 mm
06:19 PM 56.0°F13.3°C 53.4°F11.9°C 91% 7.3 mph NE11.7 kmh NE 12.0 mph19.3 kmh 28.94 in980.0 mb 0.00 in0.0 mm 0.00 in0.0 mm 0.03 in0.8 mm
06:20 PM 55.9°F13.3°C 53.3°F11.8°C 91% 8.2 mph NE13.2 kmh NE 12.0 mph19.3 kmh 28.94 in980.0 mb 0.00 in0.0 mm 0.00 in0.0 mm 0.03 in0.8 mm
06:21 PM 55.9°F13.3°C 53.3°F11.8°C 91% 7.5 mph NE12.1 kmh NE 12.0 mph19.3 kmh 28.94 in980.0 mb 0.00 in0.0 mm 0.00 in0.0 mm 0.03 in0.8 mm
06:22 PM 55.9°F13.3°C 53.3°F11.8°C 91% 8.3 mph NE13.4 kmh NE 12.0 mph19.3 kmh 28.94 in980.0 mb 0.00 in0.0 mm 0.00 in0.0 mm 0.03 in0.8 mm
06:23 PM 55.9°F13.3°C 53.3°F11.8°C 91% 11.7 mph NE18.8 kmh NE 14.0 mph22.5 kmh 28.94 in980.0 mb 0.00 in0.0 mm 0.00 in0.0 mm 0.03 in0.8 mm
06:24 PM 55.9°F13.3°C 53.3°F11.8°C 91% 11.6 mph NE18.7 kmh NE 14.0 mph22.5 kmh 28.94 in980.0 mb 0.00 in0.0 mm 0.00 in0.0 mm 0.03 in0.8 mm
06:25 PM 55.8°F13.2°C 53.2°F11.8°C 91% 11.3 mph NE18.2 kmh NE 14.0 mph22.5 kmh 28.94 in980.0 mb 0.00 in0.0 mm 0.00 in0.0 mm 0.03 in0.8 mm
06:26 PM 55.8°F13.2°C 53.2°F11.8°C 91% 9.5 mph NE15.3 kmh NE 13.0 mph20.9 kmh 28.94 in980.0 mb 0.00 in0.0 mm 0.00 in0.0 mm 0.03 in0.8 mm
06:27 PM 55.8°F13.2°C 53.2°F11.8°C 91% 10.3 mph NE16.6 kmh NE 15.0 mph24.1 kmh 28.94 in980.0 mb 0.00 in0.0 mm 0.00 in0.0 mm 0.03 in0.8 mm
06:28 PM 55.7°F13.2°C 53.1°F11.7°C 91% 13.0 mph NE20.9 kmh NE 16.0 mph25.7 kmh 28.94 in980.0 mb 0.00 in0.0 mm 0.00 in0.0 mm 0.03 in0.8 mm
06:29 PM 55.7°F13.2°C 53.1°F11.7°C 91% 10.9 mph NE17.5 kmh NE 16.0 mph25.7 kmh 28.94 in980.0 mb 0.00 in0.0 mm 0.00 in0.0 mm 0.03 in0.8 mm
06:30 PM 55.7°F13.2°C 53.1°F11.7°C 91% 9.7 mph NE15.6 kmh NE 14.0 mph22.5 kmh 28.94 in980.0 mb 0.00 in0.0 mm 0.00 in0.0 mm 0.03 in0.8 mm
06:31 PM 55.7°F13.2°C 53.1°F11.7°C 91% 11.3 mph NE18.2 kmh NE 15.0 mph24.1 kmh 28.94 in980.0 mb 0.00 in0.0 mm 0.00 in0.0 mm 0.03 in0.8 mm
06:32 PM 55.6°F13.1°C 53.0°F11.7°C 91% 10.2 mph NE16.4 kmh NE 15.0 mph24.1 kmh 28.95 in980.4 mb 0.00 in0.0 mm 0.00 in0.0 mm 0.03 in0.8 mm
06:33 PM 55.7°F13.2°C 53.1°F11.7°C 91% 9.5 mph NE15.3 kmh NE 13.0 mph20.9 kmh 28.95 in980.4 mb 0.00 in0.0 mm 0.00 in0.0 mm 0.03 in0.8 mm
06:34 PM 55.6°F13.1°C 53.0°F11.7°C 91% 11.8 mph NE19.0 kmh NE 14.0 mph22.5 kmh 28.94 in980.0 mb 0.00 in0.0 mm 0.00 in0.0 mm 0.03 in0.8 mm
06:35 PM 55.6°F13.1°C 53.0°F11.7°C 91% 11.0 mph NE17.7 kmh NE 14.0 mph22.5 kmh 28.95 in980.4 mb 0.00 in0.0 mm 0.00 in0.0 mm 0.03 in0.8 mm
06:36 PM 55.6°F13.1°C 53.0°F11.7°C 91% 10.0 mph NE16.1 kmh NE 12.0 mph19.3 kmh 28.95 in980.4 mb 0.00 in0.0 mm 0.00 in0.0 mm 0.03 in0.8 mm
06:37 PM 55.5°F13.1°C 52.9°F11.6°C 91% 9.3 mph NNE15.0 kmh NNE 12.0 mph19.3 kmh 28.95 in980.4 mb 0.00 in0.0 mm 0.00 in0.0 mm 0.03 in0.8 mm
06:38 PM 55.5°F13.1°C 52.9°F11.6°C 91% 9.0 mph NE14.5 kmh NE 14.0 mph22.5 kmh 28.95 in980.4 mb 0.00 in0.0 mm 0.00 in0.0 mm 0.03 in0.8 mm
06:39 PM 55.5°F13.1°C 52.9°F11.6°C 91% 9.0 mph NE14.5 kmh NE 11.0 mph17.7 kmh 28.95 in980.4 mb 0.00 in0.0 mm 0.00 in0.0 mm 0.03 in0.8 mm
06:40 PM 55.5°F13.1°C 52.9°F11.6°C 91% 7.2 mph NE11.6 kmh NE 11.0 mph17.7 kmh 28.95 in980.4 mb 0.00 in0.0 mm 0.00 in0.0 mm 0.03 in0.8 mm
06:41 PM 55.5°F13.1°C 52.9°F11.6°C 91% 9.5 mph NE15.3 kmh NE 13.0 mph20.9 kmh 28.95 in980.4 mb 0.00 in0.0 mm 0.00 in0.0 mm 0.03 in0.8 mm
06:42 PM 55.5°F13.1°C 52.9°F11.6°C 91% 8.4 mph NE13.5 kmh NE 13.0 mph20.9 kmh 28.95 in980.4 mb 0.00 in0.0 mm 0.00 in0.0 mm 0.03 in0.8 mm
06:43 PM 55.6°F13.1°C 53.3°F11.8°C 92% 9.8 mph NE15.8 kmh NE 13.0 mph20.9 kmh 28.95 in980.4 mb 0.00 in0.0 mm 0.00 in0.0 mm 0.03 in0.8 mm
06:44 PM 55.6°F13.1°C 53.3°F11.8°C 92% 10.0 mph NE16.1 kmh NE 14.0 mph22.5 kmh 28.95 in980.4 mb 0.00 in0.0 mm 0.00 in0.0 mm 0.03 in0.8 mm
06:45 PM 55.6°F13.1°C 53.3°F11.8°C 92% 12.0 mph NE19.3 kmh NE 16.0 mph25.7 kmh 28.95 in980.4 mb 0.00 in0.0 mm 0.00 in0.0 mm 0.03 in0.8 mm
06:46 PM 55.5°F13.1°C 52.9°F11.6°C 91% 11.9 mph NE19.2 kmh NE 16.0 mph25.7 kmh 28.95 in980.4 mb 0.00 in0.0 mm 0.00 in0.0 mm 0.03 in0.8 mm
06:47 PM 55.5°F13.1°C 52.9°F11.6°C 91% 12.5 mph NE20.1 kmh NE 17.0 mph27.4 kmh 28.95 in980.4 mb 0.00 in0.0 mm 0.00 in0.0 mm 0.03 in0.8 mm
06:48 PM 55.4°F13.0°C 52.8°F11.6°C 91% 12.0 mph NE19.3 kmh NE 17.0 mph27.4 kmh 28.95 in980.4 mb 0.00 in0.0 mm 0.00 in0.0 mm 0.03 in0.8 mm
06:49 PM 55.4°F13.0°C 52.8°F11.6°C 91% 11.0 mph NE17.7 kmh NE 16.0 mph25.7 kmh 28.95 in980.4 mb 0.00 in0.0 mm 0.00 in0.0 mm 0.03 in0.8 mm
06:50 PM 55.4°F13.0°C 52.8°F11.6°C 91% 10.9 mph NE17.5 kmh NE 13.0 mph20.9 kmh 28.95 in980.4 mb 0.00 in0.0 mm 0.00 in0.0 mm 0.03 in0.8 mm
06:51 PM 55.3°F12.9°C 52.7°F11.5°C 91% 12.8 mph NE20.6 kmh NE 18.0 mph29.0 kmh 28.95 in980.4 mb 0.00 in0.0 mm 0.00 in0.0 mm 0.03 in0.8 mm
06:52 PM 55.3°F12.9°C 52.7°F11.5°C 91% 12.3 mph NE19.8 kmh NE 18.0 mph29.0 kmh 28.95 in980.4 mb 0.00 in0.0 mm 0.00 in0.0 mm 0.03 in0.8 mm
06:53 PM 55.2°F12.9°C 52.6°F11.4°C 91% 12.0 mph NE19.3 kmh NE 15.0 mph24.1 kmh 28.95 in980.4 mb 0.00 in0.0 mm 0.00 in0.0 mm 0.03 in0.8 mm
06:54 PM 55.2°F12.9°C 52.6°F11.4°C 91% 13.0 mph NNE20.9 kmh NNE 19.0 mph30.6 kmh 28.95 in980.4 mb 0.00 in0.0 mm 0.00 in0.0 mm 0.03 in0.8 mm
06:55 PM 55.1°F12.8°C 52.5°F11.4°C 91% 15.0 mph NNE24.1 kmh NNE 18.0 mph29.0 kmh 28.95 in980.4 mb 0.00 in0.0 mm 0.00 in0.0 mm 0.03 in0.8 mm
06:56 PM 55.1°F12.8°C 52.5°F11.4°C 91% 16.8 mph NNE27.0 kmh NNE 19.0 mph30.6 kmh 28.95 in980.4 mb 0.00 in0.0 mm 0.00 in0.0 mm 0.03 in0.8 mm
06:57 PM 55.1°F12.8°C 52.8°F11.6°C 92% 13.5 mph NE21.7 kmh NE 19.0 mph30.6 kmh 28.95 in980.4 mb 0.00 in0.0 mm 0.00 in0.0 mm 0.03 in0.8 mm
06:58 PM 55.1°F12.8°C 52.8°F11.6°C 92% 12.6 mph NE20.3 kmh NE 17.0 mph27.4 kmh 28.95 in980.4 mb 0.00 in0.0 mm 0.00 in0.0 mm 0.03 in0.8 mm
06:59 PM 55.0°F12.8°C 52.7°F11.5°C 92% 12.1 mph NE19.5 kmh NE 17.0 mph27.4 kmh 28.96 in980.7 mb 0.00 in0.0 mm 0.00 in0.0 mm 0.03 in0.8 mm
07:00 PM 54.9°F12.7°C 52.6°F11.4°C 92% 13.1 mph NE21.1 kmh NE 17.0 mph27.4 kmh 28.96 in980.7 mb 0.00 in0.0 mm 0.00 in0.0 mm 0.03 in0.8 mm
07:01 PM 54.8°F12.7°C 52.5°F11.4°C 92% 12.6 mph NE20.3 kmh NE 17.0 mph27.4 kmh 28.96 in980.7 mb 0.00 in0.0 mm 0.00 in0.0 mm 0.03 in0.8 mm
07:02 PM 54.8°F12.7°C 52.5°F11.4°C 92% 12.1 mph NE19.5 kmh NE 16.0 mph25.7 kmh 28.96 in980.7 mb 0.00 in0.0 mm 0.00 in0.0 mm 0.03 in0.8 mm
07:03 PM 54.7°F12.6°C 52.4°F11.3°C 92% 11.9 mph NE19.2 kmh NE 16.0 mph25.7 kmh 28.96 in980.7 mb 0.00 in0.0 mm 0.00 in0.0 mm 0.03 in0.8 mm
07:04 PM 54.7°F12.6°C 52.4°F11.3°C 92% 15.3 mph NE24.6 kmh NE 22.0 mph35.4 kmh 28.96 in980.7 mb 0.00 in0.0 mm 0.00 in0.0 mm 0.03 in0.8 mm
07:05 PM 54.6°F12.6°C 52.3°F11.3°C 92% 14.0 mph NNE22.5 kmh NNE 17.0 mph27.4 kmh 28.96 in980.7 mb 0.00 in0.0 mm 0.00 in0.0 mm 0.03 in0.8 mm
07:06 PM 54.6°F12.6°C 52.3°F11.3°C 92% 9.0 mph NE14.5 kmh NE 13.0 mph20.9 kmh 28.96 in980.7 mb 0.00 in0.0 mm 0.00 in0.0 mm 0.03 in0.8 mm
07:07 PM 54.6°F12.6°C 52.3°F11.3°C 92% 9.9 mph NE15.9 kmh NE 13.0 mph20.9 kmh 28.96 in980.7 mb 0.00 in0.0 mm 0.00 in0.0 mm 0.03 in0.8 mm
07:08 PM 54.5°F12.5°C 52.2°F11.2°C 92% 12.2 mph NE19.6 kmh NE 15.0 mph24.1 kmh 28.96 in980.7 mb 0.00 in0.0 mm 0.00 in0.0 mm 0.03 in0.8 mm
07:09 PM 54.5°F12.5°C 52.2°F11.2°C 92% 10.0 mph NE16.1 kmh NE 15.0 mph24.1 kmh 28.96 in980.7 mb 0.00 in0.0 mm 0.00 in0.0 mm 0.03 in0.8 mm
07:10 PM 54.4°F12.4°C 52.4°F11.3°C 93% 14.1 mph NE22.7 kmh NE 18.0 mph29.0 kmh 28.96 in980.7 mb 0.00 in0.0 mm 0.00 in0.0 mm 0.03 in0.8 mm
07:11 PM 54.4°F12.4°C 52.4°F11.3°C 93% 8.5 mph NE13.7 kmh NE 18.0 mph29.0 kmh 28.96 in980.7 mb 0.00 in0.0 mm 0.00 in0.0 mm 0.03 in0.8 mm
07:12 PM 54.4°F12.4°C 52.4°F11.3°C 93% 11.1 mph NE17.9 kmh NE 16.0 mph25.7 kmh 28.96 in980.7 mb 0.00 in0.0 mm 0.00 in0.0 mm 0.03 in0.8 mm
07:13 PM 54.4°F12.4°C 52.4°F11.3°C 93% 14.5 mph NE23.3 kmh NE 20.0 mph32.2 kmh 28.96 in980.7 mb 0.00 in0.0 mm 0.00 in0.0 mm 0.03 in0.8 mm
07:14 PM 54.4°F12.4°C 52.4°F11.3°C 93% 14.3 mph NE23.0 kmh NE 20.0 mph32.2 kmh 28.96 in980.7 mb 0.00 in0.0 mm 0.00 in0.0 mm 0.03 in0.8 mm
07:15 PM 54.4°F12.4°C 52.4°F11.3°C 93% 9.6 mph NE15.4 kmh NE 19.0 mph30.6 kmh 28.97 in981.0 mb 0.00 in0.0 mm 0.00 in0.0 mm 0.03 in0.8 mm
07:16 PM 54.4°F12.4°C 52.4°F11.3°C 93% 9.5 mph NE15.3 kmh NE 14.0 mph22.5 kmh 28.96 in980.7 mb 0.00 in0.0 mm 0.00 in0.0 mm 0.03 in0.8 mm
07:17 PM 54.3°F12.4°C 52.3°F11.3°C 93% 10.2 mph NE16.4 kmh NE 14.0 mph22.5 kmh 28.96 in980.7 mb 0.00 in0.0 mm 0.00 in0.0 mm 0.03 in0.8 mm
07:18 PM 54.3°F12.4°C 52.3°F11.3°C 93% 10.0 mph NE16.1 kmh NE 14.0 mph22.5 kmh 28.97 in981.0 mb 0.00 in0.0 mm 0.00 in0.0 mm 0.03 in0.8 mm
07:19 PM 54.3°F12.4°C 52.0°F11.1°C 92% 15.0 mph NE24.1 kmh NE 19.0 mph30.6 kmh 28.96 in980.7 mb 0.00 in0.0 mm 0.00 in0.0 mm 0.03 in0.8 mm
07:20 PM 54.2°F12.3°C 51.9°F11.1°C 92% 9.4 mph NE15.1 kmh NE 12.0 mph19.3 kmh 28.96 in980.7 mb 0.00 in0.0 mm 0.00 in0.0 mm 0.03 in0.8 mm
07:21 PM 54.2°F12.3°C 51.9°F11.1°C 92% 13.0 mph NE20.9 kmh NE 18.0 mph29.0 kmh 28.97 in981.0 mb 0.00 in0.0 mm 0.00 in0.0 mm 0.03 in0.8 mm
07:22 PM 54.1°F12.3°C 51.8°F11.0°C 92% 14.0 mph NE22.5 kmh NE 18.0 mph29.0 kmh 28.97 in981.0 mb 0.00 in0.0 mm 0.00 in0.0 mm 0.03 in0.8 mm
07:23 PM 54.1°F12.3°C 51.8°F11.0°C 92% 11.0 mph NE17.7 kmh NE 14.0 mph22.5 kmh 28.97 in981.0 mb 0.00 in0.0 mm 0.00 in0.0 mm 0.03 in0.8 mm
07:24 PM 54.1°F12.3°C 52.1°F11.2°C 93% 13.8 mph NE22.2 kmh NE 19.0 mph30.6 kmh 28.97 in981.0 mb 0.00 in0.0 mm 0.00 in0.0 mm 0.03 in0.8 mm
07:25 PM 54.1°F12.3°C 51.8°F11.0°C 92% 15.1 mph NE24.3 kmh NE 19.0 mph30.6 kmh 28.97 in981.0 mb 0.00 in0.0 mm 0.00 in0.0 mm 0.03 in0.8 mm
07:26 PM 54.1°F12.3°C 51.8°F11.0°C 92% 10.3 mph NE16.6 kmh NE 18.0 mph29.0 kmh 28.97 in981.0 mb 0.00 in0.0 mm 0.00 in0.0 mm 0.03 in0.8 mm
07:27 PM 54.1°F12.3°C 51.8°F11.0°C 92% 11.3 mph NE18.2 kmh NE 16.0 mph25.7 kmh 28.97 in981.0 mb 0.00 in0.0 mm 0.00 in0.0 mm 0.03 in0.8 mm
07:28 PM 54.0°F12.2°C 51.7°F10.9°C 92% 11.2 mph NE18.0 kmh NE 18.0 mph29.0 kmh 28.97 in981.0 mb 0.00 in0.0 mm 0.00 in0.0 mm 0.03 in0.8 mm
07:29 PM 54.0°F12.2°C 51.7°F10.9°C 92% 10.2 mph NE16.4 kmh NE 18.0 mph29.0 kmh 28.97 in981.0 mb 0.00 in0.0 mm 0.00 in0.0 mm 0.03 in0.8 mm
07:30 PM 54.0°F12.2°C 51.7°F10.9°C 92% 11.2 mph NE18.0 kmh NE 16.0 mph25.7 kmh 28.97 in981.0 mb 0.00 in0.0 mm 0.00 in0.0 mm 0.03 in0.8 mm
07:31 PM 54.0°F12.2°C 51.7°F10.9°C 92% 10.0 mph NE16.1 kmh NE 14.0 mph22.5 kmh 28.97 in981.0 mb 0.00 in0.0 mm 0.00 in0.0 mm 0.03 in0.8 mm
07:32 PM 54.0°F12.2°C 51.7°F10.9°C 92% 10.0 mph NE16.1 kmh NE 13.0 mph20.9 kmh 28.97 in981.0 mb 0.00 in0.0 mm 0.00 in0.0 mm 0.03 in0.8 mm
07:33 PM